PWSweather.com
Personal Weather Stations
Station Observations
KCAKERNV93238
Kernville Downtown, Kernville, CA 93238

Kernville DowntownKernville, CA 93238

Lat: 35.754209, Lon: -118.42456

Elevation: 2664

Station Type: Ambient Weather 2902A

www.natureali.org

High Low Average
Temperature 66.7°F19.3°C 41.7°F5.4°C 51.7°F10.9°C
Dew Point 41.9°F5.5°C 27.2°F-2.7°C 37.6°F3.1°C
Winds 14.8 mph 23.8 kmh Calm Calm 1.0 mph ESE1.6 kmh ESE
Wind Gusts 21.7 mph34.9 kmh -- 2.0 mph3.2 kmh
Humidity 82% 24% 61%
Pressure 30.02 in1016.6 mb 29.88 in1011.9 mb -
Precipitation 0.00 in0.0 mm - -
Hour Temp Dew Point Humidity Winds Wind Gusts Pressure Precip Precip Rate Daily Precip Total
12:00 AM 47.3°F8.5°C 40.1°F4.5°C 76% Calm Calm -- 30.00 in1015.9 mb 0.00 in0.0 mm 0.00 in0.0 mm 0.00 in0.0 mm
12:01 AM 47.3°F8.5°C 40.1°F4.5°C 76% Calm Calm -- 30.00 in1015.9 mb 0.00 in0.0 mm 0.00 in0.0 mm 0.00 in0.0 mm
12:02 AM 47.3°F8.5°C 40.1°F4.5°C 76% Calm Calm -- 30.00 in1015.9 mb 0.00 in0.0 mm 0.00 in0.0 mm 0.00 in0.0 mm
12:03 AM 47.3°F8.5°C 40.1°F4.5°C 76% 0.2 mph NE0.3 kmh NE 1.1 mph1.8 kmh 30.00 in1015.9 mb 0.00 in0.0 mm 0.00 in0.0 mm 0.00 in0.0 mm
12:04 AM 47.3°F8.5°C 40.1°F4.5°C 76% Calm Calm -- 30.01 in1016.3 mb 0.00 in0.0 mm 0.00 in0.0 mm 0.00 in0.0 mm
12:05 AM 47.3°F8.5°C 39.8°F4.3°C 75% 0.4 mph NE0.6 kmh NE 1.1 mph1.8 kmh 30.00 in1015.9 mb 0.00 in0.0 mm 0.00 in0.0 mm 0.00 in0.0 mm
12:07 AM 47.5°F8.6°C 40.3°F4.6°C 76% 1.1 mph NE1.8 kmh NE 1.1 mph1.8 kmh 30.00 in1015.9 mb 0.00 in0.0 mm 0.00 in0.0 mm 0.00 in0.0 mm
12:08 AM 47.5°F8.6°C 40.3°F4.6°C 76% 1.1 mph NE1.8 kmh NE 1.1 mph1.8 kmh 30.00 in1015.9 mb 0.00 in0.0 mm 0.00 in0.0 mm 0.00 in0.0 mm
12:09 AM 47.5°F8.6°C 40.0°F4.4°C 75% 1.1 mph NE1.8 kmh NE 1.1 mph1.8 kmh 30.00 in1015.9 mb 0.00 in0.0 mm 0.00 in0.0 mm 0.00 in0.0 mm
12:10 AM 47.5°F8.6°C 40.0°F4.4°C 75% 1.1 mph NE1.8 kmh NE 1.1 mph1.8 kmh 30.00 in1015.9 mb 0.00 in0.0 mm 0.00 in0.0 mm 0.00 in0.0 mm
12:11 AM 47.5°F8.6°C 40.0°F4.4°C 75% 0.9 mph NE1.4 kmh NE 1.1 mph1.8 kmh 30.00 in1015.9 mb 0.00 in0.0 mm 0.00 in0.0 mm 0.00 in0.0 mm
12:12 AM 47.5°F8.6°C 40.0°F4.4°C 75% 1.1 mph NE1.8 kmh NE 1.1 mph1.8 kmh 30.00 in1015.9 mb 0.00 in0.0 mm 0.00 in0.0 mm 0.00 in0.0 mm
12:13 AM 47.5°F8.6°C 40.0°F4.4°C 75% 1.1 mph NE1.8 kmh NE 2.2 mph3.5 kmh 30.00 in1015.9 mb 0.00 in0.0 mm 0.00 in0.0 mm 0.00 in0.0 mm
12:14 AM 47.5°F8.6°C 40.0°F4.4°C 75% 1.1 mph NE1.8 kmh NE 1.1 mph1.8 kmh 30.00 in1015.9 mb 0.00 in0.0 mm 0.00 in0.0 mm 0.00 in0.0 mm
12:15 AM 47.5°F8.6°C 39.6°F4.2°C 74% 1.1 mph NE1.8 kmh NE 1.1 mph1.8 kmh 30.00 in1015.9 mb 0.00 in0.0 mm 0.00 in0.0 mm 0.00 in0.0 mm
12:17 AM 47.7°F8.7°C 39.8°F4.3°C 74% 1.1 mph NE1.8 kmh NE 1.1 mph1.8 kmh 29.99 in1015.6 mb 0.00 in0.0 mm 0.00 in0.0 mm 0.00 in0.0 mm
12:18 AM 47.8°F8.8°C 40.3°F4.6°C 75% 1.1 mph NE1.8 kmh NE 1.1 mph1.8 kmh 30.00 in1015.9 mb 0.00 in0.0 mm 0.00 in0.0 mm 0.00 in0.0 mm
12:19 AM 47.8°F8.8°C 40.3°F4.6°C 75% 2.2 mph NE3.5 kmh NE 2.2 mph3.5 kmh 29.99 in1015.6 mb 0.00 in0.0 mm 0.00 in0.0 mm 0.00 in0.0 mm
12:20 AM 47.8°F8.8°C 39.9°F4.4°C 74% 1.8 mph NNE2.9 kmh NNE 2.2 mph3.5 kmh 30.00 in1015.9 mb 0.00 in0.0 mm 0.00 in0.0 mm 0.00 in0.0 mm
12:21 AM 47.8°F8.8°C 39.9°F4.4°C 74% 2.2 mph NNE3.5 kmh NNE 2.2 mph3.5 kmh 29.99 in1015.6 mb 0.00 in0.0 mm 0.00 in0.0 mm 0.00 in0.0 mm
12:22 AM 47.8°F8.8°C 39.9°F4.4°C 74% 2.2 mph NNE3.5 kmh NNE 2.2 mph3.5 kmh 30.00 in1015.9 mb 0.00 in0.0 mm 0.00 in0.0 mm 0.00 in0.0 mm
12:23 AM 47.8°F8.8°C 40.3°F4.6°C 75% 1.3 mph NNE2.1 kmh NNE 2.2 mph3.5 kmh 30.00 in1015.9 mb 0.00 in0.0 mm 0.00 in0.0 mm 0.00 in0.0 mm
12:24 AM 47.8°F8.8°C 40.6°F4.8°C 76% 0.9 mph NNE1.4 kmh NNE 1.1 mph1.8 kmh 30.00 in1015.9 mb 0.00 in0.0 mm 0.00 in0.0 mm 0.00 in0.0 mm
12:25 AM 47.8°F8.8°C 40.6°F4.8°C 76% 1.1 mph NNE1.8 kmh NNE 2.2 mph3.5 kmh 30.00 in1015.9 mb 0.00 in0.0 mm 0.00 in0.0 mm 0.00 in0.0 mm
12:26 AM 47.7°F8.7°C 40.5°F4.7°C 76% 1.8 mph NNE2.9 kmh NNE 2.2 mph3.5 kmh 29.99 in1015.6 mb 0.00 in0.0 mm 0.00 in0.0 mm 0.00 in0.0 mm
12:27 AM 47.7°F8.7°C 40.5°F4.7°C 76% 1.1 mph NNE1.8 kmh NNE 1.1 mph1.8 kmh 29.99 in1015.6 mb 0.00 in0.0 mm 0.00 in0.0 mm 0.00 in0.0 mm
12:28 AM 47.5°F8.6°C 40.3°F4.6°C 76% 0.9 mph NNE1.4 kmh NNE 1.1 mph1.8 kmh 29.99 in1015.6 mb 0.00 in0.0 mm 0.00 in0.0 mm 0.00 in0.0 mm
12:29 AM 47.5°F8.6°C 40.3°F4.6°C 76% 1.1 mph NNE1.8 kmh NNE 1.1 mph1.8 kmh 29.99 in1015.6 mb 0.00 in0.0 mm 0.00 in0.0 mm 0.00 in0.0 mm
12:31 AM 47.5°F8.6°C 40.3°F4.6°C 76% 1.1 mph NNE1.8 kmh NNE 1.1 mph1.8 kmh 30.00 in1015.9 mb 0.00 in0.0 mm 0.00 in0.0 mm 0.00 in0.0 mm
12:32 AM 47.5°F8.6°C 40.3°F4.6°C 76% 1.1 mph NNE1.8 kmh NNE 1.1 mph1.8 kmh 29.99 in1015.6 mb 0.00 in0.0 mm 0.00 in0.0 mm 0.00 in0.0 mm
12:33 AM 47.5°F8.6°C 40.0°F4.4°C 75% 0.9 mph NNE1.4 kmh NNE 1.1 mph1.8 kmh 29.99 in1015.6 mb 0.00 in0.0 mm 0.00 in0.0 mm 0.00 in0.0 mm
12:34 AM 47.5°F8.6°C 40.0°F4.4°C 75% 0.9 mph NNE1.4 kmh NNE 1.1 mph1.8 kmh 29.99 in1015.6 mb 0.00 in0.0 mm 0.00 in0.0 mm 0.00 in0.0 mm
12:35 AM 47.5°F8.6°C 40.0°F4.4°C 75% 0.7 mph NNE1.1 kmh NNE 1.1 mph1.8 kmh 29.99 in1015.6 mb 0.00 in0.0 mm 0.00 in0.0 mm 0.00 in0.0 mm
12:36 AM 47.5°F8.6°C 40.0°F4.4°C 75% 0.9 mph NNE1.4 kmh NNE 1.1 mph1.8 kmh 30.00 in1015.9 mb 0.00 in0.0 mm 0.00 in0.0 mm 0.00 in0.0 mm
12:37 AM 47.5°F8.6°C 40.3°F4.6°C 76% Calm Calm -- 30.00 in1015.9 mb 0.00 in0.0 mm 0.00 in0.0 mm 0.00 in0.0 mm
12:38 AM 47.5°F8.6°C 40.3°F4.6°C 76% Calm Calm -- 30.00 in1015.9 mb 0.00 in0.0 mm 0.00 in0.0 mm 0.00 in0.0 mm
12:40 AM 47.5°F8.6°C 40.7°F4.8°C 77% Calm Calm -- 30.00 in1015.9 mb 0.00 in0.0 mm 0.00 in0.0 mm 0.00 in0.0 mm
12:41 AM 47.3°F8.5°C 39.8°F4.3°C 75% 0.2 mph NNE0.3 kmh NNE 1.1 mph1.8 kmh 30.00 in1015.9 mb 0.00 in0.0 mm 0.00 in0.0 mm 0.00 in0.0 mm
12:42 AM 47.3°F8.5°C 39.8°F4.3°C 75% Calm Calm -- 30.00 in1015.9 mb 0.00 in0.0 mm 0.00 in0.0 mm 0.00 in0.0 mm
12:43 AM 47.3°F8.5°C 40.1°F4.5°C 76% Calm Calm -- 30.00 in1015.9 mb 0.00 in0.0 mm 0.00 in0.0 mm 0.00 in0.0 mm
12:44 AM 47.3°F8.5°C 40.1°F4.5°C 76% Calm Calm -- 30.00 in1015.9 mb 0.00 in0.0 mm 0.00 in0.0 mm 0.00 in0.0 mm
12:46 AM 47.1°F8.4°C 39.9°F4.4°C 76% Calm Calm -- 30.01 in1016.3 mb 0.00 in0.0 mm 0.00 in0.0 mm 0.00 in0.0 mm
12:47 AM 47.1°F8.4°C 39.6°F4.2°C 75% Calm Calm -- 30.00 in1015.9 mb 0.00 in0.0 mm 0.00 in0.0 mm 0.00 in0.0 mm
12:48 AM 47.1°F8.4°C 39.9°F4.4°C 76% Calm Calm -- 30.02 in1016.6 mb 0.00 in0.0 mm 0.00 in0.0 mm 0.00 in0.0 mm
12:49 AM 47.1°F8.4°C 39.6°F4.2°C 75% Calm Calm -- 30.01 in1016.3 mb 0.00 in0.0 mm 0.00 in0.0 mm 0.00 in0.0 mm
12:50 AM 47.1°F8.4°C 39.6°F4.2°C 75% Calm Calm -- 30.00 in1015.9 mb 0.00 in0.0 mm 0.00 in0.0 mm 0.00 in0.0 mm
12:51 AM 47.1°F8.4°C 39.6°F4.2°C 75% Calm Calm -- 30.01 in1016.3 mb 0.00 in0.0 mm 0.00 in0.0 mm 0.00 in0.0 mm
12:52 AM 47.1°F8.4°C 39.6°F4.2°C 75% Calm Calm -- 30.01 in1016.3 mb 0.00 in0.0 mm 0.00 in0.0 mm 0.00 in0.0 mm
12:53 AM 47.1°F8.4°C 39.9°F4.4°C 76% Calm Calm -- 30.00 in1015.9 mb 0.00 in0.0 mm 0.00 in0.0 mm 0.00 in0.0 mm
12:54 AM 47.1°F8.4°C 40.3°F4.6°C 77% 0.2 mph NNE0.3 kmh NNE 1.1 mph1.8 kmh 30.01 in1016.3 mb 0.00 in0.0 mm 0.00 in0.0 mm 0.00 in0.0 mm
12:55 AM 47.1°F8.4°C 40.6°F4.8°C 78% Calm Calm -- 30.01 in1016.3 mb 0.00 in0.0 mm 0.00 in0.0 mm 0.00 in0.0 mm
12:56 AM 47.1°F8.4°C 40.6°F4.8°C 78% Calm Calm -- 30.01 in1016.3 mb 0.00 in0.0 mm 0.00 in0.0 mm 0.00 in0.0 mm
12:57 AM 46.9°F8.3°C 40.4°F4.7°C 78% Calm Calm -- 30.01 in1016.3 mb 0.00 in0.0 mm 0.00 in0.0 mm 0.00 in0.0 mm
12:58 AM 46.9°F8.3°C 40.4°F4.7°C 78% Calm Calm -- 30.01 in1016.3 mb 0.00 in0.0 mm 0.00 in0.0 mm 0.00 in0.0 mm
12:59 AM 46.9°F8.3°C 40.4°F4.7°C 78% Calm Calm -- 30.01 in1016.3 mb 0.00 in0.0 mm 0.00 in0.0 mm 0.00 in0.0 mm
01:00 AM 46.9°F8.3°C 40.1°F4.5°C 77% Calm Calm -- 30.01 in1016.3 mb 0.00 in0.0 mm 0.00 in0.0 mm 0.00 in0.0 mm
01:01 AM 46.9°F8.3°C 39.1°F3.9°C 74% 1.1 mph NNE1.8 kmh NNE 1.1 mph1.8 kmh 30.01 in1016.3 mb 0.00 in0.0 mm 0.00 in0.0 mm 0.00 in0.0 mm
01:02 AM 46.9°F8.3°C 38.0°F3.3°C 71% Calm Calm -- 30.01 in1016.3 mb 0.00 in0.0 mm 0.00 in0.0 mm 0.00 in0.0 mm
01:03 AM 47.3°F8.5°C 38.4°F3.6°C 71% Calm Calm -- 30.01 in1016.3 mb 0.00 in0.0 mm 0.00 in0.0 mm 0.00 in0.0 mm
01:06 AM 47.8°F8.8°C 37.8°F3.2°C 68% 0.9 mph NNE1.4 kmh NNE 1.1 mph1.8 kmh 30.02 in1016.6 mb 0.00 in0.0 mm 0.00 in0.0 mm 0.00 in0.0 mm
01:07 AM 48.2°F9.0°C 37.0°F2.8°C 65% 1.1 mph NNE1.8 kmh NNE 1.1 mph1.8 kmh 30.01 in1016.3 mb 0.00 in0.0 mm 0.00 in0.0 mm 0.00 in0.0 mm
01:09 AM 48.9°F9.4°C 36.5°F2.5°C 62% 2.5 mph NW4.0 kmh NW 3.4 mph5.5 kmh 30.01 in1016.3 mb 0.00 in0.0 mm 0.00 in0.0 mm 0.00 in0.0 mm
01:10 AM 49.5°F9.7°C 36.6°F2.6°C 61% 1.1 mph N1.8 kmh N 2.2 mph3.5 kmh 30.02 in1016.6 mb 0.00 in0.0 mm 0.00 in0.0 mm 0.00 in0.0 mm
01:12 AM 49.8°F9.9°C 38.1°F3.4°C 64% 1.1 mph NNE1.8 kmh NNE 1.1 mph1.8 kmh 30.01 in1016.3 mb 0.00 in0.0 mm 0.00 in0.0 mm 0.00 in0.0 mm
01:13 AM 49.8°F9.9°C 38.5°F3.6°C 65% 2.2 mph NNE3.5 kmh NNE 2.2 mph3.5 kmh 30.01 in1016.3 mb 0.00 in0.0 mm 0.00 in0.0 mm 0.00 in0.0 mm
01:14 AM 49.5°F9.7°C 37.8°F3.2°C 64% 1.1 mph NNE1.8 kmh NNE 2.2 mph3.5 kmh 30.02 in1016.6 mb 0.00 in0.0 mm 0.00 in0.0 mm 0.00 in0.0 mm
01:16 AM 49.3°F9.6°C 38.4°F3.6°C 66% 0.7 mph NNE1.1 kmh NNE 1.1 mph1.8 kmh 30.02 in1016.6 mb 0.00 in0.0 mm 0.00 in0.0 mm 0.00 in0.0 mm
01:18 AM 48.9°F9.4°C 38.4°F3.6°C 67% 0.9 mph NNE1.4 kmh NNE 1.1 mph1.8 kmh 30.02 in1016.6 mb 0.00 in0.0 mm 0.00 in0.0 mm 0.00 in0.0 mm
01:20 AM 48.7°F9.3°C 38.6°F3.7°C 68% 0.9 mph NNE1.4 kmh NNE 1.1 mph1.8 kmh 30.01 in1016.3 mb 0.00 in0.0 mm 0.00 in0.0 mm 0.00 in0.0 mm
01:22 AM 48.4°F9.1°C 38.0°F3.3°C 67% 0.9 mph NE1.4 kmh NE 1.1 mph1.8 kmh 30.02 in1016.6 mb 0.00 in0.0 mm 0.00 in0.0 mm 0.00 in0.0 mm
01:23 AM 48.2°F9.0°C 38.1°F3.4°C 68% 0.9 mph NE1.4 kmh NE 1.1 mph1.8 kmh 30.02 in1016.6 mb 0.00 in0.0 mm 0.00 in0.0 mm 0.00 in0.0 mm
01:24 AM 48.2°F9.0°C 38.1°F3.4°C 68% 0.9 mph NE1.4 kmh NE 1.1 mph1.8 kmh 30.01 in1016.3 mb 0.00 in0.0 mm 0.00 in0.0 mm 0.00 in0.0 mm
01:25 AM 48.2°F9.0°C 37.4°F3.0°C 66% 0.2 mph NE0.3 kmh NE 1.1 mph1.8 kmh 30.01 in1016.3 mb 0.00 in0.0 mm 0.00 in0.0 mm 0.00 in0.0 mm
01:26 AM 48.2°F9.0°C 37.8°F3.2°C 67% Calm Calm -- 30.01 in1016.3 mb 0.00 in0.0 mm 0.00 in0.0 mm 0.00 in0.0 mm
01:28 AM 48.0°F8.9°C 38.0°F3.3°C 68% Calm Calm -- 30.01 in1016.3 mb 0.00 in0.0 mm 0.00 in0.0 mm 0.00 in0.0 mm
01:29 AM 48.0°F8.9°C 38.0°F3.3°C 68% Calm Calm -- 30.01 in1016.3 mb 0.00 in0.0 mm 0.00 in0.0 mm 0.00 in0.0 mm
01:30 AM 47.8°F8.8°C 38.1°F3.4°C 69% Calm Calm -- 30.01 in1016.3 mb 0.00 in0.0 mm 0.00 in0.0 mm 0.00 in0.0 mm
01:31 AM 47.8°F8.8°C 38.1°F3.4°C 69% 0.2 mph NE0.3 kmh NE 1.1 mph1.8 kmh 30.01 in1016.3 mb 0.00 in0.0 mm 0.00 in0.0 mm 0.00 in0.0 mm
01:32 AM 47.7°F8.7°C 38.0°F3.3°C 69% 0.4 mph NE0.6 kmh NE 1.1 mph1.8 kmh 30.01 in1016.3 mb 0.00 in0.0 mm 0.00 in0.0 mm 0.00 in0.0 mm
01:33 AM 47.7°F8.7°C 37.7°F3.2°C 68% 0.2 mph NE0.3 kmh NE 1.1 mph1.8 kmh 30.01 in1016.3 mb 0.00 in0.0 mm 0.00 in0.0 mm 0.00 in0.0 mm
01:34 AM 47.7°F8.7°C 37.3°F2.9°C 67% 0.7 mph NE1.1 kmh NE 1.1 mph1.8 kmh 30.01 in1016.3 mb 0.00 in0.0 mm 0.00 in0.0 mm 0.00 in0.0 mm
01:35 AM 47.7°F8.7°C 37.3°F2.9°C 67% 0.2 mph ENE0.3 kmh ENE 1.1 mph1.8 kmh 30.01 in1016.3 mb 0.00 in0.0 mm 0.00 in0.0 mm 0.00 in0.0 mm
01:37 AM 47.7°F8.7°C 37.3°F2.9°C 67% 0.7 mph ENE1.1 kmh ENE 1.1 mph1.8 kmh 30.00 in1015.9 mb 0.00 in0.0 mm 0.00 in0.0 mm 0.00 in0.0 mm
01:38 AM 47.8°F8.8°C 37.0°F2.8°C 66% 0.7 mph NE1.1 kmh NE 1.1 mph1.8 kmh 30.00 in1015.9 mb 0.00 in0.0 mm 0.00 in0.0 mm 0.00 in0.0 mm
01:39 AM 48.0°F8.9°C 37.6°F3.1°C 67% Calm Calm -- 30.00 in1015.9 mb 0.00 in0.0 mm 0.00 in0.0 mm 0.00 in0.0 mm
01:40 AM 48.0°F8.9°C 37.6°F3.1°C 67% Calm Calm -- 30.00 in1015.9 mb 0.00 in0.0 mm 0.00 in0.0 mm 0.00 in0.0 mm
01:41 AM 48.0°F8.9°C 37.2°F2.9°C 66% Calm Calm -- 30.00 in1015.9 mb 0.00 in0.0 mm 0.00 in0.0 mm 0.00 in0.0 mm
01:42 AM 48.0°F8.9°C 38.0°F3.3°C 68% 0.2 mph NE0.3 kmh NE 1.1 mph1.8 kmh 30.00 in1015.9 mb 0.00 in0.0 mm 0.00 in0.0 mm 0.00 in0.0 mm
01:43 AM 47.8°F8.8°C 38.5°F3.6°C 70% Calm Calm -- 30.00 in1015.9 mb 0.00 in0.0 mm 0.00 in0.0 mm 0.00 in0.0 mm
01:44 AM 47.7°F8.7°C 38.4°F3.6°C 70% Calm Calm -- 30.00 in1015.9 mb 0.00 in0.0 mm 0.00 in0.0 mm 0.00 in0.0 mm
01:46 AM 47.5°F8.6°C 38.6°F3.7°C 71% Calm Calm -- 30.00 in1015.9 mb 0.00 in0.0 mm 0.00 in0.0 mm 0.00 in0.0 mm
01:47 AM 47.3°F8.5°C 38.4°F3.6°C 71% Calm Calm -- 29.99 in1015.6 mb 0.00 in0.0 mm 0.00 in0.0 mm 0.00 in0.0 mm
01:48 AM 47.1°F8.4°C 38.2°F3.4°C 71% Calm Calm -- 29.99 in1015.6 mb 0.00 in0.0 mm 0.00 in0.0 mm 0.00 in0.0 mm
01:49 AM 46.9°F8.3°C 38.0°F3.3°C 71% Calm Calm -- 29.99 in1015.6 mb 0.00 in0.0 mm 0.00 in0.0 mm 0.00 in0.0 mm
01:50 AM 46.9°F8.3°C 39.1°F3.9°C 74% Calm Calm -- 30.00 in1015.9 mb 0.00 in0.0 mm 0.00 in0.0 mm 0.00 in0.0 mm
01:51 AM 46.9°F8.3°C 39.7°F4.3°C 76% Calm Calm -- 30.00 in1015.9 mb 0.00 in0.0 mm 0.00 in0.0 mm 0.00 in0.0 mm
01:53 AM 46.8°F8.2°C 39.6°F4.2°C 76% 0.4 mph ENE0.6 kmh ENE 1.1 mph1.8 kmh 29.99 in1015.6 mb 0.00 in0.0 mm 0.00 in0.0 mm 0.00 in0.0 mm
01:54 AM 46.6°F8.1°C 39.8°F4.3°C 77% Calm Calm -- 30.00 in1015.9 mb 0.00 in0.0 mm 0.00 in0.0 mm 0.00 in0.0 mm
01:56 AM 46.2°F7.9°C 39.1°F3.9°C 76% Calm Calm -- 30.00 in1015.9 mb 0.00 in0.0 mm 0.00 in0.0 mm 0.00 in0.0 mm
01:57 AM 46.0°F7.8°C 39.2°F4.0°C 77% 1.1 mph ENE1.8 kmh ENE 1.1 mph1.8 kmh 30.01 in1016.3 mb 0.00 in0.0 mm 0.00 in0.0 mm 0.00 in0.0 mm
01:58 AM 46.0°F7.8°C 38.5°F3.6°C 75% 1.3 mph ENE2.1 kmh ENE 2.2 mph3.5 kmh 30.00 in1015.9 mb 0.00 in0.0 mm 0.00 in0.0 mm 0.00 in0.0 mm
01:59 AM 46.0°F7.8°C 39.2°F4.0°C 77% Calm Calm -- 30.00 in1015.9 mb 0.00 in0.0 mm 0.00 in0.0 mm 0.00 in0.0 mm
02:00 AM 45.9°F7.7°C 39.4°F4.1°C 78% 0.9 mph ENE1.4 kmh ENE 1.1 mph1.8 kmh 30.00 in1015.9 mb 0.00 in0.0 mm 0.00 in0.0 mm 0.00 in0.0 mm
02:01 AM 45.9°F7.7°C 39.4°F4.1°C 78% 0.7 mph ENE1.1 kmh ENE 1.1 mph1.8 kmh 30.00 in1015.9 mb 0.00 in0.0 mm 0.00 in0.0 mm 0.00 in0.0 mm
02:02 AM 45.5°F7.5°C 39.0°F3.9°C 78% Calm Calm -- 29.99 in1015.6 mb 0.00 in0.0 mm 0.00 in0.0 mm 0.00 in0.0 mm
02:03 AM 45.5°F7.5°C 38.7°F3.7°C 77% Calm Calm -- 30.00 in1015.9 mb 0.00 in0.0 mm 0.00 in0.0 mm 0.00 in0.0 mm
02:05 AM 45.5°F7.5°C 37.7°F3.2°C 74% 0.9 mph ENE1.4 kmh ENE 1.1 mph1.8 kmh 30.00 in1015.9 mb 0.00 in0.0 mm 0.00 in0.0 mm 0.00 in0.0 mm
02:06 AM 45.5°F7.5°C 37.7°F3.2°C 74% 0.7 mph ENE1.1 kmh ENE 1.1 mph1.8 kmh 29.99 in1015.6 mb 0.00 in0.0 mm 0.00 in0.0 mm 0.00 in0.0 mm
02:07 AM 45.5°F7.5°C 37.7°F3.2°C 74% 0.9 mph ENE1.4 kmh ENE 1.1 mph1.8 kmh 29.99 in1015.6 mb 0.00 in0.0 mm 0.00 in0.0 mm 0.00 in0.0 mm
02:08 AM 45.5°F7.5°C 38.0°F3.3°C 75% Calm Calm -- 29.99 in1015.6 mb 0.00 in0.0 mm 0.00 in0.0 mm 0.00 in0.0 mm
02:09 AM 45.5°F7.5°C 38.0°F3.3°C 75% Calm Calm -- 29.99 in1015.6 mb 0.00 in0.0 mm 0.00 in0.0 mm 0.00 in0.0 mm
02:10 AM 45.5°F7.5°C 37.7°F3.2°C 74% Calm Calm -- 29.99 in1015.6 mb 0.00 in0.0 mm 0.00 in0.0 mm 0.00 in0.0 mm
02:11 AM 45.5°F7.5°C 38.0°F3.3°C 75% Calm Calm -- 30.00 in1015.9 mb 0.00 in0.0 mm 0.00 in0.0 mm 0.00 in0.0 mm
02:14 AM 45.5°F7.5°C 37.4°F3.0°C 73% Calm Calm -- 29.99 in1015.6 mb 0.00 in0.0 mm 0.00 in0.0 mm 0.00 in0.0 mm
02:15 AM 45.5°F7.5°C 37.7°F3.2°C 74% Calm Calm -- 29.99 in1015.6 mb 0.00 in0.0 mm 0.00 in0.0 mm 0.00 in0.0 mm
02:17 AM 45.5°F7.5°C 37.4°F3.0°C 73% Calm Calm -- 30.00 in1015.9 mb 0.00 in0.0 mm 0.00 in0.0 mm 0.00 in0.0 mm
02:18 AM 45.5°F7.5°C 37.4°F3.0°C 73% Calm Calm -- 29.99 in1015.6 mb 0.00 in0.0 mm 0.00 in0.0 mm 0.00 in0.0 mm
02:19 AM 45.5°F7.5°C 37.4°F3.0°C 73% Calm Calm -- 29.99 in1015.6 mb 0.00 in0.0 mm 0.00 in0.0 mm 0.00 in0.0 mm
02:20 AM 45.5°F7.5°C 37.4°F3.0°C 73% Calm Calm -- 30.00 in1015.9 mb 0.00 in0.0 mm 0.00 in0.0 mm 0.00 in0.0 mm
02:21 AM 45.5°F7.5°C 37.7°F3.2°C 74% Calm Calm -- 30.00 in1015.9 mb 0.00 in0.0 mm 0.00 in0.0 mm 0.00 in0.0 mm
02:22 AM 45.5°F7.5°C 37.7°F3.2°C 74% Calm Calm -- 29.99 in1015.6 mb 0.00 in0.0 mm 0.00 in0.0 mm 0.00 in0.0 mm
02:23 AM 45.7°F7.6°C 37.5°F3.1°C 73% 1.3 mph ENE2.1 kmh ENE 2.2 mph3.5 kmh 29.99 in1015.6 mb 0.00 in0.0 mm 0.00 in0.0 mm 0.00 in0.0 mm
02:24 AM 45.7°F7.6°C 37.5°F3.1°C 73% 0.4 mph ENE0.6 kmh ENE 1.1 mph1.8 kmh 29.99 in1015.6 mb 0.00 in0.0 mm 0.00 in0.0 mm 0.00 in0.0 mm
02:25 AM 45.9°F7.7°C 37.7°F3.2°C 73% 0.9 mph ENE1.4 kmh ENE 1.1 mph1.8 kmh 29.99 in1015.6 mb 0.00 in0.0 mm 0.00 in0.0 mm 0.00 in0.0 mm
02:26 AM 46.0°F7.8°C 37.8°F3.2°C 73% Calm Calm -- 29.99 in1015.6 mb 0.00 in0.0 mm 0.00 in0.0 mm 0.00 in0.0 mm
02:27 AM 46.0°F7.8°C 37.8°F3.2°C 73% Calm Calm -- 29.99 in1015.6 mb 0.00 in0.0 mm 0.00 in0.0 mm 0.00 in0.0 mm
02:28 AM 46.0°F7.8°C 37.8°F3.2°C 73% Calm Calm -- 30.00 in1015.9 mb 0.00 in0.0 mm 0.00 in0.0 mm 0.00 in0.0 mm
02:29 AM 46.0°F7.8°C 37.8°F3.2°C 73% Calm Calm -- 29.99 in1015.6 mb 0.00 in0.0 mm 0.00 in0.0 mm 0.00 in0.0 mm
02:30 AM 45.9°F7.7°C 37.7°F3.2°C 73% 2.2 mph NNE3.5 kmh NNE 2.2 mph3.5 kmh 29.99 in1015.6 mb 0.00 in0.0 mm 0.00 in0.0 mm 0.00 in0.0 mm
02:31 AM 46.0°F7.8°C 37.5°F3.1°C 72% 0.2 mph NNE0.3 kmh NNE 1.1 mph1.8 kmh 29.99 in1015.6 mb 0.00 in0.0 mm 0.00 in0.0 mm 0.00 in0.0 mm
02:32 AM 46.0°F7.8°C 37.5°F3.1°C 72% Calm Calm -- 29.99 in1015.6 mb 0.00 in0.0 mm 0.00 in0.0 mm 0.00 in0.0 mm
02:33 AM 46.0°F7.8°C 37.8°F3.2°C 73% 0.9 mph E1.4 kmh E 1.1 mph1.8 kmh 29.99 in1015.6 mb 0.00 in0.0 mm 0.00 in0.0 mm 0.00 in0.0 mm
02:34 AM 46.0°F7.8°C 37.8°F3.2°C 73% Calm Calm -- 30.00 in1015.9 mb 0.00 in0.0 mm 0.00 in0.0 mm 0.00 in0.0 mm
02:36 AM 45.9°F7.7°C 37.4°F3.0°C 72% 1.1 mph E1.8 kmh E 1.1 mph1.8 kmh 29.99 in1015.6 mb 0.00 in0.0 mm 0.00 in0.0 mm 0.00 in0.0 mm
02:37 AM 45.9°F7.7°C 37.4°F3.0°C 72% 1.1 mph E1.8 kmh E 1.1 mph1.8 kmh 29.99 in1015.6 mb 0.00 in0.0 mm 0.00 in0.0 mm 0.00 in0.0 mm
02:38 AM 46.0°F7.8°C 37.5°F3.1°C 72% 1.3 mph ENE2.1 kmh ENE 2.2 mph3.5 kmh 29.99 in1015.6 mb 0.00 in0.0 mm 0.00 in0.0 mm 0.00 in0.0 mm
02:39 AM 46.0°F7.8°C 37.1°F2.8°C 71% 2.0 mph NE3.2 kmh NE 2.2 mph3.5 kmh 29.99 in1015.6 mb 0.00 in0.0 mm 0.00 in0.0 mm 0.00 in0.0 mm
02:41 AM 46.2°F7.9°C 37.7°F3.2°C 72% 0.9 mph NE1.4 kmh NE 1.1 mph1.8 kmh 29.99 in1015.6 mb 0.00 in0.0 mm 0.00 in0.0 mm 0.00 in0.0 mm
02:42 AM 46.2°F7.9°C 37.7°F3.2°C 72% 1.3 mph NE2.1 kmh NE 2.2 mph3.5 kmh 29.99 in1015.6 mb 0.00 in0.0 mm 0.00 in0.0 mm 0.00 in0.0 mm
02:43 AM 46.2°F7.9°C 37.7°F3.2°C 72% 1.3 mph NE2.1 kmh NE 2.2 mph3.5 kmh 29.99 in1015.6 mb 0.00 in0.0 mm 0.00 in0.0 mm 0.00 in0.0 mm
02:44 AM 46.2°F7.9°C 37.7°F3.2°C 72% Calm Calm -- 29.99 in1015.6 mb 0.00 in0.0 mm 0.00 in0.0 mm 0.00 in0.0 mm
02:45 AM 46.2°F7.9°C 37.7°F3.2°C 72% Calm Calm -- 29.99 in1015.6 mb 0.00 in0.0 mm 0.00 in0.0 mm 0.00 in0.0 mm
02:47 AM 45.9°F7.7°C 37.7°F3.2°C 73% 0.7 mph NE1.1 kmh NE 1.1 mph1.8 kmh 29.99 in1015.6 mb 0.00 in0.0 mm 0.00 in0.0 mm 0.00 in0.0 mm
02:48 AM 45.9°F7.7°C 37.7°F3.2°C 73% 1.1 mph NE1.8 kmh NE 1.1 mph1.8 kmh 29.99 in1015.6 mb 0.00 in0.0 mm 0.00 in0.0 mm 0.00 in0.0 mm
02:49 AM 45.9°F7.7°C 37.7°F3.2°C 73% 0.2 mph NE0.3 kmh NE 1.1 mph1.8 kmh 29.98 in1015.2 mb 0.00 in0.0 mm 0.00 in0.0 mm 0.00 in0.0 mm
02:50 AM 45.9°F7.7°C 37.7°F3.2°C 73% 0.2 mph NE0.3 kmh NE 1.1 mph1.8 kmh 29.99 in1015.6 mb 0.00 in0.0 mm 0.00 in0.0 mm 0.00 in0.0 mm
02:51 AM 45.9°F7.7°C 38.1°F3.4°C 74% Calm Calm -- 29.99 in1015.6 mb 0.00 in0.0 mm 0.00 in0.0 mm 0.00 in0.0 mm
02:52 AM 45.7°F7.6°C 37.9°F3.3°C 74% 0.4 mph NE0.6 kmh NE 1.1 mph1.8 kmh 29.98 in1015.2 mb 0.00 in0.0 mm 0.00 in0.0 mm 0.00 in0.0 mm
02:53 AM 45.5°F7.5°C 38.0°F3.3°C 75% 0.7 mph NE1.1 kmh NE 1.1 mph1.8 kmh 29.98 in1015.2 mb 0.00 in0.0 mm 0.00 in0.0 mm 0.00 in0.0 mm
02:54 AM 45.5°F7.5°C 38.0°F3.3°C 75% 0.9 mph NE1.4 kmh NE 1.1 mph1.8 kmh 29.98 in1015.2 mb 0.00 in0.0 mm 0.00 in0.0 mm 0.00 in0.0 mm
02:55 AM 45.3°F7.4°C 37.9°F3.3°C 75% Calm Calm -- 29.99 in1015.6 mb 0.00 in0.0 mm 0.00 in0.0 mm 0.00 in0.0 mm
02:56 AM 45.3°F7.4°C 37.9°F3.3°C 75% 0.4 mph NE0.6 kmh NE 1.1 mph1.8 kmh 29.98 in1015.2 mb 0.00 in0.0 mm 0.00 in0.0 mm 0.00 in0.0 mm
02:57 AM 45.3°F7.4°C 37.5°F3.1°C 74% 0.7 mph NE1.1 kmh NE 1.1 mph1.8 kmh 29.98 in1015.2 mb 0.00 in0.0 mm 0.00 in0.0 mm 0.00 in0.0 mm
02:58 AM 45.3°F7.4°C 37.9°F3.3°C 75% Calm Calm -- 29.98 in1015.2 mb 0.00 in0.0 mm 0.00 in0.0 mm 0.00 in0.0 mm
02:59 AM 45.3°F7.4°C 37.9°F3.3°C 75% Calm Calm -- 29.98 in1015.2 mb 0.00 in0.0 mm 0.00 in0.0 mm 0.00 in0.0 mm
03:00 AM 45.1°F7.3°C 37.7°F3.2°C 75% Calm Calm -- 29.98 in1015.2 mb 0.00 in0.0 mm 0.00 in0.0 mm 0.00 in0.0 mm
03:01 AM 45.0°F7.2°C 37.6°F3.1°C 75% 0.4 mph NE0.6 kmh NE 1.1 mph1.8 kmh 29.98 in1015.2 mb 0.00 in0.0 mm 0.00 in0.0 mm 0.00 in0.0 mm
03:02 AM 45.0°F7.2°C 37.6°F3.1°C 75% 1.1 mph NE1.8 kmh NE 1.1 mph1.8 kmh 29.98 in1015.2 mb 0.00 in0.0 mm 0.00 in0.0 mm 0.00 in0.0 mm
03:03 AM 45.0°F7.2°C 37.6°F3.1°C 75% 1.3 mph NE2.1 kmh NE 2.2 mph3.5 kmh 29.98 in1015.2 mb 0.00 in0.0 mm 0.00 in0.0 mm 0.00 in0.0 mm
03:04 AM 45.0°F7.2°C 37.2°F2.9°C 74% 1.8 mph NE2.9 kmh NE 2.2 mph3.5 kmh 29.98 in1015.2 mb 0.00 in0.0 mm 0.00 in0.0 mm 0.00 in0.0 mm
03:05 AM 45.1°F7.3°C 37.3°F2.9°C 74% 0.9 mph NE1.4 kmh NE 1.1 mph1.8 kmh 29.98 in1015.2 mb 0.00 in0.0 mm 0.00 in0.0 mm 0.00 in0.0 mm
03:06 AM 45.3°F7.4°C 37.5°F3.1°C 74% 0.9 mph NE1.4 kmh NE 1.1 mph1.8 kmh 29.98 in1015.2 mb 0.00 in0.0 mm 0.00 in0.0 mm 0.00 in0.0 mm
03:07 AM 45.3°F7.4°C 37.2°F2.9°C 73% Calm Calm -- 29.98 in1015.2 mb 0.00 in0.0 mm 0.00 in0.0 mm 0.00 in0.0 mm
03:08 AM 45.3°F7.4°C 37.5°F3.1°C 74% Calm Calm -- 29.98 in1015.2 mb 0.00 in0.0 mm 0.00 in0.0 mm 0.00 in0.0 mm
03:09 AM 45.3°F7.4°C 37.5°F3.1°C 74% 1.3 mph NE2.1 kmh NE 2.2 mph3.5 kmh 29.98 in1015.2 mb 0.00 in0.0 mm 0.00 in0.0 mm 0.00 in0.0 mm
03:10 AM 45.1°F7.3°C 37.7°F3.2°C 75% Calm Calm -- 29.98 in1015.2 mb 0.00 in0.0 mm 0.00 in0.0 mm 0.00 in0.0 mm
03:11 AM 45.1°F7.3°C 37.7°F3.2°C 75% 1.3 mph NE2.1 kmh NE 2.2 mph3.5 kmh 29.98 in1015.2 mb 0.00 in0.0 mm 0.00 in0.0 mm 0.00 in0.0 mm
03:13 AM 45.1°F7.3°C 37.7°F3.2°C 75% Calm Calm -- 29.98 in1015.2 mb 0.00 in0.0 mm 0.00 in0.0 mm 0.00 in0.0 mm
03:15 AM 45.1°F7.3°C 37.3°F2.9°C 74% Calm Calm -- 29.97 in1014.9 mb 0.00 in0.0 mm 0.00 in0.0 mm 0.00 in0.0 mm
03:17 AM 45.1°F7.3°C 37.3°F2.9°C 74% 1.1 mph NE1.8 kmh NE 1.1 mph1.8 kmh 29.97 in1014.9 mb 0.00 in0.0 mm 0.00 in0.0 mm 0.00 in0.0 mm
03:18 AM 45.1°F7.3°C 37.7°F3.2°C 75% 0.7 mph NE1.1 kmh NE 1.1 mph1.8 kmh 29.98 in1015.2 mb 0.00 in0.0 mm 0.00 in0.0 mm 0.00 in0.0 mm
03:19 AM 45.1°F7.3°C 37.7°F3.2°C 75% 0.2 mph NE0.3 kmh NE 1.1 mph1.8 kmh 29.98 in1015.2 mb 0.00 in0.0 mm 0.00 in0.0 mm 0.00 in0.0 mm
03:21 AM 45.0°F7.2°C 37.6°F3.1°C 75% Calm Calm -- 29.97 in1014.9 mb 0.00 in0.0 mm 0.00 in0.0 mm 0.00 in0.0 mm
03:22 AM 45.0°F7.2°C 37.2°F2.9°C 74% Calm Calm -- 29.98 in1015.2 mb 0.00 in0.0 mm 0.00 in0.0 mm 0.00 in0.0 mm
03:24 AM 45.0°F7.2°C 37.6°F3.1°C 75% Calm Calm -- 29.98 in1015.2 mb 0.00 in0.0 mm 0.00 in0.0 mm 0.00 in0.0 mm
03:27 AM 44.6°F7.0°C 38.2°F3.4°C 78% Calm Calm -- 29.97 in1014.9 mb 0.00 in0.0 mm 0.00 in0.0 mm 0.00 in0.0 mm
03:28 AM 44.6°F7.0°C 38.2°F3.4°C 78% Calm Calm -- 29.96 in1014.6 mb 0.00 in0.0 mm 0.00 in0.0 mm 0.00 in0.0 mm
03:29 AM 44.4°F6.9°C 38.3°F3.5°C 79% Calm Calm -- 29.97 in1014.9 mb 0.00 in0.0 mm 0.00 in0.0 mm 0.00 in0.0 mm
03:31 AM 44.1°F6.7°C 38.3°F3.5°C 80% 0.4 mph NE0.6 kmh NE 1.1 mph1.8 kmh 29.97 in1014.9 mb 0.00 in0.0 mm 0.00 in0.0 mm 0.00 in0.0 mm
03:32 AM 44.1°F6.7°C 38.3°F3.5°C 80% Calm Calm -- 29.97 in1014.9 mb 0.00 in0.0 mm 0.00 in0.0 mm 0.00 in0.0 mm
03:33 AM 43.9°F6.6°C 38.1°F3.4°C 80% Calm Calm -- 29.97 in1014.9 mb 0.00 in0.0 mm 0.00 in0.0 mm 0.00 in0.0 mm
03:34 AM 43.9°F6.6°C 38.1°F3.4°C 80% Calm Calm -- 29.97 in1014.9 mb 0.00 in0.0 mm 0.00 in0.0 mm 0.00 in0.0 mm
03:35 AM 43.7°F6.5°C 37.9°F3.3°C 80% 0.9 mph NE1.4 kmh NE 1.1 mph1.8 kmh 29.97 in1014.9 mb 0.00 in0.0 mm 0.00 in0.0 mm 0.00 in0.0 mm
03:36 AM 43.7°F6.5°C 37.9°F3.3°C 80% Calm Calm -- 29.97 in1014.9 mb 0.00 in0.0 mm 0.00 in0.0 mm 0.00 in0.0 mm
03:37 AM 43.5°F6.4°C 37.7°F3.2°C 80% Calm Calm -- 29.97 in1014.9 mb 0.00 in0.0 mm 0.00 in0.0 mm 0.00 in0.0 mm
03:38 AM 43.5°F6.4°C 38.1°F3.4°C 81% Calm Calm -- 29.97 in1014.9 mb 0.00 in0.0 mm 0.00 in0.0 mm 0.00 in0.0 mm
03:39 AM 43.5°F6.4°C 38.1°F3.4°C 81% Calm Calm -- 29.97 in1014.9 mb 0.00 in0.0 mm 0.00 in0.0 mm 0.00 in0.0 mm
03:41 AM 43.3°F6.3°C 37.9°F3.3°C 81% Calm Calm -- 29.97 in1014.9 mb 0.00 in0.0 mm 0.00 in0.0 mm 0.00 in0.0 mm
03:42 AM 43.3°F6.3°C 37.9°F3.3°C 81% Calm Calm -- 29.96 in1014.6 mb 0.00 in0.0 mm 0.00 in0.0 mm 0.00 in0.0 mm
03:43 AM 43.3°F6.3°C 37.9°F3.3°C 81% Calm Calm -- 29.96 in1014.6 mb 0.00 in0.0 mm 0.00 in0.0 mm 0.00 in0.0 mm
03:44 AM 43.3°F6.3°C 37.9°F3.3°C 81% 1.1 mph NE1.8 kmh NE 1.1 mph1.8 kmh 29.96 in1014.6 mb 0.00 in0.0 mm 0.00 in0.0 mm 0.00 in0.0 mm
03:45 AM 43.3°F6.3°C 37.2°F2.9°C 79% 0.2 mph NE0.3 kmh NE 1.1 mph1.8 kmh 29.96 in1014.6 mb 0.00 in0.0 mm 0.00 in0.0 mm 0.00 in0.0 mm
03:47 AM 43.5°F6.4°C 37.1°F2.8°C 78% Calm Calm -- 29.96 in1014.6 mb 0.00 in0.0 mm 0.00 in0.0 mm 0.00 in0.0 mm
03:48 AM 43.5°F6.4°C 37.4°F3.0°C 79% Calm Calm -- 29.96 in1014.6 mb 0.00 in0.0 mm 0.00 in0.0 mm 0.00 in0.0 mm
03:49 AM 43.5°F6.4°C 37.7°F3.2°C 80% 0.2 mph NE0.3 kmh NE 1.1 mph1.8 kmh 29.96 in1014.6 mb 0.00 in0.0 mm 0.00 in0.0 mm 0.00 in0.0 mm
03:51 AM 43.7°F6.5°C 38.3°F3.5°C 81% Calm Calm -- 29.96 in1014.6 mb 0.00 in0.0 mm 0.00 in0.0 mm 0.00 in0.0 mm
03:53 AM 43.7°F6.5°C 38.3°F3.5°C 81% Calm Calm -- 29.96 in1014.6 mb 0.00 in0.0 mm 0.00 in0.0 mm 0.00 in0.0 mm
03:54 AM 43.3°F6.3°C 37.9°F3.3°C 81% Calm Calm -- 29.96 in1014.6 mb 0.00 in0.0 mm 0.00 in0.0 mm 0.00 in0.0 mm
03:55 AM 43.3°F6.3°C 37.9°F3.3°C 81% 0.2 mph NE0.3 kmh NE 1.1 mph1.8 kmh 29.96 in1014.6 mb 0.00 in0.0 mm 0.00 in0.0 mm 0.00 in0.0 mm
03:57 AM 43.3°F6.3°C 37.9°F3.3°C 81% 0.2 mph NE0.3 kmh NE 1.1 mph1.8 kmh 29.96 in1014.6 mb 0.00 in0.0 mm 0.00 in0.0 mm 0.00 in0.0 mm
03:58 AM 43.3°F6.3°C 37.9°F3.3°C 81% Calm Calm -- 29.96 in1014.6 mb 0.00 in0.0 mm 0.00 in0.0 mm 0.00 in0.0 mm
03:59 AM 43.3°F6.3°C 37.9°F3.3°C 81% Calm Calm -- 29.96 in1014.6 mb 0.00 in0.0 mm 0.00 in0.0 mm 0.00 in0.0 mm
04:00 AM 43.2°F6.2°C 37.8°F3.2°C 81% Calm Calm -- 29.96 in1014.6 mb 0.00 in0.0 mm 0.00 in0.0 mm 0.00 in0.0 mm
04:01 AM 43.2°F6.2°C 37.5°F3.1°C 80% Calm Calm -- 29.96 in1014.6 mb 0.00 in0.0 mm 0.00 in0.0 mm 0.00 in0.0 mm
04:02 AM 43.2°F6.2°C 37.5°F3.1°C 80% Calm Calm -- 29.96 in1014.6 mb 0.00 in0.0 mm 0.00 in0.0 mm 0.00 in0.0 mm
04:03 AM 43.2°F6.2°C 37.5°F3.1°C 80% Calm Calm -- 29.96 in1014.6 mb 0.00 in0.0 mm 0.00 in0.0 mm 0.00 in0.0 mm
04:04 AM 43.2°F6.2°C 37.1°F2.8°C 79% Calm Calm -- 29.96 in1014.6 mb 0.00 in0.0 mm 0.00 in0.0 mm 0.00 in0.0 mm
04:06 AM 43.3°F6.3°C 36.9°F2.7°C 78% 0.2 mph NE0.3 kmh NE 1.1 mph1.8 kmh 29.95 in1014.2 mb 0.00 in0.0 mm 0.00 in0.0 mm 0.00 in0.0 mm
04:08 AM 43.7°F6.5°C 37.0°F2.8°C 77% 1.1 mph NE1.8 kmh NE 1.1 mph1.8 kmh 29.96 in1014.6 mb 0.00 in0.0 mm 0.00 in0.0 mm 0.00 in0.0 mm
04:09 AM 43.7°F6.5°C 37.3°F2.9°C 78% 1.3 mph NE2.1 kmh NE 2.2 mph3.5 kmh 29.96 in1014.6 mb 0.00 in0.0 mm 0.00 in0.0 mm 0.00 in0.0 mm
04:10 AM 43.7°F6.5°C 32.7°F0.4°C 65% 1.8 mph WSW2.9 kmh WSW 3.4 mph5.5 kmh 29.96 in1014.6 mb 0.00 in0.0 mm 0.00 in0.0 mm 0.00 in0.0 mm
04:12 AM 45.7°F7.6°C 37.2°F2.9°C 72% 0.7 mph NE1.1 kmh NE 1.1 mph1.8 kmh 29.96 in1014.6 mb 0.00 in0.0 mm 0.00 in0.0 mm 0.00 in0.0 mm
04:13 AM 45.7°F7.6°C 37.5°F3.1°C 73% 0.7 mph ENE1.1 kmh ENE 1.1 mph1.8 kmh 29.95 in1014.2 mb 0.00 in0.0 mm 0.00 in0.0 mm 0.00 in0.0 mm
04:15 AM 45.1°F7.3°C 38.0°F3.3°C 76% 0.2 mph E0.3 kmh E 1.1 mph1.8 kmh 29.95 in1014.2 mb 0.00 in0.0 mm 0.00 in0.0 mm 0.00 in0.0 mm
04:16 AM 45.0°F7.2°C 37.9°F3.3°C 76% 0.2 mph E0.3 kmh E 1.1 mph1.8 kmh 29.95 in1014.2 mb 0.00 in0.0 mm 0.00 in0.0 mm 0.00 in0.0 mm
04:17 AM 44.6°F7.0°C 37.8°F3.2°C 77% Calm Calm -- 29.96 in1014.6 mb 0.00 in0.0 mm 0.00 in0.0 mm 0.00 in0.0 mm
04:18 AM 44.4°F6.9°C 37.6°F3.1°C 77% 0.7 mph E1.1 kmh E 1.1 mph1.8 kmh 29.95 in1014.2 mb 0.00 in0.0 mm 0.00 in0.0 mm 0.00 in0.0 mm
04:19 AM 44.4°F6.9°C 38.3°F3.5°C 79% Calm Calm -- 29.96 in1014.6 mb 0.00 in0.0 mm 0.00 in0.0 mm 0.00 in0.0 mm
04:20 AM 44.2°F6.8°C 38.1°F3.4°C 79% Calm Calm -- 29.95 in1014.2 mb 0.00 in0.0 mm 0.00 in0.0 mm 0.00 in0.0 mm
04:22 AM 44.1°F6.7°C 38.0°F3.3°C 79% Calm Calm -- 29.96 in1014.6 mb 0.00 in0.0 mm 0.00 in0.0 mm 0.00 in0.0 mm
04:23 AM 43.9°F6.6°C 37.8°F3.2°C 79% Calm Calm -- 29.95 in1014.2 mb 0.00 in0.0 mm 0.00 in0.0 mm 0.00 in0.0 mm
04:25 AM 43.7°F6.5°C 37.6°F3.1°C 79% Calm Calm -- 29.95 in1014.2 mb 0.00 in0.0 mm 0.00 in0.0 mm 0.00 in0.0 mm
04:26 AM 43.7°F6.5°C 37.0°F2.8°C 77% 0.7 mph E1.1 kmh E 1.1 mph1.8 kmh 29.94 in1013.9 mb 0.00 in0.0 mm 0.00 in0.0 mm 0.00 in0.0 mm
04:27 AM 43.7°F6.5°C 37.3°F2.9°C 78% Calm Calm -- 29.95 in1014.2 mb 0.00 in0.0 mm 0.00 in0.0 mm 0.00 in0.0 mm
04:29 AM 43.9°F6.6°C 37.5°F3.1°C 78% 1.1 mph E1.8 kmh E 1.1 mph1.8 kmh 29.95 in1014.2 mb 0.00 in0.0 mm 0.00 in0.0 mm 0.00 in0.0 mm
04:30 AM 43.9°F6.6°C 36.8°F2.7°C 76% 0.2 mph E0.3 kmh E 1.1 mph1.8 kmh 29.95 in1014.2 mb 0.00 in0.0 mm 0.00 in0.0 mm 0.00 in0.0 mm
04:31 AM 43.9°F6.6°C 36.8°F2.7°C 76% 0.2 mph E0.3 kmh E 1.1 mph1.8 kmh 29.95 in1014.2 mb 0.00 in0.0 mm 0.00 in0.0 mm 0.00 in0.0 mm
04:32 AM 43.9°F6.6°C 36.5°F2.5°C 75% Calm Calm -- 29.95 in1014.2 mb 0.00 in0.0 mm 0.00 in0.0 mm 0.00 in0.0 mm
04:34 AM 44.1°F6.7°C 36.4°F2.4°C 74% 0.4 mph E0.6 kmh E 1.1 mph1.8 kmh 29.94 in1013.9 mb 0.00 in0.0 mm 0.00 in0.0 mm 0.00 in0.0 mm
04:35 AM 44.2°F6.8°C 36.4°F2.4°C 74% Calm Calm -- 29.94 in1013.9 mb 0.00 in0.0 mm 0.00 in0.0 mm 0.00 in0.0 mm
04:36 AM 44.4°F6.9°C 36.6°F2.6°C 74% 0.2 mph E0.3 kmh E 1.1 mph1.8 kmh 29.94 in1013.9 mb 0.00 in0.0 mm 0.00 in0.0 mm 0.00 in0.0 mm
04:38 AM 44.8°F7.1°C 36.3°F2.4°C 72% 0.2 mph E0.3 kmh E 1.1 mph1.8 kmh 29.94 in1013.9 mb 0.00 in0.0 mm 0.00 in0.0 mm 0.00 in0.0 mm
04:40 AM 44.8°F7.1°C 36.0°F2.2°C 71% 0.2 mph E0.3 kmh E 1.1 mph1.8 kmh 29.94 in1013.9 mb 0.00 in0.0 mm 0.00 in0.0 mm 0.00 in0.0 mm
04:41 AM 45.1°F7.3°C 36.6°F2.6°C 72% Calm Calm -- 29.94 in1013.9 mb 0.00 in0.0 mm 0.00 in0.0 mm 0.00 in0.0 mm
04:42 AM 45.1°F7.3°C 36.6°F2.6°C 72% Calm Calm -- 29.94 in1013.9 mb 0.00 in0.0 mm 0.00 in0.0 mm 0.00 in0.0 mm
04:43 AM 45.1°F7.3°C 37.0°F2.8°C 73% Calm Calm -- 29.94 in1013.9 mb 0.00 in0.0 mm 0.00 in0.0 mm 0.00 in0.0 mm
04:44 AM 45.1°F7.3°C 37.0°F2.8°C 73% Calm Calm -- 29.94 in1013.9 mb 0.00 in0.0 mm 0.00 in0.0 mm 0.00 in0.0 mm
04:45 AM 45.0°F7.2°C 37.2°F2.9°C 74% 0.7 mph E1.1 kmh E 1.1 mph1.8 kmh 29.94 in1013.9 mb 0.00 in0.0 mm 0.00 in0.0 mm 0.00 in0.0 mm
04:46 AM 45.0°F7.2°C 37.2°F2.9°C 74% Calm Calm -- 29.94 in1013.9 mb 0.00 in0.0 mm 0.00 in0.0 mm 0.00 in0.0 mm
04:47 AM 44.8°F7.1°C 37.0°F2.8°C 74% Calm Calm -- 29.94 in1013.9 mb 0.00 in0.0 mm 0.00 in0.0 mm 0.00 in0.0 mm
04:48 AM 44.8°F7.1°C 37.0°F2.8°C 74% Calm Calm -- 29.94 in1013.9 mb 0.00 in0.0 mm 0.00 in0.0 mm 0.00 in0.0 mm
04:49 AM 44.8°F7.1°C 36.7°F2.6°C 73% 0.7 mph E1.1 kmh E 1.1 mph1.8 kmh 29.94 in1013.9 mb 0.00 in0.0 mm 0.00 in0.0 mm 0.00 in0.0 mm
04:50 AM 44.8°F7.1°C 37.0°F2.8°C 74% Calm Calm -- 29.95 in1014.2 mb 0.00 in0.0 mm 0.00 in0.0 mm 0.00 in0.0 mm
04:51 AM 44.8°F7.1°C 37.4°F3.0°C 75% Calm Calm -- 29.94 in1013.9 mb 0.00 in0.0 mm 0.00 in0.0 mm 0.00 in0.0 mm
04:52 AM 44.8°F7.1°C 38.4°F3.6°C 78% 1.1 mph E1.8 kmh E 1.1 mph1.8 kmh 29.94 in1013.9 mb 0.00 in0.0 mm 0.00 in0.0 mm 0.00 in0.0 mm
04:53 AM 44.8°F7.1°C 38.4°F3.6°C 78% Calm Calm -- 29.95 in1014.2 mb 0.00 in0.0 mm 0.00 in0.0 mm 0.00 in0.0 mm
04:54 AM 44.6°F7.0°C 37.8°F3.2°C 77% 0.2 mph E0.3 kmh E 1.1 mph1.8 kmh 29.95 in1014.2 mb 0.00 in0.0 mm 0.00 in0.0 mm 0.00 in0.0 mm
04:55 AM 44.4°F6.9°C 37.3°F2.9°C 76% Calm Calm -- 29.95 in1014.2 mb 0.00 in0.0 mm 0.00 in0.0 mm 0.00 in0.0 mm
04:56 AM 44.4°F6.9°C 37.6°F3.1°C 77% 0.2 mph E0.3 kmh E 1.1 mph1.8 kmh 29.94 in1013.9 mb 0.00 in0.0 mm 0.00 in0.0 mm 0.00 in0.0 mm
04:57 AM 44.4°F6.9°C 37.6°F3.1°C 77% Calm Calm -- 29.94 in1013.9 mb 0.00 in0.0 mm 0.00 in0.0 mm 0.00 in0.0 mm
04:58 AM 44.4°F6.9°C 37.6°F3.1°C 77% 0.9 mph E1.4 kmh E 1.1 mph1.8 kmh 29.95 in1014.2 mb 0.00 in0.0 mm 0.00 in0.0 mm 0.00 in0.0 mm
05:01 AM 44.4°F6.9°C 37.6°F3.1°C 77% Calm Calm -- 29.95 in1014.2 mb 0.00 in0.0 mm 0.00 in0.0 mm 0.00 in0.0 mm
05:02 AM 44.2°F6.8°C 37.5°F3.1°C 77% Calm Calm -- 29.94 in1013.9 mb 0.00 in0.0 mm 0.00 in0.0 mm 0.00 in0.0 mm
05:03 AM 44.2°F6.8°C 37.1°F2.8°C 76% Calm Calm -- 29.94 in1013.9 mb 0.00 in0.0 mm 0.00 in0.0 mm 0.00 in0.0 mm
05:04 AM 44.2°F6.8°C 37.1°F2.8°C 76% Calm Calm -- 29.93 in1013.5 mb 0.00 in0.0 mm 0.00 in0.0 mm 0.00 in0.0 mm
05:05 AM 44.2°F6.8°C 37.1°F2.8°C 76% Calm Calm -- 29.95 in1014.2 mb 0.00 in0.0 mm 0.00 in0.0 mm 0.00 in0.0 mm
05:06 AM 44.2°F6.8°C 37.1°F2.8°C 76% Calm Calm -- 29.94 in1013.9 mb 0.00 in0.0 mm 0.00 in0.0 mm 0.00 in0.0 mm
05:07 AM 44.1°F6.7°C 37.0°F2.8°C 76% Calm Calm -- 29.93 in1013.5 mb 0.00 in0.0 mm 0.00 in0.0 mm 0.00 in0.0 mm
05:10 AM 44.1°F6.7°C 37.0°F2.8°C 76% Calm Calm -- 29.94 in1013.9 mb 0.00 in0.0 mm 0.00 in0.0 mm 0.00 in0.0 mm
05:11 AM 44.1°F6.7°C 37.0°F2.8°C 76% 0.4 mph E0.6 kmh E 1.1 mph1.8 kmh 29.94 in1013.9 mb 0.00 in0.0 mm 0.00 in0.0 mm 0.00 in0.0 mm
05:12 AM 44.1°F6.7°C 37.0°F2.8°C 76% Calm Calm -- 29.94 in1013.9 mb 0.00 in0.0 mm 0.00 in0.0 mm 0.00 in0.0 mm
05:13 AM 44.1°F6.7°C 36.7°F2.6°C 75% Calm Calm -- 29.94 in1013.9 mb 0.00 in0.0 mm 0.00 in0.0 mm 0.00 in0.0 mm
05:14 AM 44.1°F6.7°C 36.4°F2.4°C 74% Calm Calm -- 29.95 in1014.2 mb 0.00 in0.0 mm 0.00 in0.0 mm 0.00 in0.0 mm
05:15 AM 44.2°F6.8°C 36.8°F2.7°C 75% Calm Calm -- 29.94 in1013.9 mb 0.00 in0.0 mm 0.00 in0.0 mm 0.00 in0.0 mm
05:16 AM 44.4°F6.9°C 37.3°F2.9°C 76% 0.9 mph E1.4 kmh E 1.1 mph1.8 kmh 29.94 in1013.9 mb 0.00 in0.0 mm 0.00 in0.0 mm 0.00 in0.0 mm
05:17 AM 44.4°F6.9°C 36.6°F2.6°C 74% 0.9 mph E1.4 kmh E 1.1 mph1.8 kmh 29.94 in1013.9 mb 0.00 in0.0 mm 0.00 in0.0 mm 0.00 in0.0 mm
05:18 AM 44.4°F6.9°C 37.3°F2.9°C 76% Calm Calm -- 29.94 in1013.9 mb 0.00 in0.0 mm 0.00 in0.0 mm 0.00 in0.0 mm
05:19 AM 44.4°F6.9°C 37.6°F3.1°C 77% Calm Calm -- 29.94 in1013.9 mb 0.00 in0.0 mm 0.00 in0.0 mm 0.00 in0.0 mm
05:20 AM 44.4°F6.9°C 38.0°F3.3°C 78% Calm Calm -- 29.95 in1014.2 mb 0.00 in0.0 mm 0.00 in0.0 mm 0.00 in0.0 mm
05:22 AM 44.4°F6.9°C 38.3°F3.5°C 79% Calm Calm -- 29.94 in1013.9 mb 0.00 in0.0 mm 0.00 in0.0 mm 0.00 in0.0 mm
05:23 AM 44.1°F6.7°C 38.0°F3.3°C 79% 0.7 mph E1.1 kmh E 1.1 mph1.8 kmh 29.94 in1013.9 mb 0.00 in0.0 mm 0.00 in0.0 mm 0.00 in0.0 mm
05:24 AM 44.1°F6.7°C 37.4°F3.0°C 77% 0.7 mph E1.1 kmh E 1.1 mph1.8 kmh 29.94 in1013.9 mb 0.00 in0.0 mm 0.00 in0.0 mm 0.00 in0.0 mm
05:26 AM 44.1°F6.7°C 36.7°F2.6°C 75% 0.9 mph E1.4 kmh E 1.1 mph1.8 kmh 29.94 in1013.9 mb 0.00 in0.0 mm 0.00 in0.0 mm 0.00 in0.0 mm
05:27 AM 44.1°F6.7°C 37.4°F3.0°C 77% 0.9 mph E1.4 kmh E 1.1 mph1.8 kmh 29.94 in1013.9 mb 0.00 in0.0 mm 0.00 in0.0 mm 0.00 in0.0 mm
05:28 AM 44.2°F6.8°C 37.8°F3.2°C 78% Calm Calm -- 29.94 in1013.9 mb 0.00 in0.0 mm 0.00 in0.0 mm 0.00 in0.0 mm
05:29 AM 44.2°F6.8°C 37.5°F3.1°C 77% 0.2 mph E0.3 kmh E 1.1 mph1.8 kmh 29.94 in1013.9 mb 0.00 in0.0 mm 0.00 in0.0 mm 0.00 in0.0 mm
05:31 AM 44.1°F6.7°C 37.4°F3.0°C 77% Calm Calm -- 29.94 in1013.9 mb 0.00 in0.0 mm 0.00 in0.0 mm 0.00 in0.0 mm
05:32 AM 43.9°F6.6°C 37.2°F2.9°C 77% 0.2 mph E0.3 kmh E 1.1 mph1.8 kmh 29.94 in1013.9 mb 0.00 in0.0 mm 0.00 in0.0 mm 0.00 in0.0 mm
05:33 AM 43.9°F6.6°C 37.2°F2.9°C 77% 0.2 mph E0.3 kmh E 1.1 mph1.8 kmh 29.94 in1013.9 mb 0.00 in0.0 mm 0.00 in0.0 mm 0.00 in0.0 mm
05:34 AM 43.9°F6.6°C 37.2°F2.9°C 77% 0.9 mph E1.4 kmh E 2.2 mph3.5 kmh 29.94 in1013.9 mb 0.00 in0.0 mm 0.00 in0.0 mm 0.00 in0.0 mm
05:35 AM 43.9°F6.6°C 36.5°F2.5°C 75% 0.4 mph E0.6 kmh E 1.1 mph1.8 kmh 29.94 in1013.9 mb 0.00 in0.0 mm 0.00 in0.0 mm 0.00 in0.0 mm
05:36 AM 44.1°F6.7°C 36.7°F2.6°C 75% Calm Calm -- 29.94 in1013.9 mb 0.00 in0.0 mm 0.00 in0.0 mm 0.00 in0.0 mm
05:37 AM 44.1°F6.7°C 35.7°F2.1°C 72% 1.1 mph E1.8 kmh E 1.1 mph1.8 kmh 29.94 in1013.9 mb 0.00 in0.0 mm 0.00 in0.0 mm 0.00 in0.0 mm
05:38 AM 44.1°F6.7°C 35.0°F1.7°C 70% Calm Calm -- 29.94 in1013.9 mb 0.00 in0.0 mm 0.00 in0.0 mm 0.00 in0.0 mm
05:39 AM 44.6°F7.0°C 36.5°F2.5°C 73% Calm Calm -- 29.94 in1013.9 mb 0.00 in0.0 mm 0.00 in0.0 mm 0.00 in0.0 mm
05:42 AM 44.8°F7.1°C 36.7°F2.6°C 73% 0.9 mph E1.4 kmh E 2.2 mph3.5 kmh 29.94 in1013.9 mb 0.00 in0.0 mm 0.00 in0.0 mm 0.00 in0.0 mm
05:43 AM 44.8°F7.1°C 36.7°F2.6°C 73% 0.7 mph E1.1 kmh E 1.1 mph1.8 kmh 29.92 in1013.2 mb 0.00 in0.0 mm 0.00 in0.0 mm 0.00 in0.0 mm
05:44 AM 45.0°F7.2°C 36.2°F2.3°C 71% 0.7 mph E1.1 kmh E 1.1 mph1.8 kmh 29.93 in1013.5 mb 0.00 in0.0 mm 0.00 in0.0 mm 0.00 in0.0 mm
05:47 AM 45.0°F7.2°C 36.5°F2.5°C 72% Calm Calm -- 29.93 in1013.5 mb 0.00 in0.0 mm 0.00 in0.0 mm 0.00 in0.0 mm
05:48 AM 44.8°F7.1°C 37.7°F3.2°C 76% Calm Calm -- 29.93 in1013.5 mb 0.00 in0.0 mm 0.00 in0.0 mm 0.00 in0.0 mm
05:49 AM 44.8°F7.1°C 37.7°F3.2°C 76% Calm Calm -- 29.93 in1013.5 mb 0.00 in0.0 mm 0.00 in0.0 mm 0.00 in0.0 mm
05:50 AM 44.6°F7.0°C 37.8°F3.2°C 77% Calm Calm -- 29.93 in1013.5 mb 0.00 in0.0 mm 0.00 in0.0 mm 0.00 in0.0 mm
05:51 AM 44.6°F7.0°C 37.8°F3.2°C 77% Calm Calm -- 29.93 in1013.5 mb 0.00 in0.0 mm 0.00 in0.0 mm 0.00 in0.0 mm
05:52 AM 44.4°F6.9°C 37.6°F3.1°C 77% Calm Calm -- 29.93 in1013.5 mb 0.00 in0.0 mm 0.00 in0.0 mm 0.00 in0.0 mm
05:53 AM 44.2°F6.8°C 37.1°F2.8°C 76% Calm Calm -- 29.94 in1013.9 mb 0.00 in0.0 mm 0.00 in0.0 mm 0.00 in0.0 mm
05:54 AM 44.2°F6.8°C 36.8°F2.7°C 75% Calm Calm -- 29.93 in1013.5 mb 0.00 in0.0 mm 0.00 in0.0 mm 0.00 in0.0 mm
05:55 AM 44.1°F6.7°C 36.7°F2.6°C 75% Calm Calm -- 29.93 in1013.5 mb 0.00 in0.0 mm 0.00 in0.0 mm 0.00 in0.0 mm
05:56 AM 44.1°F6.7°C 36.7°F2.6°C 75% 0.2 mph E0.3 kmh E 1.1 mph1.8 kmh 29.94 in1013.9 mb 0.00 in0.0 mm 0.00 in0.0 mm 0.00 in0.0 mm
05:58 AM 44.1°F6.7°C 37.4°F3.0°C 77% Calm Calm -- 29.93 in1013.5 mb 0.00 in0.0 mm 0.00 in0.0 mm 0.00 in0.0 mm
05:59 AM 43.9°F6.6°C 37.5°F3.1°C 78% Calm Calm -- 29.94 in1013.9 mb 0.00 in0.0 mm 0.00 in0.0 mm 0.00 in0.0 mm
06:00 AM 43.9°F6.6°C 37.8°F3.2°C 79% Calm Calm -- 29.94 in1013.9 mb 0.00 in0.0 mm 0.00 in0.0 mm 0.00 in0.0 mm
06:01 AM 43.7°F6.5°C 37.3°F2.9°C 78% 1.1 mph E1.8 kmh E 1.1 mph1.8 kmh 29.94 in1013.9 mb 0.00 in0.0 mm 0.00 in0.0 mm 0.00 in0.0 mm
06:03 AM 43.5°F6.4°C 37.1°F2.8°C 78% Calm Calm -- 29.93 in1013.5 mb 0.00 in0.0 mm 0.00 in0.0 mm 0.00 in0.0 mm
06:04 AM 43.5°F6.4°C 37.1°F2.8°C 78% 0.2 mph E0.3 kmh E 1.1 mph1.8 kmh 29.93 in1013.5 mb 0.00 in0.0 mm 0.00 in0.0 mm 0.00 in0.0 mm
06:05 AM 43.3°F6.3°C 36.9°F2.7°C 78% 0.2 mph E0.3 kmh E 1.1 mph1.8 kmh 29.93 in1013.5 mb 0.00 in0.0 mm 0.00 in0.0 mm 0.00 in0.0 mm
06:06 AM 43.2°F6.2°C 36.2°F2.3°C 76% 0.7 mph E1.1 kmh E 1.1 mph1.8 kmh 29.94 in1013.9 mb 0.00 in0.0 mm 0.00 in0.0 mm 0.00 in0.0 mm
06:07 AM 43.2°F6.2°C 36.5°F2.5°C 77% 0.2 mph E0.3 kmh E 1.1 mph1.8 kmh 29.94 in1013.9 mb 0.00 in0.0 mm 0.00 in0.0 mm 0.00 in0.0 mm
06:08 AM 43.2°F6.2°C 36.8°F2.7°C 78% Calm Calm -- 29.94 in1013.9 mb 0.00 in0.0 mm 0.00 in0.0 mm 0.00 in0.0 mm
06:09 AM 43.0°F6.1°C 36.6°F2.6°C 78% 0.7 mph E1.1 kmh E 1.1 mph1.8 kmh 29.94 in1013.9 mb 0.00 in0.0 mm 0.00 in0.0 mm 0.00 in0.0 mm
06:10 AM 42.8°F6.0°C 36.7°F2.6°C 79% Calm Calm -- 29.94 in1013.9 mb 0.00 in0.0 mm 0.00 in0.0 mm 0.00 in0.0 mm
06:11 AM 42.8°F6.0°C 36.7°F2.6°C 79% Calm Calm -- 29.94 in1013.9 mb 0.00 in0.0 mm 0.00 in0.0 mm 0.00 in0.0 mm
06:12 AM 42.8°F6.0°C 36.4°F2.4°C 78% Calm Calm -- 29.94 in1013.9 mb 0.00 in0.0 mm 0.00 in0.0 mm 0.00 in0.0 mm
06:14 AM 42.6°F5.9°C 36.6°F2.6°C 79% 0.9 mph E1.4 kmh E 1.1 mph1.8 kmh 29.94 in1013.9 mb 0.00 in0.0 mm 0.00 in0.0 mm 0.00 in0.0 mm
06:16 AM 42.4°F5.8°C 36.7°F2.6°C 80% 1.1 mph E1.8 kmh E 1.1 mph1.8 kmh 29.94 in1013.9 mb 0.00 in0.0 mm 0.00 in0.0 mm 0.00 in0.0 mm
06:17 AM 42.4°F5.8°C 36.7°F2.6°C 80% 1.3 mph E2.1 kmh E 2.2 mph3.5 kmh 29.94 in1013.9 mb 0.00 in0.0 mm 0.00 in0.0 mm 0.00 in0.0 mm
06:18 AM 42.6°F5.9°C 36.9°F2.7°C 80% Calm Calm -- 29.93 in1013.5 mb 0.00 in0.0 mm 0.00 in0.0 mm 0.00 in0.0 mm
06:19 AM 42.6°F5.9°C 36.9°F2.7°C 80% 0.2 mph E0.3 kmh E 1.1 mph1.8 kmh 29.94 in1013.9 mb 0.00 in0.0 mm 0.00 in0.0 mm 0.00 in0.0 mm
06:21 AM 42.3°F5.7°C 36.3°F2.4°C 79% Calm Calm -- 29.94 in1013.9 mb 0.00 in0.0 mm 0.00 in0.0 mm 0.00 in0.0 mm
06:22 AM 42.3°F5.7°C 36.6°F2.6°C 80% 0.7 mph E1.1 kmh E 1.1 mph1.8 kmh 29.95 in1014.2 mb 0.00 in0.0 mm 0.00 in0.0 mm 0.00 in0.0 mm
06:23 AM 42.4°F5.8°C 36.0°F2.2°C 78% Calm Calm -- 29.94 in1013.9 mb 0.00 in0.0 mm 0.00 in0.0 mm 0.00 in0.0 mm
06:24 AM 42.4°F5.8°C 36.0°F2.2°C 78% Calm Calm -- 29.94 in1013.9 mb 0.00 in0.0 mm 0.00 in0.0 mm 0.00 in0.0 mm
06:25 AM 42.6°F5.9°C 36.2°F2.3°C 78% 0.2 mph E0.3 kmh E 1.1 mph1.8 kmh 29.95 in1014.2 mb 0.00 in0.0 mm 0.00 in0.0 mm 0.00 in0.0 mm
06:26 AM 42.6°F5.9°C 36.2°F2.3°C 78% Calm Calm -- 29.94 in1013.9 mb 0.00 in0.0 mm 0.00 in0.0 mm 0.00 in0.0 mm
06:27 AM 42.6°F5.9°C 36.2°F2.3°C 78% Calm Calm -- 29.94 in1013.9 mb 0.00 in0.0 mm 0.00 in0.0 mm 0.00 in0.0 mm
06:28 AM 42.6°F5.9°C 36.2°F2.3°C 78% 1.3 mph E2.1 kmh E 2.2 mph3.5 kmh 29.95 in1014.2 mb 0.00 in0.0 mm 0.00 in0.0 mm 0.00 in0.0 mm
06:29 AM 42.6°F5.9°C 35.9°F2.2°C 77% 1.3 mph NE2.1 kmh NE 2.2 mph3.5 kmh 29.95 in1014.2 mb 0.00 in0.0 mm 0.00 in0.0 mm 0.00 in0.0 mm
06:30 AM 43.2°F6.2°C 36.2°F2.3°C 76% Calm Calm -- 29.95 in1014.2 mb 0.00 in0.0 mm 0.00 in0.0 mm 0.00 in0.0 mm
06:31 AM 43.3°F6.3°C 36.3°F2.4°C 76% Calm Calm -- 29.95 in1014.2 mb 0.00 in0.0 mm 0.00 in0.0 mm 0.00 in0.0 mm
06:33 AM 43.3°F6.3°C 35.9°F2.2°C 75% Calm Calm -- 29.94 in1013.9 mb 0.00 in0.0 mm 0.00 in0.0 mm 0.00 in0.0 mm
06:34 AM 43.3°F6.3°C 36.3°F2.4°C 76% Calm Calm -- 29.94 in1013.9 mb 0.00 in0.0 mm 0.00 in0.0 mm 0.00 in0.0 mm
06:35 AM 43.3°F6.3°C 36.6°F2.6°C 77% Calm Calm -- 29.94 in1013.9 mb 0.00 in0.0 mm 0.00 in0.0 mm 0.00 in0.0 mm
06:36 AM 43.3°F6.3°C 36.6°F2.6°C 77% Calm Calm -- 29.94 in1013.9 mb 0.00 in0.0 mm 0.00 in0.0 mm 0.00 in0.0 mm
06:38 AM 43.2°F6.2°C 36.5°F2.5°C 77% Calm Calm -- 29.95 in1014.2 mb 0.00 in0.0 mm 0.00 in0.0 mm 0.00 in0.0 mm
06:39 AM 43.0°F6.1°C 36.0°F2.2°C 76% 0.9 mph ENE1.4 kmh ENE 1.1 mph1.8 kmh 29.95 in1014.2 mb 0.00 in0.0 mm 0.00 in0.0 mm 0.00 in0.0 mm
06:40 AM 43.0°F6.1°C 35.6°F2.0°C 75% 0.7 mph ENE1.1 kmh ENE 1.1 mph1.8 kmh 29.95 in1014.2 mb 0.00 in0.0 mm 0.00 in0.0 mm 0.00 in0.0 mm
06:41 AM 43.3°F6.3°C 35.2°F1.8°C 73% 0.2 mph ENE0.3 kmh ENE 1.1 mph1.8 kmh 29.94 in1013.9 mb 0.00 in0.0 mm 0.00 in0.0 mm 0.00 in0.0 mm
06:42 AM 43.5°F6.4°C 34.7°F1.5°C 71% Calm Calm -- 29.95 in1014.2 mb 0.00 in0.0 mm 0.00 in0.0 mm 0.00 in0.0 mm
06:43 AM 43.7°F6.5°C 34.9°F1.6°C 71% Calm Calm -- 29.94 in1013.9 mb 0.00 in0.0 mm 0.00 in0.0 mm 0.00 in0.0 mm
06:44 AM 44.1°F6.7°C 36.0°F2.2°C 73% Calm Calm -- 29.95 in1014.2 mb 0.00 in0.0 mm 0.00 in0.0 mm 0.00 in0.0 mm
06:46 AM 44.1°F6.7°C 36.0°F2.2°C 73% 0.2 mph ENE0.3 kmh ENE 1.1 mph1.8 kmh 29.94 in1013.9 mb 0.00 in0.0 mm 0.00 in0.0 mm 0.00 in0.0 mm
06:48 AM 43.9°F6.6°C 35.8°F2.1°C 73% 1.3 mph ENE2.1 kmh ENE 2.2 mph3.5 kmh 29.95 in1014.2 mb 0.00 in0.0 mm 0.00 in0.0 mm 0.00 in0.0 mm
06:49 AM 44.1°F6.7°C 35.7°F2.1°C 72% 1.3 mph NE2.1 kmh NE 2.2 mph3.5 kmh 29.95 in1014.2 mb 0.00 in0.0 mm 0.00 in0.0 mm 0.00 in0.0 mm
06:50 AM 44.1°F6.7°C 35.7°F2.1°C 72% Calm Calm -- 29.94 in1013.9 mb 0.00 in0.0 mm 0.00 in0.0 mm 0.00 in0.0 mm
06:51 AM 44.1°F6.7°C 36.0°F2.2°C 73% 0.9 mph NE1.4 kmh NE 1.1 mph1.8 kmh 29.94 in1013.9 mb 0.00 in0.0 mm 0.00 in0.0 mm 0.00 in0.0 mm
06:52 AM 44.1°F6.7°C 36.0°F2.2°C 73% Calm Calm -- 29.94 in1013.9 mb 0.00 in0.0 mm 0.00 in0.0 mm 0.00 in0.0 mm
06:53 AM 43.9°F6.6°C 35.8°F2.1°C 73% Calm Calm -- 29.94 in1013.9 mb 0.00 in0.0 mm 0.00 in0.0 mm 0.00 in0.0 mm
06:54 AM 43.9°F6.6°C 35.8°F2.1°C 73% Calm Calm -- 29.94 in1013.9 mb 0.00 in0.0 mm 0.00 in0.0 mm 0.00 in0.0 mm
06:55 AM 43.7°F6.5°C 35.6°F2.0°C 73% Calm Calm -- 29.95 in1014.2 mb 0.00 in0.0 mm 0.00 in0.0 mm 0.00 in0.0 mm
06:56 AM 43.7°F6.5°C 35.6°F2.0°C 73% Calm Calm -- 29.94 in1013.9 mb 0.00 in0.0 mm 0.00 in0.0 mm 0.00 in0.0 mm
06:58 AM 43.5°F6.4°C 35.8°F2.1°C 74% Calm Calm -- 29.94 in1013.9 mb 0.00 in0.0 mm 0.00 in0.0 mm 0.00 in0.0 mm
06:59 AM 43.5°F6.4°C 35.8°F2.1°C 74% Calm Calm -- 29.94 in1013.9 mb 0.00 in0.0 mm 0.00 in0.0 mm 0.00 in0.0 mm
07:01 AM 43.3°F6.3°C 35.2°F1.8°C 73% 1.1 mph NE1.8 kmh NE 1.1 mph1.8 kmh 29.94 in1013.9 mb 0.00 in0.0 mm 0.00 in0.0 mm 0.00 in0.0 mm
07:02 AM 43.3°F6.3°C 34.9°F1.6°C 72% 0.9 mph NE1.4 kmh NE 1.1 mph1.8 kmh 29.95 in1014.2 mb 0.00 in0.0 mm 0.00 in0.0 mm 0.00 in0.0 mm
07:03 AM 43.5°F6.4°C 35.1°F1.7°C 72% Calm Calm -- 29.94 in1013.9 mb 0.00 in0.0 mm 0.00 in0.0 mm 0.00 in0.0 mm
07:04 AM 43.5°F6.4°C 35.1°F1.7°C 72% Calm Calm -- 29.95 in1014.2 mb 0.00 in0.0 mm 0.00 in0.0 mm 0.00 in0.0 mm
07:06 AM 43.3°F6.3°C 35.2°F1.8°C 73% Calm Calm -- 29.95 in1014.2 mb 0.00 in0.0 mm 0.00 in0.0 mm 0.00 in0.0 mm
07:07 AM 43.2°F6.2°C 35.1°F1.7°C 73% Calm Calm -- 29.94 in1013.9 mb 0.00 in0.0 mm 0.00 in0.0 mm 0.00 in0.0 mm
07:08 AM 43.2°F6.2°C 35.1°F1.7°C 73% Calm Calm -- 29.95 in1014.2 mb 0.00 in0.0 mm 0.00 in0.0 mm 0.00 in0.0 mm
07:10 AM 43.0°F6.1°C 34.9°F1.6°C 73% Calm Calm -- 29.95 in1014.2 mb 0.00 in0.0 mm 0.00 in0.0 mm 0.00 in0.0 mm
07:11 AM 42.8°F6.0°C 35.1°F1.7°C 74% Calm Calm -- 29.95 in1014.2 mb 0.00 in0.0 mm 0.00 in0.0 mm 0.00 in0.0 mm
07:12 AM 42.8°F6.0°C 35.1°F1.7°C 74% Calm Calm -- 29.94 in1013.9 mb 0.00 in0.0 mm 0.00 in0.0 mm 0.00 in0.0 mm
07:13 AM 42.8°F6.0°C 34.8°F1.6°C 73% Calm Calm -- 29.94 in1013.9 mb 0.00 in0.0 mm 0.00 in0.0 mm 0.00 in0.0 mm
07:14 AM 42.8°F6.0°C 35.4°F1.9°C 75% Calm Calm -- 29.94 in1013.9 mb 0.00 in0.0 mm 0.00 in0.0 mm 0.00 in0.0 mm
07:15 AM 42.8°F6.0°C 36.4°F2.4°C 78% Calm Calm -- 29.95 in1014.2 mb 0.00 in0.0 mm 0.00 in0.0 mm 0.00 in0.0 mm
07:16 AM 42.8°F6.0°C 36.7°F2.6°C 79% 0.2 mph NE0.3 kmh NE 1.1 mph1.8 kmh 29.95 in1014.2 mb 0.00 in0.0 mm 0.00 in0.0 mm 0.00 in0.0 mm
07:17 AM 42.8°F6.0°C 36.7°F2.6°C 79% 0.4 mph NE0.6 kmh NE 1.1 mph1.8 kmh 29.95 in1014.2 mb 0.00 in0.0 mm 0.00 in0.0 mm 0.00 in0.0 mm
07:18 AM 42.6°F5.9°C 36.9°F2.7°C 80% Calm Calm -- 29.95 in1014.2 mb 0.00 in0.0 mm 0.00 in0.0 mm 0.00 in0.0 mm
07:20 AM 42.4°F5.8°C 36.7°F2.6°C 80% Calm Calm -- 29.95 in1014.2 mb 0.00 in0.0 mm 0.00 in0.0 mm 0.00 in0.0 mm
07:21 AM 42.4°F5.8°C 36.7°F2.6°C 80% Calm Calm -- 29.94 in1013.9 mb 0.00 in0.0 mm 0.00 in0.0 mm 0.00 in0.0 mm
07:23 AM 42.3°F5.7°C 36.9°F2.7°C 81% Calm Calm -- 29.95 in1014.2 mb 0.00 in0.0 mm 0.00 in0.0 mm 0.00 in0.0 mm
07:24 AM 42.1°F5.6°C 36.7°F2.6°C 81% Calm Calm -- 29.95 in1014.2 mb 0.00 in0.0 mm 0.00 in0.0 mm 0.00 in0.0 mm
07:25 AM 42.1°F5.6°C 36.7°F2.6°C 81% Calm Calm -- 29.94 in1013.9 mb 0.00 in0.0 mm 0.00 in0.0 mm 0.00 in0.0 mm
07:27 AM 41.9°F5.5°C 36.5°F2.5°C 81% Calm Calm -- 29.94 in1013.9 mb 0.00 in0.0 mm 0.00 in0.0 mm 0.00 in0.0 mm
07:28 AM 41.9°F5.5°C 36.5°F2.5°C 81% Calm Calm -- 29.95 in1014.2 mb 0.00 in0.0 mm 0.00 in0.0 mm 0.00 in0.0 mm
07:29 AM 41.7°F5.4°C 36.0°F2.2°C 80% 0.4 mph NE0.6 kmh NE 1.1 mph1.8 kmh 29.96 in1014.6 mb 0.00 in0.0 mm 0.00 in0.0 mm 0.00 in0.0 mm
07:30 AM 41.9°F5.5°C 36.2°F2.3°C 80% 0.9 mph NE1.4 kmh NE 1.1 mph1.8 kmh 29.95 in1014.2 mb 0.00 in0.0 mm 0.00 in0.0 mm 0.00 in0.0 mm
07:31 AM 42.1°F5.6°C 35.7°F2.1°C 78% 0.9 mph NE1.4 kmh NE 1.1 mph1.8 kmh 29.95 in1014.2 mb 0.00 in0.0 mm 0.00 in0.0 mm 0.00 in0.0 mm
07:33 AM 42.3°F5.7°C 35.6°F2.0°C 77% 0.2 mph NE0.3 kmh NE 1.1 mph1.8 kmh 29.96 in1014.6 mb 0.00 in0.0 mm 0.00 in0.0 mm 0.00 in0.0 mm
07:34 AM 42.6°F5.9°C 35.9°F2.2°C 77% Calm Calm -- 29.95 in1014.2 mb 0.00 in0.0 mm 0.00 in0.0 mm 0.00 in0.0 mm
07:35 AM 42.6°F5.9°C 35.9°F2.2°C 77% 1.3 mph NE2.1 kmh NE 2.2 mph3.5 kmh 29.95 in1014.2 mb 0.00 in0.0 mm 0.00 in0.0 mm 0.00 in0.0 mm
07:36 AM 42.6°F5.9°C 35.6°F2.0°C 76% 1.1 mph NE1.8 kmh NE 1.1 mph1.8 kmh 29.95 in1014.2 mb 0.00 in0.0 mm 0.00 in0.0 mm 0.00 in0.0 mm
07:37 AM 42.6°F5.9°C 35.6°F2.0°C 76% 0.9 mph NE1.4 kmh NE 1.1 mph1.8 kmh 29.95 in1014.2 mb 0.00 in0.0 mm 0.00 in0.0 mm 0.00 in0.0 mm
07:39 AM 42.8°F6.0°C 35.8°F2.1°C 76% Calm Calm -- 29.95 in1014.2 mb 0.00 in0.0 mm 0.00 in0.0 mm 0.00 in0.0 mm
07:40 AM 42.8°F6.0°C 35.4°F1.9°C 75% 0.4 mph NE0.6 kmh NE 1.1 mph1.8 kmh 29.96 in1014.6 mb 0.00 in0.0 mm 0.00 in0.0 mm 0.00 in0.0 mm
07:41 AM 42.8°F6.0°C 35.4°F1.9°C 75% 1.1 mph NE1.8 kmh NE 1.1 mph1.8 kmh 29.95 in1014.2 mb 0.00 in0.0 mm 0.00 in0.0 mm 0.00 in0.0 mm
07:43 AM 42.8°F6.0°C 35.4°F1.9°C 75% Calm Calm -- 29.95 in1014.2 mb 0.00 in0.0 mm 0.00 in0.0 mm 0.00 in0.0 mm
07:44 AM 42.8°F6.0°C 35.4°F1.9°C 75% Calm Calm -- 29.95 in1014.2 mb 0.00 in0.0 mm 0.00 in0.0 mm 0.00 in0.0 mm
07:45 AM 42.6°F5.9°C 35.2°F1.8°C 75% Calm Calm -- 29.95 in1014.2 mb 0.00 in0.0 mm 0.00 in0.0 mm 0.00 in0.0 mm
07:46 AM 42.6°F5.9°C 35.2°F1.8°C 75% Calm Calm -- 29.95 in1014.2 mb 0.00 in0.0 mm 0.00 in0.0 mm 0.00 in0.0 mm
07:47 AM 42.6°F5.9°C 35.6°F2.0°C 76% 0.2 mph NE0.3 kmh NE 1.1 mph1.8 kmh 29.96 in1014.6 mb 0.00 in0.0 mm 0.00 in0.0 mm 0.00 in0.0 mm
07:48 AM 42.6°F5.9°C 35.2°F1.8°C 75% 0.7 mph NE1.1 kmh NE 1.1 mph1.8 kmh 29.96 in1014.6 mb 0.00 in0.0 mm 0.00 in0.0 mm 0.00 in0.0 mm
07:49 AM 42.6°F5.9°C 35.6°F2.0°C 76% Calm Calm -- 29.96 in1014.6 mb 0.00 in0.0 mm 0.00 in0.0 mm 0.00 in0.0 mm
07:51 AM 42.8°F6.0°C 35.8°F2.1°C 76% Calm Calm -- 29.96 in1014.6 mb 0.00 in0.0 mm 0.00 in0.0 mm 0.00 in0.0 mm
07:52 AM 42.8°F6.0°C 35.8°F2.1°C 76% 1.1 mph ENE1.8 kmh ENE 1.1 mph1.8 kmh 29.95 in1014.2 mb 0.00 in0.0 mm 0.00 in0.0 mm 0.00 in0.0 mm
07:53 AM 42.6°F5.9°C 35.2°F1.8°C 75% Calm Calm -- 29.95 in1014.2 mb 0.00 in0.0 mm 0.00 in0.0 mm 0.00 in0.0 mm
07:54 AM 42.6°F5.9°C 35.2°F1.8°C 75% Calm Calm -- 29.96 in1014.6 mb 0.00 in0.0 mm 0.00 in0.0 mm 0.00 in0.0 mm
07:55 AM 42.6°F5.9°C 34.9°F1.6°C 74% 1.1 mph E1.8 kmh E 1.1 mph1.8 kmh 29.96 in1014.6 mb 0.00 in0.0 mm 0.00 in0.0 mm 0.00 in0.0 mm
07:56 AM 42.8°F6.0°C 34.8°F1.6°C 73% 1.1 mph ENE1.8 kmh ENE 1.1 mph1.8 kmh 29.96 in1014.6 mb 0.00 in0.0 mm 0.00 in0.0 mm 0.00 in0.0 mm
07:57 AM 43.0°F6.1°C 34.9°F1.6°C 73% 1.3 mph ENE2.1 kmh ENE 2.2 mph3.5 kmh 29.95 in1014.2 mb 0.00 in0.0 mm 0.00 in0.0 mm 0.00 in0.0 mm
07:58 AM 43.3°F6.3°C 35.2°F1.8°C 73% 0.7 mph ENE1.1 kmh ENE 1.1 mph1.8 kmh 29.96 in1014.6 mb 0.00 in0.0 mm 0.00 in0.0 mm 0.00 in0.0 mm
07:59 AM 43.5°F6.4°C 35.4°F1.9°C 73% 2.2 mph NE3.5 kmh NE 2.2 mph3.5 kmh 29.96 in1014.6 mb 0.00 in0.0 mm 0.00 in0.0 mm 0.00 in0.0 mm
08:00 AM 43.5°F6.4°C 35.8°F2.1°C 74% 1.8 mph NE2.9 kmh NE 2.2 mph3.5 kmh 29.95 in1014.2 mb 0.00 in0.0 mm 0.00 in0.0 mm 0.00 in0.0 mm
08:01 AM 43.5°F6.4°C 35.4°F1.9°C 73% 2.5 mph N4.0 kmh N 3.4 mph5.5 kmh 29.96 in1014.6 mb 0.00 in0.0 mm 0.00 in0.0 mm 0.00 in0.0 mm
08:02 AM 43.5°F6.4°C 35.1°F1.7°C 72% 1.1 mph N1.8 kmh N 1.1 mph1.8 kmh 29.95 in1014.2 mb 0.00 in0.0 mm 0.00 in0.0 mm 0.00 in0.0 mm
08:03 AM 43.3°F6.3°C 34.9°F1.6°C 72% Calm Calm -- 29.96 in1014.6 mb 0.00 in0.0 mm 0.00 in0.0 mm 0.00 in0.0 mm
08:04 AM 43.3°F6.3°C 34.9°F1.6°C 72% Calm Calm -- 29.95 in1014.2 mb 0.00 in0.0 mm 0.00 in0.0 mm 0.00 in0.0 mm
08:08 AM 43.5°F6.4°C 35.1°F1.7°C 72% 0.2 mph NNE0.3 kmh NNE 1.1 mph1.8 kmh 29.96 in1014.6 mb 0.00 in0.0 mm 0.00 in0.0 mm 0.00 in0.0 mm
08:09 AM 43.5°F6.4°C 35.8°F2.1°C 74% Calm Calm -- 29.96 in1014.6 mb 0.00 in0.0 mm 0.00 in0.0 mm 0.00 in0.0 mm
08:10 AM 43.5°F6.4°C 35.8°F2.1°C 74% Calm Calm -- 29.96 in1014.6 mb 0.00 in0.0 mm 0.00 in0.0 mm 0.00 in0.0 mm
08:11 AM 43.5°F6.4°C 35.4°F1.9°C 73% 0.2 mph NNE0.3 kmh NNE 1.1 mph1.8 kmh 29.96 in1014.6 mb 0.00 in0.0 mm 0.00 in0.0 mm 0.00 in0.0 mm
08:12 AM 43.5°F6.4°C 35.4°F1.9°C 73% Calm Calm -- 29.96 in1014.6 mb 0.00 in0.0 mm 0.00 in0.0 mm 0.00 in0.0 mm
08:13 AM 43.7°F6.5°C 35.6°F2.0°C 73% Calm Calm -- 29.96 in1014.6 mb 0.00 in0.0 mm 0.00 in0.0 mm 0.00 in0.0 mm
08:14 AM 43.7°F6.5°C 36.6°F2.6°C 76% 0.2 mph NNE0.3 kmh NNE 1.1 mph1.8 kmh 29.96 in1014.6 mb 0.00 in0.0 mm 0.00 in0.0 mm 0.00 in0.0 mm
08:15 AM 43.7°F6.5°C 36.6°F2.6°C 76% Calm Calm -- 29.96 in1014.6 mb 0.00 in0.0 mm 0.00 in0.0 mm 0.00 in0.0 mm
08:17 AM 43.7°F6.5°C 36.0°F2.2°C 74% Calm Calm -- 29.96 in1014.6 mb 0.00 in0.0 mm 0.00 in0.0 mm 0.00 in0.0 mm
08:19 AM 43.5°F6.4°C 35.1°F1.7°C 72% 0.9 mph NNE1.4 kmh NNE 1.1 mph1.8 kmh 29.96 in1014.6 mb 0.00 in0.0 mm 0.00 in0.0 mm 0.00 in0.0 mm
08:20 AM 43.7°F6.5°C 35.3°F1.8°C 72% 0.4 mph NNE0.6 kmh NNE 1.1 mph1.8 kmh 29.96 in1014.6 mb 0.00 in0.0 mm 0.00 in0.0 mm 0.00 in0.0 mm
08:21 AM 43.7°F6.5°C 35.3°F1.8°C 72% Calm Calm -- 29.96 in1014.6 mb 0.00 in0.0 mm 0.00 in0.0 mm 0.00 in0.0 mm
08:22 AM 44.1°F6.7°C 35.3°F1.8°C 71% 1.1 mph NNE1.8 kmh NNE 1.1 mph1.8 kmh 29.96 in1014.6 mb 0.00 in0.0 mm 0.00 in0.0 mm 0.00 in0.0 mm
08:23 AM 44.2°F6.8°C 35.4°F1.9°C 71% 1.6 mph NNE2.6 kmh NNE 2.2 mph3.5 kmh 29.96 in1014.6 mb 0.00 in0.0 mm 0.00 in0.0 mm 0.00 in0.0 mm
08:24 AM 44.2°F6.8°C 35.4°F1.9°C 71% 1.3 mph NNE2.1 kmh NNE 2.2 mph3.5 kmh 29.96 in1014.6 mb 0.00 in0.0 mm 0.00 in0.0 mm 0.00 in0.0 mm
08:25 AM 44.4°F6.9°C 35.6°F2.0°C 71% 1.6 mph NNE2.6 kmh NNE 2.2 mph3.5 kmh 29.97 in1014.9 mb 0.00 in0.0 mm 0.00 in0.0 mm 0.00 in0.0 mm
08:26 AM 44.4°F6.9°C 34.9°F1.6°C 69% 2.2 mph NNE3.5 kmh NNE 2.2 mph3.5 kmh 29.96 in1014.6 mb 0.00 in0.0 mm 0.00 in0.0 mm 0.00 in0.0 mm
08:27 AM 44.6°F7.0°C 35.4°F1.9°C 70% 2.0 mph NNE3.2 kmh NNE 2.2 mph3.5 kmh 29.96 in1014.6 mb 0.00 in0.0 mm 0.00 in0.0 mm 0.00 in0.0 mm
08:28 AM 44.6°F7.0°C 35.1°F1.7°C 69% 1.1 mph NNE1.8 kmh NNE 1.1 mph1.8 kmh 29.96 in1014.6 mb 0.00 in0.0 mm 0.00 in0.0 mm 0.00 in0.0 mm
08:29 AM 44.8°F7.1°C 34.1°F1.2°C 66% 1.1 mph NNE1.8 kmh NNE 1.1 mph1.8 kmh 29.97 in1014.9 mb 0.00 in0.0 mm 0.00 in0.0 mm 0.00 in0.0 mm
08:31 AM 45.1°F7.3°C 34.0°F1.1°C 65% 1.1 mph NNE1.8 kmh NNE 1.1 mph1.8 kmh 29.96 in1014.6 mb 0.00 in0.0 mm 0.00 in0.0 mm 0.00 in0.0 mm
08:34 AM 46.0°F7.8°C 35.3°F1.8°C 66% 0.4 mph NNE0.6 kmh NNE 1.1 mph1.8 kmh 29.96 in1014.6 mb 0.00 in0.0 mm 0.00 in0.0 mm 0.00 in0.0 mm
08:36 AM 45.9°F7.7°C 35.2°F1.8°C 66% 0.9 mph NNE1.4 kmh NNE 1.1 mph1.8 kmh 29.96 in1014.6 mb 0.00 in0.0 mm 0.00 in0.0 mm 0.00 in0.0 mm
08:37 AM 46.0°F7.8°C 34.9°F1.6°C 65% 0.2 mph NNE0.3 kmh NNE 1.1 mph1.8 kmh 29.97 in1014.9 mb 0.00 in0.0 mm 0.00 in0.0 mm 0.00 in0.0 mm
08:38 AM 46.0°F7.8°C 34.9°F1.6°C 65% 0.9 mph NNE1.4 kmh NNE 1.1 mph1.8 kmh 29.96 in1014.6 mb 0.00 in0.0 mm 0.00 in0.0 mm 0.00 in0.0 mm
08:39 AM 46.0°F7.8°C 34.5°F1.4°C 64% 1.3 mph NNE2.1 kmh NNE 2.2 mph3.5 kmh 29.96 in1014.6 mb 0.00 in0.0 mm 0.00 in0.0 mm 0.00 in0.0 mm
08:40 AM 46.2°F7.9°C 33.9°F1.1°C 62% 1.1 mph NNE1.8 kmh NNE 1.1 mph1.8 kmh 29.97 in1014.9 mb 0.00 in0.0 mm 0.00 in0.0 mm 0.00 in0.0 mm
08:41 AM 46.6°F8.1°C 34.7°F1.5°C 63% 0.2 mph NNE0.3 kmh NNE 1.1 mph1.8 kmh 29.97 in1014.9 mb 0.00 in0.0 mm 0.00 in0.0 mm 0.00 in0.0 mm
08:42 AM 46.6°F8.1°C 35.1°F1.7°C 64% 1.1 mph NNE1.8 kmh NNE 1.1 mph1.8 kmh 29.96 in1014.6 mb 0.00 in0.0 mm 0.00 in0.0 mm 0.00 in0.0 mm
08:43 AM 46.6°F8.1°C 34.7°F1.5°C 63% 1.6 mph NNE2.6 kmh NNE 2.2 mph3.5 kmh 29.97 in1014.9 mb 0.00 in0.0 mm 0.00 in0.0 mm 0.00 in0.0 mm
08:44 AM 46.6°F8.1°C 35.1°F1.7°C 64% 0.9 mph NNE1.4 kmh NNE 1.1 mph1.8 kmh 29.97 in1014.9 mb 0.00 in0.0 mm 0.00 in0.0 mm 0.00 in0.0 mm
08:45 AM 46.8°F8.2°C 35.7°F2.1°C 65% 0.4 mph NNE0.6 kmh NNE 1.1 mph1.8 kmh 29.97 in1014.9 mb 0.00 in0.0 mm 0.00 in0.0 mm 0.00 in0.0 mm
08:46 AM 46.9°F8.3°C 35.8°F2.1°C 65% Calm Calm -- 29.97 in1014.9 mb 0.00 in0.0 mm 0.00 in0.0 mm 0.00 in0.0 mm
08:48 AM 46.9°F8.3°C 36.9°F2.7°C 68% Calm Calm -- 29.96 in1014.6 mb 0.00 in0.0 mm 0.00 in0.0 mm 0.00 in0.0 mm
08:49 AM 46.9°F8.3°C 37.3°F2.9°C 69% Calm Calm -- 29.97 in1014.9 mb 0.00 in0.0 mm 0.00 in0.0 mm 0.00 in0.0 mm
08:51 AM 46.8°F8.2°C 36.0°F2.2°C 66% 0.2 mph NNE0.3 kmh NNE 1.1 mph1.8 kmh 29.96 in1014.6 mb 0.00 in0.0 mm 0.00 in0.0 mm 0.00 in0.0 mm
08:52 AM 46.8°F8.2°C 35.7°F2.1°C 65% 0.2 mph NNE0.3 kmh NNE 1.1 mph1.8 kmh 29.97 in1014.9 mb 0.00 in0.0 mm 0.00 in0.0 mm 0.00 in0.0 mm
08:53 AM 46.9°F8.3°C 35.4°F1.9°C 64% Calm Calm -- 29.97 in1014.9 mb 0.00 in0.0 mm 0.00 in0.0 mm 0.00 in0.0 mm
08:54 AM 46.9°F8.3°C 34.6°F1.4°C 62% 0.7 mph NNE1.1 kmh NNE 1.1 mph1.8 kmh 29.97 in1014.9 mb 0.00 in0.0 mm 0.00 in0.0 mm 0.00 in0.0 mm
08:55 AM 47.1°F8.4°C 35.2°F1.8°C 63% 0.9 mph NNE1.4 kmh NNE 1.1 mph1.8 kmh 29.97 in1014.9 mb 0.00 in0.0 mm 0.00 in0.0 mm 0.00 in0.0 mm
08:56 AM 47.3°F8.5°C 34.9°F1.6°C 62% 2.2 mph N3.5 kmh N 2.2 mph3.5 kmh 29.97 in1014.9 mb 0.00 in0.0 mm 0.00 in0.0 mm 0.00 in0.0 mm
08:57 AM 47.5°F8.6°C 34.7°F1.5°C 61% 1.3 mph NNE2.1 kmh NNE 2.2 mph3.5 kmh 29.97 in1014.9 mb 0.00 in0.0 mm 0.00 in0.0 mm 0.00 in0.0 mm
08:58 AM 47.7°F8.7°C 34.1°F1.2°C 59% 1.1 mph N1.8 kmh N 1.1 mph1.8 kmh 29.97 in1014.9 mb 0.00 in0.0 mm 0.00 in0.0 mm 0.00 in0.0 mm
08:59 AM 47.8°F8.8°C 34.2°F1.2°C 59% 0.2 mph NNE0.3 kmh NNE 1.1 mph1.8 kmh 29.97 in1014.9 mb 0.00 in0.0 mm 0.00 in0.0 mm 0.00 in0.0 mm
09:00 AM 48.0°F8.9°C 33.9°F1.1°C 58% Calm Calm -- 29.97 in1014.9 mb 0.00 in0.0 mm 0.00 in0.0 mm 0.00 in0.0 mm
09:01 AM 48.0°F8.9°C 33.9°F1.1°C 58% Calm Calm -- 29.97 in1014.9 mb 0.00 in0.0 mm 0.00 in0.0 mm 0.00 in0.0 mm
09:02 AM 48.4°F9.1°C 33.9°F1.1°C 57% 0.4 mph NNE0.6 kmh NNE 1.1 mph1.8 kmh 29.97 in1014.9 mb 0.00 in0.0 mm 0.00 in0.0 mm 0.00 in0.0 mm
09:03 AM 48.6°F9.2°C 34.1°F1.2°C 57% 0.2 mph NNE0.3 kmh NNE 1.1 mph1.8 kmh 29.97 in1014.9 mb 0.00 in0.0 mm 0.00 in0.0 mm 0.00 in0.0 mm
09:04 AM 48.6°F9.2°C 34.1°F1.2°C 57% Calm Calm -- 29.98 in1015.2 mb 0.00 in0.0 mm 0.00 in0.0 mm 0.00 in0.0 mm
09:05 AM 48.7°F9.3°C 33.7°F0.9°C 56% 1.1 mph NNE1.8 kmh NNE 1.1 mph1.8 kmh 29.97 in1014.9 mb 0.00 in0.0 mm 0.00 in0.0 mm 0.00 in0.0 mm
09:06 AM 48.9°F9.4°C 33.9°F1.1°C 56% Calm Calm -- 29.97 in1014.9 mb 0.00 in0.0 mm 0.00 in0.0 mm 0.00 in0.0 mm
09:07 AM 49.1°F9.5°C 34.1°F1.2°C 56% 0.2 mph NNE0.3 kmh NNE 1.1 mph1.8 kmh 29.97 in1014.9 mb 0.00 in0.0 mm 0.00 in0.0 mm 0.00 in0.0 mm
09:08 AM 49.1°F9.5°C 34.1°F1.2°C 56% 0.2 mph NNE0.3 kmh NNE 1.1 mph1.8 kmh 29.97 in1014.9 mb 0.00 in0.0 mm 0.00 in0.0 mm 0.00 in0.0 mm
09:09 AM 49.3°F9.6°C 34.7°F1.5°C 57% Calm Calm -- 29.97 in1014.9 mb 0.00 in0.0 mm 0.00 in0.0 mm 0.00 in0.0 mm
09:11 AM 49.6°F9.8°C 34.1°F1.2°C 55% Calm Calm -- 29.97 in1014.9 mb 0.00 in0.0 mm 0.00 in0.0 mm 0.00 in0.0 mm
09:12 AM 49.8°F9.9°C 33.8°F1.0°C 54% Calm Calm -- 29.97 in1014.9 mb 0.00 in0.0 mm 0.00 in0.0 mm 0.00 in0.0 mm
09:13 AM 50.0°F10.0°C 34.0°F1.1°C 54% 1.1 mph NNE1.8 kmh NNE 1.1 mph1.8 kmh 29.97 in1014.9 mb 0.00 in0.0 mm 0.00 in0.0 mm 0.00 in0.0 mm
09:14 AM 50.0°F10.0°C 34.0°F1.1°C 54% 2.2 mph NNE3.5 kmh NNE 2.2 mph3.5 kmh 29.97 in1014.9 mb 0.00 in0.0 mm 0.00 in0.0 mm 0.00 in0.0 mm
09:15 AM 50.0°F10.0°C 34.0°F1.1°C 54% 1.1 mph NNE1.8 kmh NNE 1.1 mph1.8 kmh 29.97 in1014.9 mb 0.00 in0.0 mm 0.00 in0.0 mm 0.00 in0.0 mm
09:16 AM 50.0°F10.0°C 33.5°F0.8°C 53% 1.3 mph NNE2.1 kmh NNE 2.2 mph3.5 kmh 29.97 in1014.9 mb 0.00 in0.0 mm 0.00 in0.0 mm 0.00 in0.0 mm
09:17 AM 50.2°F10.1°C 34.2°F1.2°C 54% 0.9 mph NNE1.4 kmh NNE 1.1 mph1.8 kmh 29.97 in1014.9 mb 0.00 in0.0 mm 0.00 in0.0 mm 0.00 in0.0 mm
09:18 AM 50.2°F10.1°C 33.7°F0.9°C 53% 1.8 mph NNE2.9 kmh NNE 2.2 mph3.5 kmh 29.96 in1014.6 mb 0.00 in0.0 mm 0.00 in0.0 mm 0.00 in0.0 mm
09:19 AM 50.4°F10.2°C 33.9°F1.1°C 53% 2.0 mph NNE3.2 kmh NNE 2.2 mph3.5 kmh 29.96 in1014.6 mb 0.00 in0.0 mm 0.00 in0.0 mm 0.00 in0.0 mm
09:20 AM 50.4°F10.2°C 33.9°F1.1°C 53% 1.8 mph NNE2.9 kmh NNE 2.2 mph3.5 kmh 29.96 in1014.6 mb 0.00 in0.0 mm 0.00 in0.0 mm 0.00 in0.0 mm
09:21 AM 50.5°F10.3°C 33.5°F0.8°C 52% 1.6 mph NNE2.6 kmh NNE 2.2 mph3.5 kmh 29.97 in1014.9 mb 0.00 in0.0 mm 0.00 in0.0 mm 0.00 in0.0 mm
09:22 AM 50.7°F10.4°C 34.2°F1.2°C 53% Calm Calm -- 29.96 in1014.6 mb 0.00 in0.0 mm 0.00 in0.0 mm 0.00 in0.0 mm
09:23 AM 50.9°F10.5°C 33.9°F1.1°C 52% Calm Calm -- 29.96 in1014.6 mb 0.00 in0.0 mm 0.00 in0.0 mm 0.00 in0.0 mm
09:24 AM 51.1°F10.6°C 34.1°F1.2°C 52% Calm Calm -- 29.96 in1014.6 mb 0.00 in0.0 mm 0.00 in0.0 mm 0.00 in0.0 mm
09:25 AM 51.3°F10.7°C 34.3°F1.3°C 52% Calm Calm -- 29.96 in1014.6 mb 0.00 in0.0 mm 0.00 in0.0 mm 0.00 in0.0 mm
09:26 AM 51.4°F10.8°C 33.9°F1.1°C 51% Calm Calm -- 29.97 in1014.9 mb 0.00 in0.0 mm 0.00 in0.0 mm 0.00 in0.0 mm
09:27 AM 51.6°F10.9°C 34.6°F1.4°C 52% 0.2 mph NNE0.3 kmh NNE 1.1 mph1.8 kmh 29.96 in1014.6 mb 0.00 in0.0 mm 0.00 in0.0 mm 0.00 in0.0 mm
09:28 AM 51.6°F10.9°C 34.6°F1.4°C 52% Calm Calm -- 29.96 in1014.6 mb 0.00 in0.0 mm 0.00 in0.0 mm 0.00 in0.0 mm
09:29 AM 51.8°F11.0°C 34.7°F1.5°C 52% Calm Calm -- 29.97 in1014.9 mb 0.00 in0.0 mm 0.00 in0.0 mm 0.00 in0.0 mm
09:31 AM 52.0°F11.1°C 34.9°F1.6°C 52% Calm Calm -- 29.97 in1014.9 mb 0.00 in0.0 mm 0.00 in0.0 mm 0.00 in0.0 mm
09:32 AM 52.2°F11.2°C 35.1°F1.7°C 52% 1.1 mph NNE1.8 kmh NNE 1.1 mph1.8 kmh 29.97 in1014.9 mb 0.00 in0.0 mm 0.00 in0.0 mm 0.00 in0.0 mm
09:33 AM 52.0°F11.1°C 34.9°F1.6°C 52% 0.9 mph NNE1.4 kmh NNE 1.1 mph1.8 kmh 29.97 in1014.9 mb 0.00 in0.0 mm 0.00 in0.0 mm 0.00 in0.0 mm
09:34 AM 52.0°F11.1°C 34.9°F1.6°C 52% 1.3 mph NNE2.1 kmh NNE 2.2 mph3.5 kmh 29.97 in1014.9 mb 0.00 in0.0 mm 0.00 in0.0 mm 0.00 in0.0 mm
09:35 AM 52.2°F11.2°C 35.6°F2.0°C 53% 0.2 mph NNE0.3 kmh NNE 1.1 mph1.8 kmh 29.97 in1014.9 mb 0.00 in0.0 mm 0.00 in0.0 mm 0.00 in0.0 mm
09:36 AM 52.2°F11.2°C 35.6°F2.0°C 53% 0.9 mph NNE1.4 kmh NNE 1.1 mph1.8 kmh 29.97 in1014.9 mb 0.00 in0.0 mm 0.00 in0.0 mm 0.00 in0.0 mm
09:37 AM 52.2°F11.2°C 35.1°F1.7°C 52% 1.3 mph NNE2.1 kmh NNE 2.2 mph3.5 kmh 29.97 in1014.9 mb 0.00 in0.0 mm 0.00 in0.0 mm 0.00 in0.0 mm
09:38 AM 52.3°F11.3°C 34.7°F1.5°C 51% 1.3 mph NNE2.1 kmh NNE 2.2 mph3.5 kmh 29.97 in1014.9 mb 0.00 in0.0 mm 0.00 in0.0 mm 0.00 in0.0 mm
09:39 AM 52.3°F11.3°C 34.7°F1.5°C 51% 0.9 mph NNE1.4 kmh NNE 1.1 mph1.8 kmh 29.97 in1014.9 mb 0.00 in0.0 mm 0.00 in0.0 mm 0.00 in0.0 mm
09:40 AM 52.5°F11.4°C 34.4°F1.3°C 50% 0.9 mph NNE1.4 kmh NNE 1.1 mph1.8 kmh 29.97 in1014.9 mb 0.00 in0.0 mm 0.00 in0.0 mm 0.00 in0.0 mm
09:41 AM 52.7°F11.5°C 34.1°F1.2°C 49% 0.2 mph NNE0.3 kmh NNE 1.1 mph1.8 kmh 29.97 in1014.9 mb 0.00 in0.0 mm 0.00 in0.0 mm 0.00 in0.0 mm
09:42 AM 52.9°F11.6°C 34.8°F1.6°C 50% 0.7 mph NNE1.1 kmh NNE 1.1 mph1.8 kmh 29.97 in1014.9 mb 0.00 in0.0 mm 0.00 in0.0 mm 0.00 in0.0 mm
09:43 AM 53.1°F11.7°C 34.4°F1.3°C 49% 1.3 mph NNE2.1 kmh NNE 2.2 mph3.5 kmh 29.97 in1014.9 mb 0.00 in0.0 mm 0.00 in0.0 mm 0.00 in0.0 mm
09:44 AM 53.4°F11.9°C 35.7°F2.1°C 51% 1.3 mph NNE2.1 kmh NNE 2.2 mph3.5 kmh 29.97 in1014.9 mb 0.00 in0.0 mm 0.00 in0.0 mm 0.00 in0.0 mm
09:45 AM 53.4°F11.9°C 35.7°F2.1°C 51% Calm Calm -- 29.96 in1014.6 mb 0.00 in0.0 mm 0.00 in0.0 mm 0.00 in0.0 mm
09:46 AM 53.4°F11.9°C 34.7°F1.5°C 49% Calm Calm -- 29.97 in1014.9 mb 0.00 in0.0 mm 0.00 in0.0 mm 0.00 in0.0 mm
09:47 AM 54.0°F12.2°C 36.3°F2.4°C 51% 2.0 mph NNE3.2 kmh NNE 2.2 mph3.5 kmh 29.97 in1014.9 mb 0.00 in0.0 mm 0.00 in0.0 mm 0.00 in0.0 mm
09:48 AM 54.0°F12.2°C 36.8°F2.7°C 52% 2.2 mph NNE3.5 kmh NNE 2.2 mph3.5 kmh 29.97 in1014.9 mb 0.00 in0.0 mm 0.00 in0.0 mm 0.00 in0.0 mm
09:49 AM 53.8°F12.1°C 37.1°F2.8°C 53% 1.3 mph NNE2.1 kmh NNE 2.2 mph3.5 kmh 29.97 in1014.9 mb 0.00 in0.0 mm 0.00 in0.0 mm 0.00 in0.0 mm
09:50 AM 53.6°F12.0°C 37.4°F3.0°C 54% 1.8 mph NNE2.9 kmh NNE 2.2 mph3.5 kmh 29.97 in1014.9 mb 0.00 in0.0 mm 0.00 in0.0 mm 0.00 in0.0 mm
09:51 AM 53.4°F11.9°C 37.2°F2.9°C 54% 0.2 mph NNE0.3 kmh NNE 1.1 mph1.8 kmh 29.97 in1014.9 mb 0.00 in0.0 mm 0.00 in0.0 mm 0.00 in0.0 mm
09:52 AM 53.4°F11.9°C 37.6°F3.1°C 55% Calm Calm -- 29.97 in1014.9 mb 0.00 in0.0 mm 0.00 in0.0 mm 0.00 in0.0 mm
09:53 AM 53.6°F12.0°C 36.9°F2.7°C 53% 0.2 mph NNE0.3 kmh NNE 1.1 mph1.8 kmh 29.97 in1014.9 mb 0.00 in0.0 mm 0.00 in0.0 mm 0.00 in0.0 mm
09:54 AM 54.1°F12.3°C 36.9°F2.7°C 52% Calm Calm -- 29.97 in1014.9 mb 0.00 in0.0 mm 0.00 in0.0 mm 0.00 in0.0 mm
09:55 AM 54.3°F12.4°C 37.1°F2.8°C 52% Calm Calm -- 29.97 in1014.9 mb 0.00 in0.0 mm 0.00 in0.0 mm 0.00 in0.0 mm
09:56 AM 54.9°F12.7°C 37.6°F3.1°C 52% Calm Calm -- 29.97 in1014.9 mb 0.00 in0.0 mm 0.00 in0.0 mm 0.00 in0.0 mm
09:57 AM 55.0°F12.8°C 37.7°F3.2°C 52% Calm Calm -- 29.96 in1014.6 mb 0.00 in0.0 mm 0.00 in0.0 mm 0.00 in0.0 mm
09:58 AM 55.8°F13.2°C 37.4°F3.0°C 50% 1.1 mph SE1.8 kmh SE 2.2 mph3.5 kmh 29.97 in1014.9 mb 0.00 in0.0 mm 0.00 in0.0 mm 0.00 in0.0 mm
09:59 AM 56.3°F13.5°C 37.9°F3.3°C 50% Calm Calm -- 29.97 in1014.9 mb 0.00 in0.0 mm 0.00 in0.0 mm 0.00 in0.0 mm
10:00 AM 56.3°F13.5°C 37.9°F3.3°C 50% Calm Calm -- 29.97 in1014.9 mb 0.00 in0.0 mm 0.00 in0.0 mm 0.00 in0.0 mm
10:01 AM 56.8°F13.8°C 37.8°F3.2°C 49% Calm Calm -- 29.97 in1014.9 mb 0.00 in0.0 mm 0.00 in0.0 mm 0.00 in0.0 mm
10:02 AM 57.6°F14.2°C 38.1°F3.4°C 48% 0.7 mph SE1.1 kmh SE 1.1 mph1.8 kmh 29.97 in1014.9 mb 0.00 in0.0 mm 0.00 in0.0 mm 0.00 in0.0 mm
10:03 AM 57.9°F14.4°C 38.3°F3.5°C 48% Calm Calm -- 29.97 in1014.9 mb 0.00 in0.0 mm 0.00 in0.0 mm 0.00 in0.0 mm
10:04 AM 58.1°F14.5°C 38.5°F3.6°C 48% Calm Calm -- 29.97 in1014.9 mb 0.00 in0.0 mm 0.00 in0.0 mm 0.00 in0.0 mm
10:05 AM 58.3°F14.6°C 38.7°F3.7°C 48% 0.9 mph SE1.4 kmh SE 1.1 mph1.8 kmh 29.96 in1014.6 mb 0.00 in0.0 mm 0.00 in0.0 mm 0.00 in0.0 mm
10:07 AM 58.6°F14.8°C 39.5°F4.2°C 49% Calm Calm -- 29.97 in1014.9 mb 0.00 in0.0 mm 0.00 in0.0 mm 0.00 in0.0 mm
10:08 AM 58.5°F14.7°C 39.4°F4.1°C 49% 0.9 mph SE1.4 kmh SE 1.1 mph1.8 kmh 29.96 in1014.6 mb 0.00 in0.0 mm 0.00 in0.0 mm 0.00 in0.0 mm
10:09 AM 58.3°F14.6°C 39.7°F4.3°C 50% 2.0 mph SSE3.2 kmh SSE 2.2 mph3.5 kmh 29.96 in1014.6 mb 0.00 in0.0 mm 0.00 in0.0 mm 0.00 in0.0 mm
10:10 AM 57.9°F14.4°C 40.4°F4.7°C 52% 1.6 mph NE2.6 kmh NE 2.2 mph3.5 kmh 29.97 in1014.9 mb 0.00 in0.0 mm 0.00 in0.0 mm 0.00 in0.0 mm
10:11 AM 56.7°F13.7°C 40.2°F4.6°C 54% 3.6 mph W5.8 kmh W 4.5 mph7.2 kmh 29.96 in1014.6 mb 0.00 in0.0 mm 0.00 in0.0 mm 0.00 in0.0 mm
10:12 AM 56.1°F13.4°C 39.7°F4.3°C 54% 2.5 mph NW4.0 kmh NW 3.4 mph5.5 kmh 29.96 in1014.6 mb 0.00 in0.0 mm 0.00 in0.0 mm 0.00 in0.0 mm
10:13 AM 55.2°F12.9°C 39.3°F4.1°C 55% 1.6 mph N2.6 kmh N 2.2 mph3.5 kmh 29.96 in1014.6 mb 0.00 in0.0 mm 0.00 in0.0 mm 0.00 in0.0 mm
10:14 AM 55.2°F12.9°C 39.3°F4.1°C 55% 1.3 mph NNE2.1 kmh NNE 2.2 mph3.5 kmh 29.96 in1014.6 mb 0.00 in0.0 mm 0.00 in0.0 mm 0.00 in0.0 mm
10:16 AM 55.4°F13.0°C 39.0°F3.9°C 54% 0.4 mph NE0.6 kmh NE 1.1 mph1.8 kmh 29.96 in1014.6 mb 0.00 in0.0 mm 0.00 in0.0 mm 0.00 in0.0 mm
10:17 AM 55.9°F13.3°C 39.5°F4.2°C 54% 0.7 mph NE1.1 kmh NE 1.1 mph1.8 kmh 29.96 in1014.6 mb 0.00 in0.0 mm 0.00 in0.0 mm 0.00 in0.0 mm
10:18 AM 56.3°F13.5°C 39.9°F4.4°C 54% 0.9 mph NE1.4 kmh NE 1.1 mph1.8 kmh 29.96 in1014.6 mb 0.00 in0.0 mm 0.00 in0.0 mm 0.00 in0.0 mm
10:19 AM 56.3°F13.5°C 39.9°F4.4°C 54% 0.7 mph NE1.1 kmh NE 1.1 mph1.8 kmh 29.96 in1014.6 mb 0.00 in0.0 mm 0.00 in0.0 mm 0.00 in0.0 mm
10:21 AM 56.1°F13.4°C 39.7°F4.3°C 54% Calm Calm -- 29.95 in1014.2 mb 0.00 in0.0 mm 0.00 in0.0 mm 0.00 in0.0 mm
10:23 AM 56.1°F13.4°C 38.7°F3.7°C 52% 1.6 mph ENE2.6 kmh ENE 2.2 mph3.5 kmh 29.96 in1014.6 mb 0.00 in0.0 mm 0.00 in0.0 mm 0.00 in0.0 mm
10:24 AM 56.8°F13.8°C 39.4°F4.1°C 52% 0.9 mph ENE1.4 kmh ENE 1.1 mph1.8 kmh 29.96 in1014.6 mb 0.00 in0.0 mm 0.00 in0.0 mm 0.00 in0.0 mm
10:25 AM 56.8°F13.8°C 38.9°F3.8°C 51% Calm Calm -- 29.95 in1014.2 mb 0.00 in0.0 mm 0.00 in0.0 mm 0.00 in0.0 mm
10:27 AM 57.4°F14.1°C 39.4°F4.1°C 51% Calm Calm -- 29.96 in1014.6 mb 0.00 in0.0 mm 0.00 in0.0 mm 0.00 in0.0 mm
10:28 AM 57.4°F14.1°C 38.9°F3.8°C 50% Calm Calm -- 29.96 in1014.6 mb 0.00 in0.0 mm 0.00 in0.0 mm 0.00 in0.0 mm
10:30 AM 57.6°F14.2°C 39.6°F4.2°C 51% 0.2 mph E0.3 kmh E 1.1 mph1.8 kmh 29.95 in1014.2 mb 0.00 in0.0 mm 0.00 in0.0 mm 0.00 in0.0 mm
10:31 AM 57.6°F14.2°C 39.1°F3.9°C 50% 0.2 mph E0.3 kmh E 1.1 mph1.8 kmh 29.96 in1014.6 mb 0.00 in0.0 mm 0.00 in0.0 mm 0.00 in0.0 mm
10:32 AM 57.7°F14.3°C 39.7°F4.3°C 51% 0.2 mph E0.3 kmh E 1.1 mph1.8 kmh 29.95 in1014.2 mb 0.00 in0.0 mm 0.00 in0.0 mm 0.00 in0.0 mm
10:33 AM 57.7°F14.3°C 38.7°F3.7°C 49% 1.1 mph E1.8 kmh E 1.1 mph1.8 kmh 29.95 in1014.2 mb 0.00 in0.0 mm 0.00 in0.0 mm 0.00 in0.0 mm
10:34 AM 58.3°F14.6°C 39.2°F4.0°C 49% Calm Calm -- 29.96 in1014.6 mb 0.00 in0.0 mm 0.00 in0.0 mm 0.00 in0.0 mm
10:35 AM 58.8°F14.9°C 39.2°F4.0°C 48% 1.3 mph E2.1 kmh E 2.2 mph3.5 kmh 29.96 in1014.6 mb 0.00 in0.0 mm 0.00 in0.0 mm 0.00 in0.0 mm
10:37 AM 58.6°F14.8°C 40.0°F4.4°C 50% 0.2 mph E0.3 kmh E 1.1 mph1.8 kmh 29.96 in1014.6 mb 0.00 in0.0 mm 0.00 in0.0 mm 0.00 in0.0 mm
10:39 AM 58.6°F14.8°C 39.5°F4.2°C 49% 1.1 mph E1.8 kmh E 1.1 mph1.8 kmh 29.96 in1014.6 mb 0.00 in0.0 mm 0.00 in0.0 mm 0.00 in0.0 mm
10:40 AM 58.5°F14.7°C 39.9°F4.4°C 50% 1.3 mph E2.1 kmh E 2.2 mph3.5 kmh 29.96 in1014.6 mb 0.00 in0.0 mm 0.00 in0.0 mm 0.00 in0.0 mm
10:41 AM 58.5°F14.7°C 39.9°F4.4°C 50% 0.9 mph E1.4 kmh E 1.1 mph1.8 kmh 29.96 in1014.6 mb 0.00 in0.0 mm 0.00 in0.0 mm 0.00 in0.0 mm
10:42 AM 58.5°F14.7°C 39.9°F4.4°C 50% Calm Calm -- 29.96 in1014.6 mb 0.00 in0.0 mm 0.00 in0.0 mm 0.00 in0.0 mm
10:43 AM 58.8°F14.9°C 40.2°F4.6°C 50% Calm Calm -- 29.96 in1014.6 mb 0.00 in0.0 mm 0.00 in0.0 mm 0.00 in0.0 mm
10:47 AM 59.2°F15.1°C 39.5°F4.2°C 48% Calm Calm -- 29.96 in1014.6 mb 0.00 in0.0 mm 0.00 in0.0 mm 0.00 in0.0 mm
10:48 AM 59.2°F15.1°C 40.0°F4.4°C 49% Calm Calm -- 29.96 in1014.6 mb 0.00 in0.0 mm 0.00 in0.0 mm 0.00 in0.0 mm
10:49 AM 59.2°F15.1°C 40.0°F4.4°C 49% 0.2 mph E0.3 kmh E 1.1 mph1.8 kmh 29.95 in1014.2 mb 0.00 in0.0 mm 0.00 in0.0 mm 0.00 in0.0 mm
10:50 AM 59.4°F15.2°C 39.7°F4.3°C 48% 0.2 mph E0.3 kmh E 1.1 mph1.8 kmh 29.95 in1014.2 mb 0.00 in0.0 mm 0.00 in0.0 mm 0.00 in0.0 mm
10:52 AM 59.7°F15.4°C 40.0°F4.4°C 48% 1.3 mph E2.1 kmh E 2.2 mph3.5 kmh 29.96 in1014.6 mb 0.00 in0.0 mm 0.00 in0.0 mm 0.00 in0.0 mm
10:53 AM 60.1°F15.6°C 40.3°F4.6°C 48% 0.9 mph E1.4 kmh E 1.1 mph1.8 kmh 29.96 in1014.6 mb 0.00 in0.0 mm 0.00 in0.0 mm 0.00 in0.0 mm
10:55 AM 61.0°F16.1°C 40.1°F4.5°C 46% 0.4 mph E0.6 kmh E 1.1 mph1.8 kmh 29.96 in1014.6 mb 0.00 in0.0 mm 0.00 in0.0 mm 0.00 in0.0 mm
10:56 AM 61.0°F16.1°C 40.6°F4.8°C 47% 0.2 mph E0.3 kmh E 1.1 mph1.8 kmh 29.96 in1014.6 mb 0.00 in0.0 mm 0.00 in0.0 mm 0.00 in0.0 mm
10:57 AM 60.8°F16.0°C 41.0°F5.0°C 48% 1.3 mph E2.1 kmh E 2.2 mph3.5 kmh 29.95 in1014.2 mb 0.00 in0.0 mm 0.00 in0.0 mm 0.00 in0.0 mm
10:58 AM 60.8°F16.0°C 40.4°F4.7°C 47% 1.1 mph E1.8 kmh E 1.1 mph1.8 kmh 29.96 in1014.6 mb 0.00 in0.0 mm 0.00 in0.0 mm 0.00 in0.0 mm
10:59 AM 60.8°F16.0°C 41.0°F5.0°C 48% 0.2 mph E0.3 kmh E 1.1 mph1.8 kmh 29.95 in1014.2 mb 0.00 in0.0 mm 0.00 in0.0 mm 0.00 in0.0 mm
11:00 AM 60.8°F16.0°C 40.4°F4.7°C 47% 0.9 mph E1.4 kmh E 1.1 mph1.8 kmh 29.96 in1014.6 mb 0.00 in0.0 mm 0.00 in0.0 mm 0.00 in0.0 mm
11:01 AM 60.8°F16.0°C 41.0°F5.0°C 48% 2.0 mph E3.2 kmh E 2.2 mph3.5 kmh 29.95 in1014.2 mb 0.00 in0.0 mm 0.00 in0.0 mm 0.00 in0.0 mm
11:02 AM 60.8°F16.0°C 41.5°F5.3°C 49% Calm Calm -- 29.95 in1014.2 mb 0.00 in0.0 mm 0.00 in0.0 mm 0.00 in0.0 mm
11:04 AM 60.6°F15.9°C 40.8°F4.9°C 48% 1.3 mph ESE2.1 kmh ESE 3.4 mph5.5 kmh 29.95 in1014.2 mb 0.00 in0.0 mm 0.00 in0.0 mm 0.00 in0.0 mm
11:05 AM 60.6°F15.9°C 40.8°F4.9°C 48% 1.1 mph NE1.8 kmh NE 1.1 mph1.8 kmh 29.95 in1014.2 mb 0.00 in0.0 mm 0.00 in0.0 mm 0.00 in0.0 mm
11:06 AM 60.4°F15.8°C 41.2°F5.1°C 49% 1.6 mph ENE2.6 kmh ENE 2.2 mph3.5 kmh 29.95 in1014.2 mb 0.00 in0.0 mm 0.00 in0.0 mm 0.00 in0.0 mm
11:07 AM 59.5°F15.3°C 40.3°F4.6°C 49% 2.7 mph E4.3 kmh E 3.4 mph5.5 kmh 29.95 in1014.2 mb 0.00 in0.0 mm 0.00 in0.0 mm 0.00 in0.0 mm
11:08 AM 59.4°F15.2°C 40.2°F4.6°C 49% 1.3 mph E2.1 kmh E 2.2 mph3.5 kmh 29.95 in1014.2 mb 0.00 in0.0 mm 0.00 in0.0 mm 0.00 in0.0 mm
11:09 AM 59.5°F15.3°C 39.8°F4.3°C 48% 1.8 mph E2.9 kmh E 2.2 mph3.5 kmh 29.95 in1014.2 mb 0.00 in0.0 mm 0.00 in0.0 mm 0.00 in0.0 mm
11:10 AM 59.5°F15.3°C 39.8°F4.3°C 48% 0.7 mph E1.1 kmh E 1.1 mph1.8 kmh 29.95 in1014.2 mb 0.00 in0.0 mm 0.00 in0.0 mm 0.00 in0.0 mm
11:11 AM 60.3°F15.7°C 40.5°F4.7°C 48% 0.2 mph E0.3 kmh E 1.1 mph1.8 kmh 29.95 in1014.2 mb 0.00 in0.0 mm 0.00 in0.0 mm 0.00 in0.0 mm
11:12 AM 60.3°F15.7°C 40.5°F4.7°C 48% 3.1 mph E5.0 kmh E 4.5 mph7.2 kmh 29.95 in1014.2 mb 0.00 in0.0 mm 0.00 in0.0 mm 0.00 in0.0 mm
11:13 AM 60.3°F15.7°C 40.5°F4.7°C 48% 0.9 mph E1.4 kmh E 1.1 mph1.8 kmh 29.95 in1014.2 mb 0.00 in0.0 mm 0.00 in0.0 mm 0.00 in0.0 mm
11:14 AM 60.1°F15.6°C 40.3°F4.6°C 48% 0.2 mph E0.3 kmh E 1.1 mph1.8 kmh 29.96 in1014.6 mb 0.00 in0.0 mm 0.00 in0.0 mm 0.00 in0.0 mm
11:15 AM 60.1°F15.6°C 39.3°F4.1°C 46% Calm Calm -- 29.96 in1014.6 mb 0.00 in0.0 mm 0.00 in0.0 mm 0.00 in0.0 mm
11:16 AM 60.4°F15.8°C 39.5°F4.2°C 46% 1.1 mph E1.8 kmh E 1.1 mph1.8 kmh 29.95 in1014.2 mb 0.00 in0.0 mm 0.00 in0.0 mm 0.00 in0.0 mm
11:19 AM 61.5°F16.4°C 40.5°F4.7°C 46% 1.8 mph SE2.9 kmh SE 2.2 mph3.5 kmh 29.95 in1014.2 mb 0.00 in0.0 mm 0.00 in0.0 mm 0.00 in0.0 mm
11:20 AM 61.7°F16.5°C 41.3°F5.2°C 47% 0.9 mph SE1.4 kmh SE 1.1 mph1.8 kmh 29.95 in1014.2 mb 0.00 in0.0 mm 0.00 in0.0 mm 0.00 in0.0 mm
11:21 AM 61.7°F16.5°C 40.7°F4.8°C 46% 1.1 mph SE1.8 kmh SE 1.1 mph1.8 kmh 29.94 in1013.9 mb 0.00 in0.0 mm 0.00 in0.0 mm 0.00 in0.0 mm
11:22 AM 61.7°F16.5°C 41.3°F5.2°C 47% 1.3 mph E2.1 kmh E 2.2 mph3.5 kmh 29.95 in1014.2 mb 0.00 in0.0 mm 0.00 in0.0 mm 0.00 in0.0 mm
11:23 AM 61.5°F16.4°C 41.1°F5.1°C 47% 0.9 mph E1.4 kmh E 1.1 mph1.8 kmh 29.95 in1014.2 mb 0.00 in0.0 mm 0.00 in0.0 mm 0.00 in0.0 mm
11:24 AM 61.5°F16.4°C 41.6°F5.3°C 48% 0.9 mph E1.4 kmh E 1.1 mph1.8 kmh 29.95 in1014.2 mb 0.00 in0.0 mm 0.00 in0.0 mm 0.00 in0.0 mm
11:26 AM 61.2°F16.2°C 41.9°F5.5°C 49% 1.1 mph E1.8 kmh E 1.1 mph1.8 kmh 29.95 in1014.2 mb 0.00 in0.0 mm 0.00 in0.0 mm 0.00 in0.0 mm
11:27 AM 61.2°F16.2°C 41.9°F5.5°C 49% 0.7 mph E1.1 kmh E 1.1 mph1.8 kmh 29.95 in1014.2 mb 0.00 in0.0 mm 0.00 in0.0 mm 0.00 in0.0 mm
11:28 AM 61.2°F16.2°C 41.9°F5.5°C 49% 1.1 mph E1.8 kmh E 1.1 mph1.8 kmh 29.96 in1014.6 mb 0.00 in0.0 mm 0.00 in0.0 mm 0.00 in0.0 mm
11:30 AM 61.3°F16.3°C 40.9°F4.9°C 47% 0.7 mph E1.1 kmh E 1.1 mph1.8 kmh 29.95 in1014.2 mb 0.00 in0.0 mm 0.00 in0.0 mm 0.00 in0.0 mm
11:31 AM 61.3°F16.3°C 40.9°F4.9°C 47% 2.2 mph SE3.5 kmh SE 3.4 mph5.5 kmh 29.94 in1013.9 mb 0.00 in0.0 mm 0.00 in0.0 mm 0.00 in0.0 mm
11:32 AM 61.3°F16.3°C 41.4°F5.2°C 48% 2.9 mph SE4.7 kmh SE 4.5 mph7.2 kmh 29.95 in1014.2 mb 0.00 in0.0 mm 0.00 in0.0 mm 0.00 in0.0 mm
11:33 AM 61.2°F16.2°C 41.4°F5.2°C 48% 0.9 mph SE1.4 kmh SE 1.1 mph1.8 kmh 29.95 in1014.2 mb 0.00 in0.0 mm 0.00 in0.0 mm 0.00 in0.0 mm
11:35 AM 61.3°F16.3°C 40.9°F4.9°C 47% Calm Calm -- 29.95 in1014.2 mb 0.00 in0.0 mm 0.00 in0.0 mm 0.00 in0.0 mm
11:36 AM 61.5°F16.4°C 41.1°F5.1°C 47% 0.4 mph SSE0.6 kmh SSE 1.1 mph1.8 kmh 29.94 in1013.9 mb 0.00 in0.0 mm 0.00 in0.0 mm 0.00 in0.0 mm
11:40 AM 62.4°F16.9°C 40.8°F4.9°C 45% 1.1 mph SE1.8 kmh SE 1.1 mph1.8 kmh 29.95 in1014.2 mb 0.00 in0.0 mm 0.00 in0.0 mm 0.00 in0.0 mm
11:41 AM 62.4°F16.9°C 40.8°F4.9°C 45% Calm Calm -- 29.95 in1014.2 mb 0.00 in0.0 mm 0.00 in0.0 mm 0.00 in0.0 mm
11:43 AM 62.4°F16.9°C 40.8°F4.9°C 45% Calm Calm -- 29.95 in1014.2 mb 0.00 in0.0 mm 0.00 in0.0 mm 0.00 in0.0 mm
11:44 AM 62.6°F17.0°C 41.0°F5.0°C 45% 0.4 mph SE0.6 kmh SE 1.1 mph1.8 kmh 29.96 in1014.6 mb 0.00 in0.0 mm 0.00 in0.0 mm 0.00 in0.0 mm
11:45 AM 62.4°F16.9°C 41.3°F5.2°C 46% 1.3 mph SE2.1 kmh SE 2.2 mph3.5 kmh 29.96 in1014.6 mb 0.00 in0.0 mm 0.00 in0.0 mm 0.00 in0.0 mm
11:46 AM 62.2°F16.8°C 41.2°F5.1°C 46% 0.9 mph SE1.4 kmh SE 1.1 mph1.8 kmh 29.95 in1014.2 mb 0.00 in0.0 mm 0.00 in0.0 mm 0.00 in0.0 mm
11:47 AM 62.2°F16.8°C 41.2°F5.1°C 46% 0.2 mph SE0.3 kmh SE 1.1 mph1.8 kmh 29.95 in1014.2 mb 0.00 in0.0 mm 0.00 in0.0 mm 0.00 in0.0 mm
11:48 AM 62.4°F16.9°C 41.3°F5.2°C 46% Calm Calm -- 29.95 in1014.2 mb 0.00 in0.0 mm 0.00 in0.0 mm 0.00 in0.0 mm
11:49 AM 62.4°F16.9°C 41.3°F5.2°C 46% 4.0 mph N6.4 kmh N 5.8 mph9.3 kmh 29.95 in1014.2 mb 0.00 in0.0 mm 0.00 in0.0 mm 0.00 in0.0 mm
11:50 AM 62.4°F16.9°C 41.3°F5.2°C 46% 1.1 mph ENE1.8 kmh ENE 2.2 mph3.5 kmh 29.95 in1014.2 mb 0.00 in0.0 mm 0.00 in0.0 mm 0.00 in0.0 mm
11:52 AM 61.7°F16.5°C 40.7°F4.8°C 46% 0.9 mph E1.4 kmh E 1.1 mph1.8 kmh 29.95 in1014.2 mb 0.00 in0.0 mm 0.00 in0.0 mm 0.00 in0.0 mm
11:53 AM 61.9°F16.6°C 40.3°F4.6°C 45% 2.0 mph S3.2 kmh S 3.4 mph5.5 kmh 29.95 in1014.2 mb 0.00 in0.0 mm 0.00 in0.0 mm 0.00 in0.0 mm
11:54 AM 61.9°F16.6°C 40.3°F4.6°C 45% 0.9 mph SE1.4 kmh SE 1.1 mph1.8 kmh 29.96 in1014.6 mb 0.00 in0.0 mm 0.00 in0.0 mm 0.00 in0.0 mm
11:55 AM 62.2°F16.8°C 40.0°F4.4°C 44% 0.7 mph SE1.1 kmh SE 1.1 mph1.8 kmh 29.95 in1014.2 mb 0.00 in0.0 mm 0.00 in0.0 mm 0.00 in0.0 mm
11:57 AM 63.0°F17.2°C 41.3°F5.2°C 45% 1.3 mph SE2.1 kmh SE 2.2 mph3.5 kmh 29.95 in1014.2 mb 0.00 in0.0 mm 0.00 in0.0 mm 0.00 in0.0 mm
11:59 AM 62.4°F16.9°C 40.8°F4.9°C 45% 0.7 mph SE1.1 kmh SE 1.1 mph1.8 kmh 29.96 in1014.6 mb 0.00 in0.0 mm 0.00 in0.0 mm 0.00 in0.0 mm
12:00 PM 62.4°F16.9°C 41.3°F5.2°C 46% 1.1 mph SE1.8 kmh SE 1.1 mph1.8 kmh 29.96 in1014.6 mb 0.00 in0.0 mm 0.00 in0.0 mm 0.00 in0.0 mm
12:01 PM 62.4°F16.9°C 40.8°F4.9°C 45% 0.4 mph SE0.6 kmh SE 1.1 mph1.8 kmh 29.95 in1014.2 mb 0.00 in0.0 mm 0.00 in0.0 mm 0.00 in0.0 mm
12:02 PM 62.2°F16.8°C 41.2°F5.1°C 46% 0.4 mph SE0.6 kmh SE 1.1 mph1.8 kmh 29.95 in1014.2 mb 0.00 in0.0 mm 0.00 in0.0 mm 0.00 in0.0 mm
12:03 PM 62.4°F16.9°C 40.8°F4.9°C 45% 0.9 mph SE1.4 kmh SE 1.1 mph1.8 kmh 29.94 in1013.9 mb 0.00 in0.0 mm 0.00 in0.0 mm 0.00 in0.0 mm
12:04 PM 62.4°F16.9°C 40.2°F4.6°C 44% 0.9 mph SSE1.4 kmh SSE 2.2 mph3.5 kmh 29.95 in1014.2 mb 0.00 in0.0 mm 0.00 in0.0 mm 0.00 in0.0 mm
12:05 PM 63.0°F17.2°C 40.7°F4.8°C 44% 0.2 mph SSE0.3 kmh SSE 1.1 mph1.8 kmh 29.95 in1014.2 mb 0.00 in0.0 mm 0.00 in0.0 mm 0.00 in0.0 mm
12:06 PM 63.0°F17.2°C 40.7°F4.8°C 44% Calm Calm -- 29.94 in1013.9 mb 0.00 in0.0 mm 0.00 in0.0 mm 0.00 in0.0 mm
12:07 PM 63.1°F17.3°C 40.2°F4.6°C 43% 0.2 mph SSE0.3 kmh SSE 1.1 mph1.8 kmh 29.95 in1014.2 mb 0.00 in0.0 mm 0.00 in0.0 mm 0.00 in0.0 mm
12:08 PM 63.5°F17.5°C 40.0°F4.4°C 42% 0.4 mph SSE0.6 kmh SSE 1.1 mph1.8 kmh 29.95 in1014.2 mb 0.00 in0.0 mm 0.00 in0.0 mm 0.00 in0.0 mm
12:09 PM 63.7°F17.6°C 40.2°F4.6°C 42% Calm Calm -- 29.95 in1014.2 mb 0.00 in0.0 mm 0.00 in0.0 mm 0.00 in0.0 mm
12:10 PM 63.9°F17.7°C 40.4°F4.7°C 42% 0.2 mph SSE0.3 kmh SSE 1.1 mph1.8 kmh 29.95 in1014.2 mb 0.00 in0.0 mm 0.00 in0.0 mm 0.00 in0.0 mm
12:12 PM 64.2°F17.9°C 40.6°F4.8°C 42% 0.7 mph SSE1.1 kmh SSE 1.1 mph1.8 kmh 29.95 in1014.2 mb 0.00 in0.0 mm 0.00 in0.0 mm 0.00 in0.0 mm
12:13 PM 64.2°F17.9°C 40.6°F4.8°C 42% 0.4 mph SSE0.6 kmh SSE 1.1 mph1.8 kmh 29.95 in1014.2 mb 0.00 in0.0 mm 0.00 in0.0 mm 0.00 in0.0 mm
12:14 PM 64.0°F17.8°C 41.1°F5.1°C 43% Calm Calm -- 29.94 in1013.9 mb 0.00 in0.0 mm 0.00 in0.0 mm 0.00 in0.0 mm
12:15 PM 64.0°F17.8°C 41.1°F5.1°C 43% Calm Calm -- 29.94 in1013.9 mb 0.00 in0.0 mm 0.00 in0.0 mm 0.00 in0.0 mm
12:16 PM 64.0°F17.8°C 41.1°F5.1°C 43% 1.1 mph SSE1.8 kmh SSE 1.1 mph1.8 kmh 29.94 in1013.9 mb 0.00 in0.0 mm 0.00 in0.0 mm 0.00 in0.0 mm
12:17 PM 64.2°F17.9°C 41.2°F5.1°C 43% Calm Calm -- 29.94 in1013.9 mb 0.00 in0.0 mm 0.00 in0.0 mm 0.00 in0.0 mm
12:18 PM 64.2°F17.9°C 40.6°F4.8°C 42% Calm Calm -- 29.94 in1013.9 mb 0.00 in0.0 mm 0.00 in0.0 mm 0.00 in0.0 mm
12:19 PM 64.6°F18.1°C 41.0°F5.0°C 42% 0.7 mph SSE1.1 kmh SSE 2.2 mph3.5 kmh 29.94 in1013.9 mb 0.00 in0.0 mm 0.00 in0.0 mm 0.00 in0.0 mm
12:20 PM 64.6°F18.1°C 41.0°F5.0°C 42% 2.2 mph SE3.5 kmh SE 3.4 mph5.5 kmh 29.94 in1013.9 mb 0.00 in0.0 mm 0.00 in0.0 mm 0.00 in0.0 mm
12:21 PM 64.6°F18.1°C 41.6°F5.3°C 43% Calm Calm -- 29.94 in1013.9 mb 0.00 in0.0 mm 0.00 in0.0 mm 0.00 in0.0 mm
12:22 PM 64.2°F17.9°C 40.6°F4.8°C 42% 0.7 mph SE1.1 kmh SE 1.1 mph1.8 kmh 29.95 in1014.2 mb 0.00 in0.0 mm 0.00 in0.0 mm 0.00 in0.0 mm
12:23 PM 64.4°F18.0°C 40.8°F4.9°C 42% 0.9 mph SE1.4 kmh SE 1.1 mph1.8 kmh 29.94 in1013.9 mb 0.00 in0.0 mm 0.00 in0.0 mm 0.00 in0.0 mm
12:24 PM 64.6°F18.1°C 41.6°F5.3°C 43% 1.1 mph SE1.8 kmh SE 1.1 mph1.8 kmh 29.94 in1013.9 mb 0.00 in0.0 mm 0.00 in0.0 mm 0.00 in0.0 mm
12:25 PM 64.8°F18.2°C 40.5°F4.7°C 41% 1.3 mph SE2.1 kmh SE 2.2 mph3.5 kmh 29.94 in1013.9 mb 0.00 in0.0 mm 0.00 in0.0 mm 0.00 in0.0 mm
12:26 PM 64.8°F18.2°C 40.5°F4.7°C 41% 2.7 mph S4.3 kmh S 3.4 mph5.5 kmh 29.95 in1014.2 mb 0.00 in0.0 mm 0.00 in0.0 mm 0.00 in0.0 mm
12:28 PM 64.6°F18.1°C 40.4°F4.7°C 41% 1.3 mph S2.1 kmh S 2.2 mph3.5 kmh 29.94 in1013.9 mb 0.00 in0.0 mm 0.00 in0.0 mm 0.00 in0.0 mm
12:29 PM 64.4°F18.0°C 40.8°F4.9°C 42% 0.7 mph SE1.1 kmh SE 1.1 mph1.8 kmh 29.93 in1013.5 mb 0.00 in0.0 mm 0.00 in0.0 mm 0.00 in0.0 mm
12:30 PM 64.6°F18.1°C 39.7°F4.3°C 40% 0.9 mph E1.4 kmh E 1.1 mph1.8 kmh 29.94 in1013.9 mb 0.00 in0.0 mm 0.00 in0.0 mm 0.00 in0.0 mm
12:31 PM 64.6°F18.1°C 41.0°F5.0°C 42% 0.7 mph E1.1 kmh E 1.1 mph1.8 kmh 29.94 in1013.9 mb 0.00 in0.0 mm 0.00 in0.0 mm 0.00 in0.0 mm
12:33 PM 64.9°F18.3°C 39.3°F4.1°C 39% 3.4 mph SE5.5 kmh SE 4.5 mph7.2 kmh 29.94 in1013.9 mb 0.00 in0.0 mm 0.00 in0.0 mm 0.00 in0.0 mm
12:34 PM 65.1°F18.4°C 39.5°F4.2°C 39% 2.5 mph S4.0 kmh S 3.4 mph5.5 kmh 29.94 in1013.9 mb 0.00 in0.0 mm 0.00 in0.0 mm 0.00 in0.0 mm
12:35 PM 64.4°F18.0°C 38.9°F3.8°C 39% 0.2 mph SSE0.3 kmh SSE 1.1 mph1.8 kmh 29.94 in1013.9 mb 0.00 in0.0 mm 0.00 in0.0 mm 0.00 in0.0 mm
12:36 PM 64.4°F18.0°C 38.9°F3.8°C 39% 0.9 mph ESE1.4 kmh ESE 1.1 mph1.8 kmh 29.94 in1013.9 mb 0.00 in0.0 mm 0.00 in0.0 mm 0.00 in0.0 mm
12:37 PM 64.6°F18.1°C 39.7°F4.3°C 40% 1.3 mph SE2.1 kmh SE 2.2 mph3.5 kmh 29.94 in1013.9 mb 0.00 in0.0 mm 0.00 in0.0 mm 0.00 in0.0 mm
12:38 PM 64.6°F18.1°C 39.7°F4.3°C 40% 1.6 mph SE2.6 kmh SE 2.2 mph3.5 kmh 29.93 in1013.5 mb 0.00 in0.0 mm 0.00 in0.0 mm 0.00 in0.0 mm
12:40 PM 64.8°F18.2°C 39.9°F4.4°C 40% 0.7 mph SE1.1 kmh SE 1.1 mph1.8 kmh 29.94 in1013.9 mb 0.00 in0.0 mm 0.00 in0.0 mm 0.00 in0.0 mm
12:42 PM 65.3°F18.5°C 39.0°F3.9°C 38% 2.7 mph SE4.3 kmh SE 3.4 mph5.5 kmh 29.94 in1013.9 mb 0.00 in0.0 mm 0.00 in0.0 mm 0.00 in0.0 mm
12:43 PM 65.3°F18.5°C 39.0°F3.9°C 38% 1.6 mph SE2.6 kmh SE 2.2 mph3.5 kmh 29.94 in1013.9 mb 0.00 in0.0 mm 0.00 in0.0 mm 0.00 in0.0 mm
12:44 PM 64.9°F18.3°C 38.7°F3.7°C 38% 0.4 mph SE0.6 kmh SE 1.1 mph1.8 kmh 29.94 in1013.9 mb 0.00 in0.0 mm 0.00 in0.0 mm 0.00 in0.0 mm
12:45 PM 64.9°F18.3°C 38.7°F3.7°C 38% 0.9 mph SE1.4 kmh SE 1.1 mph1.8 kmh 29.94 in1013.9 mb 0.00 in0.0 mm 0.00 in0.0 mm 0.00 in0.0 mm
12:46 PM 64.9°F18.3°C 38.0°F3.3°C 37% 2.0 mph SSE3.2 kmh SSE 2.2 mph3.5 kmh 29.94 in1013.9 mb 0.00 in0.0 mm 0.00 in0.0 mm 0.00 in0.0 mm
12:47 PM 65.3°F18.5°C 38.4°F3.6°C 37% 2.0 mph S3.2 kmh S 2.2 mph3.5 kmh 29.94 in1013.9 mb 0.00 in0.0 mm 0.00 in0.0 mm 0.00 in0.0 mm
12:48 PM 65.3°F18.5°C 38.4°F3.6°C 37% 0.2 mph S0.3 kmh S 1.1 mph1.8 kmh 29.94 in1013.9 mb 0.00 in0.0 mm 0.00 in0.0 mm 0.00 in0.0 mm
12:49 PM 65.3°F18.5°C 38.4°F3.6°C 37% 0.2 mph S0.3 kmh S 1.1 mph1.8 kmh 29.93 in1013.5 mb 0.00 in0.0 mm 0.00 in0.0 mm 0.00 in0.0 mm
12:50 PM 65.3°F18.5°C 39.0°F3.9°C 38% 0.4 mph ESE0.6 kmh ESE 1.1 mph1.8 kmh 29.93 in1013.5 mb 0.00 in0.0 mm 0.00 in0.0 mm 0.00 in0.0 mm
12:51 PM 65.1°F18.4°C 38.2°F3.4°C 37% 0.4 mph E0.6 kmh E 1.1 mph1.8 kmh 29.93 in1013.5 mb 0.00 in0.0 mm 0.00 in0.0 mm 0.00 in0.0 mm
12:52 PM 65.1°F18.4°C 38.2°F3.4°C 37% 3.4 mph ENE5.5 kmh ENE 4.5 mph7.2 kmh 29.93 in1013.5 mb 0.00 in0.0 mm 0.00 in0.0 mm 0.00 in0.0 mm
12:53 PM 64.8°F18.2°C 37.9°F3.3°C 37% 1.8 mph ENE2.9 kmh ENE 2.2 mph3.5 kmh 29.93 in1013.5 mb 0.00 in0.0 mm 0.00 in0.0 mm 0.00 in0.0 mm
12:54 PM 64.4°F18.0°C 37.6°F3.1°C 37% 1.8 mph E2.9 kmh E 2.2 mph3.5 kmh 29.93 in1013.5 mb 0.00 in0.0 mm 0.00 in0.0 mm 0.00 in0.0 mm
12:55 PM 64.4°F18.0°C 38.2°F3.4°C 38% 0.9 mph E1.4 kmh E 1.1 mph1.8 kmh 29.93 in1013.5 mb 0.00 in0.0 mm 0.00 in0.0 mm 0.00 in0.0 mm
12:56 PM 64.6°F18.1°C 37.7°F3.2°C 37% 0.2 mph E0.3 kmh E 1.1 mph1.8 kmh 29.94 in1013.9 mb 0.00 in0.0 mm 0.00 in0.0 mm 0.00 in0.0 mm
12:57 PM 64.8°F18.2°C 37.9°F3.3°C 37% 1.1 mph E1.8 kmh E 1.1 mph1.8 kmh 29.93 in1013.5 mb 0.00 in0.0 mm 0.00 in0.0 mm 0.00 in0.0 mm
12:58 PM 64.9°F18.3°C 36.6°F2.6°C 35% 1.3 mph SE2.1 kmh SE 2.2 mph3.5 kmh 29.94 in1013.9 mb 0.00 in0.0 mm 0.00 in0.0 mm 0.00 in0.0 mm
12:59 PM 65.7°F18.7°C 37.3°F2.9°C 35% 0.9 mph SE1.4 kmh SE 1.1 mph1.8 kmh 29.93 in1013.5 mb 0.00 in0.0 mm 0.00 in0.0 mm 0.00 in0.0 mm
01:00 PM 66.2°F19.0°C 38.5°F3.6°C 36% Calm Calm -- 29.94 in1013.9 mb 0.00 in0.0 mm 0.00 in0.0 mm 0.00 in0.0 mm
01:01 PM 66.4°F19.1°C 38.6°F3.7°C 36% 0.2 mph SE0.3 kmh SE 1.1 mph1.8 kmh 29.93 in1013.5 mb 0.00 in0.0 mm 0.00 in0.0 mm 0.00 in0.0 mm
01:02 PM 66.4°F19.1°C 38.6°F3.7°C 36% 0.2 mph SE0.3 kmh SE 1.1 mph1.8 kmh 29.93 in1013.5 mb 0.00 in0.0 mm 0.00 in0.0 mm 0.00 in0.0 mm
01:03 PM 66.4°F19.1°C 37.9°F3.3°C 35% 1.3 mph E2.1 kmh E 2.2 mph3.5 kmh 29.93 in1013.5 mb 0.00 in0.0 mm 0.00 in0.0 mm 0.00 in0.0 mm
01:04 PM 66.2°F19.0°C 37.7°F3.2°C 35% 1.3 mph E2.1 kmh E 2.2 mph3.5 kmh 29.93 in1013.5 mb 0.00 in0.0 mm 0.00 in0.0 mm 0.00 in0.0 mm
01:05 PM 65.7°F18.7°C 37.3°F2.9°C 35% 2.9 mph E4.7 kmh E 3.4 mph5.5 kmh 29.93 in1013.5 mb 0.00 in0.0 mm 0.00 in0.0 mm 0.00 in0.0 mm
01:07 PM 65.8°F18.8°C 36.6°F2.6°C 34% 0.7 mph E1.1 kmh E 1.1 mph1.8 kmh 29.93 in1013.5 mb 0.00 in0.0 mm 0.00 in0.0 mm 0.00 in0.0 mm
01:09 PM 66.0°F18.9°C 38.3°F3.5°C 36% 1.3 mph E2.1 kmh E 2.2 mph3.5 kmh 29.93 in1013.5 mb 0.00 in0.0 mm 0.00 in0.0 mm 0.00 in0.0 mm
01:10 PM 65.1°F18.4°C 38.2°F3.4°C 37% 0.7 mph ENE1.1 kmh ENE 1.1 mph1.8 kmh 29.93 in1013.5 mb 0.00 in0.0 mm 0.00 in0.0 mm 0.00 in0.0 mm
01:11 PM 64.8°F18.2°C 37.2°F2.9°C 36% 1.6 mph E2.6 kmh E 2.2 mph3.5 kmh 29.93 in1013.5 mb 0.00 in0.0 mm 0.00 in0.0 mm 0.00 in0.0 mm
01:13 PM 64.4°F18.0°C 37.6°F3.1°C 37% 0.7 mph E1.1 kmh E 1.1 mph1.8 kmh 29.93 in1013.5 mb 0.00 in0.0 mm 0.00 in0.0 mm 0.00 in0.0 mm
01:14 PM 64.4°F18.0°C 36.9°F2.7°C 36% 2.5 mph E4.0 kmh E 3.4 mph5.5 kmh 29.92 in1013.2 mb 0.00 in0.0 mm 0.00 in0.0 mm 0.00 in0.0 mm
01:15 PM 64.2°F17.9°C 38.1°F3.4°C 38% 1.3 mph E2.1 kmh E 2.2 mph3.5 kmh 29.92 in1013.2 mb 0.00 in0.0 mm 0.00 in0.0 mm 0.00 in0.0 mm
01:16 PM 64.2°F17.9°C 37.4°F3.0°C 37% 2.0 mph ENE3.2 kmh ENE 2.2 mph3.5 kmh 29.92 in1013.2 mb 0.00 in0.0 mm 0.00 in0.0 mm 0.00 in0.0 mm
01:17 PM 64.0°F17.8°C 38.5°F3.6°C 39% Calm Calm -- 29.92 in1013.2 mb 0.00 in0.0 mm 0.00 in0.0 mm 0.00 in0.0 mm
01:18 PM 64.2°F17.9°C 38.1°F3.4°C 38% 0.7 mph ENE1.1 kmh ENE 1.1 mph1.8 kmh 29.92 in1013.2 mb 0.00 in0.0 mm 0.00 in0.0 mm 0.00 in0.0 mm
01:19 PM 64.4°F18.0°C 37.6°F3.1°C 37% 1.3 mph ENE2.1 kmh ENE 2.2 mph3.5 kmh 29.93 in1013.5 mb 0.00 in0.0 mm 0.00 in0.0 mm 0.00 in0.0 mm
01:20 PM 64.4°F18.0°C 37.6°F3.1°C 37% 0.7 mph ENE1.1 kmh ENE 1.1 mph1.8 kmh 29.93 in1013.5 mb 0.00 in0.0 mm 0.00 in0.0 mm 0.00 in0.0 mm
01:21 PM 64.2°F17.9°C 37.4°F3.0°C 37% 1.1 mph NE1.8 kmh NE 1.1 mph1.8 kmh 29.92 in1013.2 mb 0.00 in0.0 mm 0.00 in0.0 mm 0.00 in0.0 mm
01:22 PM 64.0°F17.8°C 37.2°F2.9°C 37% 2.7 mph N4.3 kmh N 3.4 mph5.5 kmh 29.92 in1013.2 mb 0.00 in0.0 mm 0.00 in0.0 mm 0.00 in0.0 mm
01:23 PM 64.0°F17.8°C 37.9°F3.3°C 38% 0.9 mph N1.4 kmh N 1.1 mph1.8 kmh 29.92 in1013.2 mb 0.00 in0.0 mm 0.00 in0.0 mm 0.00 in0.0 mm
01:24 PM 63.7°F17.6°C 37.6°F3.1°C 38% Calm Calm -- 29.92 in1013.2 mb 0.00 in0.0 mm 0.00 in0.0 mm 0.00 in0.0 mm
01:27 PM 64.4°F18.0°C 37.6°F3.1°C 37% 0.2 mph N0.3 kmh N 1.1 mph1.8 kmh 29.92 in1013.2 mb 0.00 in0.0 mm 0.00 in0.0 mm 0.00 in0.0 mm
01:28 PM 64.9°F18.3°C 38.0°F3.3°C 37% 0.2 mph NE0.3 kmh NE 1.1 mph1.8 kmh 29.92 in1013.2 mb 0.00 in0.0 mm 0.00 in0.0 mm 0.00 in0.0 mm
01:29 PM 65.8°F18.8°C 38.8°F3.8°C 37% 0.2 mph ENE0.3 kmh ENE 1.1 mph1.8 kmh 29.92 in1013.2 mb 0.00 in0.0 mm 0.00 in0.0 mm 0.00 in0.0 mm
01:30 PM 66.4°F19.1°C 38.6°F3.7°C 36% 1.1 mph ESE1.8 kmh ESE 2.2 mph3.5 kmh 29.91 in1012.9 mb 0.00 in0.0 mm 0.00 in0.0 mm 0.00 in0.0 mm
01:31 PM 66.4°F19.1°C 38.6°F3.7°C 36% 0.2 mph ESE0.3 kmh ESE 1.1 mph1.8 kmh 29.92 in1013.2 mb 0.00 in0.0 mm 0.00 in0.0 mm 0.00 in0.0 mm
01:32 PM 66.4°F19.1°C 39.3°F4.1°C 37% Calm Calm -- 29.91 in1012.9 mb 0.00 in0.0 mm 0.00 in0.0 mm 0.00 in0.0 mm
01:34 PM 66.0°F18.9°C 39.0°F3.9°C 37% Calm Calm -- 29.91 in1012.9 mb 0.00 in0.0 mm 0.00 in0.0 mm 0.00 in0.0 mm
01:36 PM 66.2°F19.0°C 38.5°F3.6°C 36% 0.2 mph ESE0.3 kmh ESE 1.1 mph1.8 kmh 29.91 in1012.9 mb 0.00 in0.0 mm 0.00 in0.0 mm 0.00 in0.0 mm
01:38 PM 66.6°F19.2°C 38.1°F3.4°C 35% 0.2 mph ESE0.3 kmh ESE 1.1 mph1.8 kmh 29.91 in1012.9 mb 0.00 in0.0 mm 0.00 in0.0 mm 0.00 in0.0 mm
01:39 PM 66.7°F19.3°C 38.9°F3.8°C 36% Calm Calm -- 29.91 in1012.9 mb 0.00 in0.0 mm 0.00 in0.0 mm 0.00 in0.0 mm
01:40 PM 66.7°F19.3°C 38.2°F3.4°C 35% 0.4 mph ESE0.6 kmh ESE 1.1 mph1.8 kmh 29.91 in1012.9 mb 0.00 in0.0 mm 0.00 in0.0 mm 0.00 in0.0 mm
01:42 PM 66.6°F19.2°C 38.1°F3.4°C 35% 0.2 mph NE0.3 kmh NE 1.1 mph1.8 kmh 29.91 in1012.9 mb 0.00 in0.0 mm 0.00 in0.0 mm 0.00 in0.0 mm
01:44 PM 64.9°F18.3°C 38.0°F3.3°C 37% 2.2 mph SSW3.5 kmh SSW 3.4 mph5.5 kmh 29.91 in1012.9 mb 0.00 in0.0 mm 0.00 in0.0 mm 0.00 in0.0 mm
01:45 PM 64.4°F18.0°C 37.6°F3.1°C 37% 2.2 mph SW3.5 kmh SW 2.2 mph3.5 kmh 29.92 in1013.2 mb 0.00 in0.0 mm 0.00 in0.0 mm 0.00 in0.0 mm
01:46 PM 64.2°F17.9°C 37.4°F3.0°C 37% 2.2 mph NE3.5 kmh NE 2.2 mph3.5 kmh 29.92 in1013.2 mb 0.00 in0.0 mm 0.00 in0.0 mm 0.00 in0.0 mm
01:47 PM 63.9°F17.7°C 37.1°F2.8°C 37% 2.2 mph NE3.5 kmh NE 2.2 mph3.5 kmh 29.91 in1012.9 mb 0.00 in0.0 mm 0.00 in0.0 mm 0.00 in0.0 mm
01:48 PM 63.9°F17.7°C 37.1°F2.8°C 37% 0.2 mph NE0.3 kmh NE 1.1 mph1.8 kmh 29.91 in1012.9 mb 0.00 in0.0 mm 0.00 in0.0 mm 0.00 in0.0 mm
01:49 PM 63.9°F17.7°C 37.1°F2.8°C 37% Calm Calm -- 29.91 in1012.9 mb 0.00 in0.0 mm 0.00 in0.0 mm 0.00 in0.0 mm
01:50 PM 63.9°F17.7°C 37.1°F2.8°C 37% 0.2 mph NE0.3 kmh NE 1.1 mph1.8 kmh 29.91 in1012.9 mb 0.00 in0.0 mm 0.00 in0.0 mm 0.00 in0.0 mm
01:51 PM 63.9°F17.7°C 37.1°F2.8°C 37% 2.2 mph ENE3.5 kmh ENE 2.2 mph3.5 kmh 29.91 in1012.9 mb 0.00 in0.0 mm 0.00 in0.0 mm 0.00 in0.0 mm
01:52 PM 63.9°F17.7°C 37.1°F2.8°C 37% 2.2 mph N3.5 kmh N 3.4 mph5.5 kmh 29.91 in1012.9 mb 0.00 in0.0 mm 0.00 in0.0 mm 0.00 in0.0 mm
01:54 PM 63.3°F17.4°C 36.6°F2.6°C 37% 1.1 mph E1.8 kmh E 1.1 mph1.8 kmh 29.91 in1012.9 mb 0.00 in0.0 mm 0.00 in0.0 mm 0.00 in0.0 mm
01:55 PM 63.3°F17.4°C 37.3°F2.9°C 38% 0.2 mph ESE0.3 kmh ESE 1.1 mph1.8 kmh 29.91 in1012.9 mb 0.00 in0.0 mm 0.00 in0.0 mm 0.00 in0.0 mm
01:57 PM 63.3°F17.4°C 36.6°F2.6°C 37% 1.1 mph E1.8 kmh E 1.1 mph1.8 kmh 29.92 in1013.2 mb 0.00 in0.0 mm 0.00 in0.0 mm 0.00 in0.0 mm
01:58 PM 63.7°F17.6°C 36.9°F2.7°C 37% 0.2 mph NE0.3 kmh NE 1.1 mph1.8 kmh 29.91 in1012.9 mb 0.00 in0.0 mm 0.00 in0.0 mm 0.00 in0.0 mm
01:59 PM 63.7°F17.6°C 36.9°F2.7°C 37% 1.8 mph NNE2.9 kmh NNE 2.2 mph3.5 kmh 29.90 in1012.5 mb 0.00 in0.0 mm 0.00 in0.0 mm 0.00 in0.0 mm
02:00 PM 63.7°F17.6°C 36.9°F2.7°C 37% 2.9 mph NW4.7 kmh NW 3.4 mph5.5 kmh 29.90 in1012.5 mb 0.00 in0.0 mm 0.00 in0.0 mm 0.00 in0.0 mm
02:01 PM 63.7°F17.6°C 36.9°F2.7°C 37% 1.8 mph NNE2.9 kmh NNE 3.4 mph5.5 kmh 29.90 in1012.5 mb 0.00 in0.0 mm 0.00 in0.0 mm 0.00 in0.0 mm
02:03 PM 63.3°F17.4°C 36.6°F2.6°C 37% Calm Calm -- 29.91 in1012.9 mb 0.00 in0.0 mm 0.00 in0.0 mm 0.00 in0.0 mm
02:04 PM 63.5°F17.5°C 36.8°F2.7°C 37% Calm Calm -- 29.91 in1012.9 mb 0.00 in0.0 mm 0.00 in0.0 mm 0.00 in0.0 mm
02:05 PM 63.9°F17.7°C 37.1°F2.8°C 37% 1.1 mph NE1.8 kmh NE 1.1 mph1.8 kmh 29.91 in1012.9 mb 0.00 in0.0 mm 0.00 in0.0 mm 0.00 in0.0 mm
02:06 PM 63.9°F17.7°C 37.8°F3.2°C 38% 0.7 mph ENE1.1 kmh ENE 1.1 mph1.8 kmh 29.91 in1012.9 mb 0.00 in0.0 mm 0.00 in0.0 mm 0.00 in0.0 mm
02:07 PM 63.9°F17.7°C 37.1°F2.8°C 37% 0.9 mph ENE1.4 kmh ENE 1.1 mph1.8 kmh 29.91 in1012.9 mb 0.00 in0.0 mm 0.00 in0.0 mm 0.00 in0.0 mm
02:08 PM 64.0°F17.8°C 37.2°F2.9°C 37% Calm Calm -- 29.91 in1012.9 mb 0.00 in0.0 mm 0.00 in0.0 mm 0.00 in0.0 mm
02:10 PM 64.0°F17.8°C 36.5°F2.5°C 36% Calm Calm -- 29.90 in1012.5 mb 0.00 in0.0 mm 0.00 in0.0 mm 0.00 in0.0 mm
02:11 PM 64.4°F18.0°C 37.6°F3.1°C 37% 0.4 mph ENE0.6 kmh ENE 1.1 mph1.8 kmh 29.90 in1012.5 mb 0.00 in0.0 mm 0.00 in0.0 mm 0.00 in0.0 mm
02:12 PM 64.4°F18.0°C 36.9°F2.7°C 36% 0.7 mph E1.1 kmh E 1.1 mph1.8 kmh 29.89 in1012.2 mb 0.00 in0.0 mm 0.00 in0.0 mm 0.00 in0.0 mm
02:13 PM 64.4°F18.0°C 37.6°F3.1°C 37% Calm Calm -- 29.89 in1012.2 mb 0.00 in0.0 mm 0.00 in0.0 mm 0.00 in0.0 mm
02:15 PM 64.9°F18.3°C 34.3°F1.3°C 32% 2.9 mph N4.7 kmh N 3.4 mph5.5 kmh 29.90 in1012.5 mb 0.00 in0.0 mm 0.00 in0.0 mm 0.00 in0.0 mm
02:16 PM 64.9°F18.3°C 34.3°F1.3°C 32% 3.8 mph NW6.1 kmh NW 4.5 mph7.2 kmh 29.90 in1012.5 mb 0.00 in0.0 mm 0.00 in0.0 mm 0.00 in0.0 mm
02:17 PM 64.9°F18.3°C 31.9°F-0.1°C 29% 3.1 mph N5.0 kmh N 3.4 mph5.5 kmh 29.91 in1012.9 mb 0.00 in0.0 mm 0.00 in0.0 mm 0.00 in0.0 mm
02:18 PM 64.8°F18.2°C 30.9°F-0.6°C 28% 4.3 mph N6.9 kmh N 5.8 mph9.3 kmh 29.89 in1012.2 mb 0.00 in0.0 mm 0.00 in0.0 mm 0.00 in0.0 mm
02:19 PM 64.8°F18.2°C 32.6°F0.3°C 30% 6.0 mph W9.7 kmh W 8.1 mph13.0 kmh 29.89 in1012.2 mb 0.00 in0.0 mm 0.00 in0.0 mm 0.00 in0.0 mm
02:20 PM 64.6°F18.1°C 34.8°F1.6°C 33% 6.0 mph WNW9.7 kmh WNW 6.9 mph11.1 kmh 29.89 in1012.2 mb 0.00 in0.0 mm 0.00 in0.0 mm 0.00 in0.0 mm
02:21 PM 64.6°F18.1°C 33.3°F0.7°C 31% 4.9 mph WSW7.9 kmh WSW 6.9 mph11.1 kmh 29.90 in1012.5 mb 0.00 in0.0 mm 0.00 in0.0 mm 0.00 in0.0 mm
02:22 PM 64.8°F18.2°C 35.0°F1.7°C 33% 4.9 mph WSW7.9 kmh WSW 5.8 mph9.3 kmh 29.90 in1012.5 mb 0.00 in0.0 mm 0.00 in0.0 mm 0.00 in0.0 mm
02:23 PM 64.6°F18.1°C 35.6°F2.0°C 34% 2.9 mph WSW4.7 kmh WSW 3.4 mph5.5 kmh 29.90 in1012.5 mb 0.00 in0.0 mm 0.00 in0.0 mm 0.00 in0.0 mm
02:24 PM 64.4°F18.0°C 36.1°F2.3°C 35% 2.7 mph S4.3 kmh S 3.4 mph5.5 kmh 29.91 in1012.9 mb 0.00 in0.0 mm 0.00 in0.0 mm 0.00 in0.0 mm
02:25 PM 64.2°F17.9°C 36.0°F2.2°C 35% 3.1 mph SW5.0 kmh SW 4.5 mph7.2 kmh 29.91 in1012.9 mb 0.00 in0.0 mm 0.00 in0.0 mm 0.00 in0.0 mm
02:26 PM 64.2°F17.9°C 36.0°F2.2°C 35% 2.9 mph WSW4.7 kmh WSW 4.5 mph7.2 kmh 29.90 in1012.5 mb 0.00 in0.0 mm 0.00 in0.0 mm 0.00 in0.0 mm
02:27 PM 64.2°F17.9°C 36.0°F2.2°C 35% 3.8 mph NW6.1 kmh NW 5.8 mph9.3 kmh 29.90 in1012.5 mb 0.00 in0.0 mm 0.00 in0.0 mm 0.00 in0.0 mm
02:28 PM 64.0°F17.8°C 35.8°F2.1°C 35% 2.0 mph S3.2 kmh S 3.4 mph5.5 kmh 29.90 in1012.5 mb 0.00 in0.0 mm 0.00 in0.0 mm 0.00 in0.0 mm
02:29 PM 63.7°F17.6°C 31.7°F-0.2°C 30% 0.9 mph ENE1.4 kmh ENE 1.1 mph1.8 kmh 29.90 in1012.5 mb 0.00 in0.0 mm 0.00 in0.0 mm 0.00 in0.0 mm
02:30 PM 63.9°F17.7°C 29.3°F-1.5°C 27% 0.7 mph NNE1.1 kmh NNE 2.2 mph3.5 kmh 29.90 in1012.5 mb 0.00 in0.0 mm 0.00 in0.0 mm 0.00 in0.0 mm
02:32 PM 64.4°F18.0°C 31.5°F-0.3°C 29% 0.7 mph S1.1 kmh S 1.1 mph1.8 kmh 29.90 in1012.5 mb 0.00 in0.0 mm 0.00 in0.0 mm 0.00 in0.0 mm
02:33 PM 64.8°F18.2°C 32.6°F0.3°C 30% 0.9 mph E1.4 kmh E 2.2 mph3.5 kmh 29.89 in1012.2 mb 0.00 in0.0 mm 0.00 in0.0 mm 0.00 in0.0 mm
02:34 PM 64.9°F18.3°C 27.2°F-2.7°C 24% 4.0 mph S6.4 kmh S 5.8 mph9.3 kmh 29.89 in1012.2 mb 0.00 in0.0 mm 0.00 in0.0 mm 0.00 in0.0 mm
02:35 PM 64.9°F18.3°C 27.2°F-2.7°C 24% 2.2 mph SW3.5 kmh SW 2.2 mph3.5 kmh 29.90 in1012.5 mb 0.00 in0.0 mm 0.00 in0.0 mm 0.00 in0.0 mm
02:36 PM 64.8°F18.2°C 28.2°F-2.1°C 25% 3.1 mph WSW5.0 kmh WSW 4.5 mph7.2 kmh 29.91 in1012.9 mb 0.00 in0.0 mm 0.00 in0.0 mm 0.00 in0.0 mm
02:37 PM 64.8°F18.2°C 29.1°F-1.6°C 26% 2.9 mph WNW4.7 kmh WNW 4.5 mph7.2 kmh 29.89 in1012.2 mb 0.00 in0.0 mm 0.00 in0.0 mm 0.00 in0.0 mm
02:38 PM 64.8°F18.2°C 29.1°F-1.6°C 26% 4.0 mph NW6.4 kmh NW 5.8 mph9.3 kmh 29.90 in1012.5 mb 0.00 in0.0 mm 0.00 in0.0 mm 0.00 in0.0 mm
02:39 PM 64.6°F18.1°C 28.9°F-1.7°C 26% 3.8 mph NW6.1 kmh NW 4.5 mph7.2 kmh 29.89 in1012.2 mb 0.00 in0.0 mm 0.00 in0.0 mm 0.00 in0.0 mm
02:40 PM 64.4°F18.0°C 28.8°F-1.8°C 26% 3.4 mph N5.5 kmh N 4.5 mph7.2 kmh 29.90 in1012.5 mb 0.00 in0.0 mm 0.00 in0.0 mm 0.00 in0.0 mm
02:41 PM 64.2°F17.9°C 28.6°F-1.9°C 26% 3.6 mph NW5.8 kmh NW 5.8 mph9.3 kmh 29.89 in1012.2 mb 0.00 in0.0 mm 0.00 in0.0 mm 0.00 in0.0 mm
02:42 PM 64.2°F17.9°C 28.6°F-1.9°C 26% 3.1 mph NW5.0 kmh NW 3.4 mph5.5 kmh 29.90 in1012.5 mb 0.00 in0.0 mm 0.00 in0.0 mm 0.00 in0.0 mm
02:43 PM 63.9°F17.7°C 28.3°F-2.1°C 26% 2.7 mph NNW4.3 kmh NNW 3.4 mph5.5 kmh 29.90 in1012.5 mb 0.00 in0.0 mm 0.00 in0.0 mm 0.00 in0.0 mm
02:44 PM 63.9°F17.7°C 29.3°F-1.5°C 27% 3.8 mph NNW6.1 kmh NNW 5.8 mph9.3 kmh 29.90 in1012.5 mb 0.00 in0.0 mm 0.00 in0.0 mm 0.00 in0.0 mm
02:46 PM 63.7°F17.6°C 29.1°F-1.6°C 27% 2.9 mph N4.7 kmh N 3.4 mph5.5 kmh 29.90 in1012.5 mb 0.00 in0.0 mm 0.00 in0.0 mm 0.00 in0.0 mm
02:47 PM 63.7°F17.6°C 28.2°F-2.1°C 26% 2.9 mph SW4.7 kmh SW 4.5 mph7.2 kmh 29.90 in1012.5 mb 0.00 in0.0 mm 0.00 in0.0 mm 0.00 in0.0 mm
02:48 PM 63.9°F17.7°C 29.3°F-1.5°C 27% 2.0 mph S3.2 kmh S 2.2 mph3.5 kmh 29.90 in1012.5 mb 0.00 in0.0 mm 0.00 in0.0 mm 0.00 in0.0 mm
02:49 PM 63.9°F17.7°C 29.3°F-1.5°C 27% 6.5 mph WSW10.5 kmh WSW 8.1 mph13.0 kmh 29.91 in1012.9 mb 0.00 in0.0 mm 0.00 in0.0 mm 0.00 in0.0 mm
02:50 PM 63.7°F17.6°C 29.1°F-1.6°C 27% 5.4 mph W8.7 kmh W 6.9 mph11.1 kmh 29.90 in1012.5 mb 0.00 in0.0 mm 0.00 in0.0 mm 0.00 in0.0 mm
02:51 PM 63.5°F17.5°C 28.9°F-1.7°C 27% 4.0 mph SSW6.4 kmh SSW 8.1 mph13.0 kmh 29.91 in1012.9 mb 0.00 in0.0 mm 0.00 in0.0 mm 0.00 in0.0 mm
02:52 PM 63.3°F17.4°C 29.6°F-1.3°C 28% 2.9 mph SSW4.7 kmh SSW 4.5 mph7.2 kmh 29.91 in1012.9 mb 0.00 in0.0 mm 0.00 in0.0 mm 0.00 in0.0 mm
02:53 PM 63.1°F17.3°C 29.5°F-1.4°C 28% 1.6 mph SW2.6 kmh SW 2.2 mph3.5 kmh 29.91 in1012.9 mb 0.00 in0.0 mm 0.00 in0.0 mm 0.00 in0.0 mm
02:54 PM 63.1°F17.3°C 29.5°F-1.4°C 28% 7.6 mph WSW12.2 kmh WSW 10.3 mph16.6 kmh 29.91 in1012.9 mb 0.00 in0.0 mm 0.00 in0.0 mm 0.00 in0.0 mm
02:56 PM 63.0°F17.2°C 30.2°F-1.0°C 29% 4.0 mph SW6.4 kmh SW 4.5 mph7.2 kmh 29.91 in1012.9 mb 0.00 in0.0 mm 0.00 in0.0 mm 0.00 in0.0 mm
02:57 PM 63.0°F17.2°C 31.1°F-0.5°C 30% 2.9 mph SW4.7 kmh SW 3.4 mph5.5 kmh 29.91 in1012.9 mb 0.00 in0.0 mm 0.00 in0.0 mm 0.00 in0.0 mm
02:58 PM 63.0°F17.2°C 31.1°F-0.5°C 30% 5.8 mph SSW9.3 kmh SSW 10.3 mph16.6 kmh 29.91 in1012.9 mb 0.00 in0.0 mm 0.00 in0.0 mm 0.00 in0.0 mm
02:59 PM 63.0°F17.2°C 31.1°F-0.5°C 30% 5.4 mph N8.7 kmh N 8.1 mph13.0 kmh 29.91 in1012.9 mb 0.00 in0.0 mm 0.00 in0.0 mm 0.00 in0.0 mm
03:00 PM 62.6°F17.0°C 31.5°F-0.3°C 31% 4.0 mph 6.4 kmh 4.5 mph7.2 kmh 29.91 in1012.9 mb 0.00 in0.0 mm 0.00 in0.0 mm 0.00 in0.0 mm
03:01 PM 62.6°F17.0°C 31.5°F-0.3°C 31% 6.0 mph S9.7 kmh S 8.1 mph13.0 kmh 29.91 in1012.9 mb 0.00 in0.0 mm 0.00 in0.0 mm 0.00 in0.0 mm
03:02 PM 62.6°F17.0°C 32.3°F0.2°C 32% 3.8 mph WSW6.1 kmh WSW 5.8 mph9.3 kmh 29.91 in1012.9 mb 0.00 in0.0 mm 0.00 in0.0 mm 0.00 in0.0 mm
03:03 PM 62.4°F16.9°C 32.2°F0.1°C 32% 6.0 mph N9.7 kmh N 8.1 mph13.0 kmh 29.91 in1012.9 mb 0.00 in0.0 mm 0.00 in0.0 mm 0.00 in0.0 mm
03:04 PM 62.4°F16.9°C 32.2°F0.1°C 32% 4.9 mph W7.9 kmh W 6.9 mph11.1 kmh 29.91 in1012.9 mb 0.00 in0.0 mm 0.00 in0.0 mm 0.00 in0.0 mm
03:05 PM 62.2°F16.8°C 32.7°F0.4°C 33% 6.0 mph WSW9.7 kmh WSW 9.2 mph14.8 kmh 29.90 in1012.5 mb 0.00 in0.0 mm 0.00 in0.0 mm 0.00 in0.0 mm
03:06 PM 61.9°F16.6°C 32.5°F0.3°C 33% 3.4 mph SSW5.5 kmh SSW 4.5 mph7.2 kmh 29.91 in1012.9 mb 0.00 in0.0 mm 0.00 in0.0 mm 0.00 in0.0 mm
03:07 PM 61.7°F16.5°C 32.3°F0.2°C 33% 3.4 mph N5.5 kmh N 4.5 mph7.2 kmh 29.91 in1012.9 mb 0.00 in0.0 mm 0.00 in0.0 mm 0.00 in0.0 mm
03:08 PM 61.7°F16.5°C 32.3°F0.2°C 33% 7.4 mph W11.9 kmh W 9.2 mph14.8 kmh 29.91 in1012.9 mb 0.00 in0.0 mm 0.00 in0.0 mm 0.00 in0.0 mm
03:09 PM 61.7°F16.5°C 32.3°F0.2°C 33% 4.7 mph NW7.6 kmh NW 6.9 mph11.1 kmh 29.91 in1012.9 mb 0.00 in0.0 mm 0.00 in0.0 mm 0.00 in0.0 mm
03:10 PM 61.7°F16.5°C 32.3°F0.2°C 33% 6.9 mph N11.1 kmh N 9.2 mph14.8 kmh 29.91 in1012.9 mb 0.00 in0.0 mm 0.00 in0.0 mm 0.00 in0.0 mm
03:12 PM 61.3°F16.3°C 32.0°F0.0°C 33% 5.1 mph NW8.2 kmh NW 5.8 mph9.3 kmh 29.91 in1012.9 mb 0.00 in0.0 mm 0.00 in0.0 mm 0.00 in0.0 mm
03:13 PM 61.3°F16.3°C 32.7°F0.4°C 34% 3.4 mph SW5.5 kmh SW 6.9 mph11.1 kmh 29.91 in1012.9 mb 0.00 in0.0 mm 0.00 in0.0 mm 0.00 in0.0 mm
03:14 PM 61.2°F16.2°C 32.6°F0.3°C 34% 6.5 mph NNW10.5 kmh NNW 8.1 mph13.0 kmh 29.91 in1012.9 mb 0.00 in0.0 mm 0.00 in0.0 mm 0.00 in0.0 mm
03:15 PM 61.0°F16.1°C 32.4°F0.2°C 34% 4.5 mph WNW7.2 kmh WNW 6.9 mph11.1 kmh 29.91 in1012.9 mb 0.00 in0.0 mm 0.00 in0.0 mm 0.00 in0.0 mm
03:17 PM 60.8°F16.0°C 32.3°F0.2°C 34% 5.4 mph WNW8.7 kmh WNW 8.1 mph13.0 kmh 29.91 in1012.9 mb 0.00 in0.0 mm 0.00 in0.0 mm 0.00 in0.0 mm
03:19 PM 60.8°F16.0°C 32.3°F0.2°C 34% 9.2 mph NW14.8 kmh NW 11.4 mph18.3 kmh 29.91 in1012.9 mb 0.00 in0.0 mm 0.00 in0.0 mm 0.00 in0.0 mm
03:20 PM 60.8°F16.0°C 32.3°F0.2°C 34% 6.0 mph NNW9.7 kmh NNW 8.1 mph13.0 kmh 29.92 in1013.2 mb 0.00 in0.0 mm 0.00 in0.0 mm 0.00 in0.0 mm
03:21 PM 60.6°F15.9°C 32.8°F0.4°C 35% 8.1 mph NW13.0 kmh NW 10.3 mph16.6 kmh 29.92 in1013.2 mb 0.00 in0.0 mm 0.00 in0.0 mm 0.00 in0.0 mm
03:22 PM 60.6°F15.9°C 33.5°F0.8°C 36% 10.5 mph WNW16.9 kmh WNW 14.8 mph23.8 kmh 29.92 in1013.2 mb 0.00 in0.0 mm 0.00 in0.0 mm 0.00 in0.0 mm
03:23 PM 60.4°F15.8°C 34.0°F1.1°C 37% 10.1 mph NW16.3 kmh NW 12.5 mph20.1 kmh 29.93 in1013.5 mb 0.00 in0.0 mm 0.00 in0.0 mm 0.00 in0.0 mm
03:24 PM 60.3°F15.7°C 33.9°F1.1°C 37% 6.7 mph NNW10.8 kmh NNW 10.3 mph16.6 kmh 29.92 in1013.2 mb 0.00 in0.0 mm 0.00 in0.0 mm 0.00 in0.0 mm
03:25 PM 60.1°F15.6°C 34.4°F1.3°C 38% 3.8 mph NW6.1 kmh NW 6.9 mph11.1 kmh 29.92 in1013.2 mb 0.00 in0.0 mm 0.00 in0.0 mm 0.00 in0.0 mm
03:26 PM 60.1°F15.6°C 34.4°F1.3°C 38% 4.9 mph N7.9 kmh N 6.9 mph11.1 kmh 29.92 in1013.2 mb 0.00 in0.0 mm 0.00 in0.0 mm 0.00 in0.0 mm
03:29 PM 60.1°F15.6°C 34.4°F1.3°C 38% 7.6 mph NNW12.2 kmh NNW 13.6 mph21.9 kmh 29.93 in1013.5 mb 0.00 in0.0 mm 0.00 in0.0 mm 0.00 in0.0 mm
03:30 PM 59.9°F15.5°C 34.9°F1.6°C 39% 6.7 mph WNW10.8 kmh WNW 8.1 mph13.0 kmh 29.93 in1013.5 mb 0.00 in0.0 mm 0.00 in0.0 mm 0.00 in0.0 mm
03:33 PM 59.5°F15.3°C 35.8°F2.1°C 41% 9.2 mph WNW14.8 kmh WNW 11.4 mph18.3 kmh 29.93 in1013.5 mb 0.00 in0.0 mm 0.00 in0.0 mm 0.00 in0.0 mm
03:34 PM 59.4°F15.2°C 35.1°F1.7°C 40% 3.8 mph WSW6.1 kmh WSW 4.5 mph7.2 kmh 29.93 in1013.5 mb 0.00 in0.0 mm 0.00 in0.0 mm 0.00 in0.0 mm
03:35 PM 59.4°F15.2°C 35.1°F1.7°C 40% 8.7 mph NNW14.0 kmh NNW 10.3 mph16.6 kmh 29.93 in1013.5 mb 0.00 in0.0 mm 0.00 in0.0 mm 0.00 in0.0 mm
03:36 PM 59.4°F15.2°C 35.1°F1.7°C 40% 8.7 mph NW14.0 kmh NW 10.3 mph16.6 kmh 29.94 in1013.9 mb 0.00 in0.0 mm 0.00 in0.0 mm 0.00 in0.0 mm
03:37 PM 59.2°F15.1°C 34.9°F1.6°C 40% 10.1 mph NW16.3 kmh NW 13.6 mph21.9 kmh 29.93 in1013.5 mb 0.00 in0.0 mm 0.00 in0.0 mm 0.00 in0.0 mm
03:38 PM 59.2°F15.1°C 34.9°F1.6°C 40% 5.6 mph NNW9.0 kmh NNW 6.9 mph11.1 kmh 29.94 in1013.9 mb 0.00 in0.0 mm 0.00 in0.0 mm 0.00 in0.0 mm
03:39 PM 59.0°F15.0°C 34.7°F1.5°C 40% 7.6 mph WNW12.2 kmh WNW 10.3 mph16.6 kmh 29.94 in1013.9 mb 0.00 in0.0 mm 0.00 in0.0 mm 0.00 in0.0 mm
03:40 PM 59.0°F15.0°C 34.7°F1.5°C 40% 9.6 mph NNE15.4 kmh NNE 11.4 mph18.3 kmh 29.94 in1013.9 mb 0.00 in0.0 mm 0.00 in0.0 mm 0.00 in0.0 mm
03:41 PM 59.0°F15.0°C 34.7°F1.5°C 40% 1.8 mph NW2.9 kmh NW 3.4 mph5.5 kmh 29.94 in1013.9 mb 0.00 in0.0 mm 0.00 in0.0 mm 0.00 in0.0 mm
03:43 PM 58.8°F14.9°C 34.5°F1.4°C 40% 6.0 mph WNW9.7 kmh WNW 8.1 mph13.0 kmh 29.94 in1013.9 mb 0.00 in0.0 mm 0.00 in0.0 mm 0.00 in0.0 mm
03:44 PM 58.6°F14.8°C 34.4°F1.3°C 40% 9.8 mph NW15.8 kmh NW 12.5 mph20.1 kmh 29.95 in1014.2 mb 0.00 in0.0 mm 0.00 in0.0 mm 0.00 in0.0 mm
03:46 PM 58.6°F14.8°C 32.4°F0.2°C 37% 8.9 mph NNW14.3 kmh NNW 10.3 mph16.6 kmh 29.94 in1013.9 mb 0.00 in0.0 mm 0.00 in0.0 mm 0.00 in0.0 mm
03:47 PM 58.5°F14.7°C 32.3°F0.2°C 37% 5.1 mph N8.2 kmh N 5.8 mph9.3 kmh 29.95 in1014.2 mb 0.00 in0.0 mm 0.00 in0.0 mm 0.00 in0.0 mm
03:48 PM 58.5°F14.7°C 32.3°F0.2°C 37% 7.4 mph WSW11.9 kmh WSW 9.2 mph14.8 kmh 29.95 in1014.2 mb 0.00 in0.0 mm 0.00 in0.0 mm 0.00 in0.0 mm
03:49 PM 58.5°F14.7°C 32.3°F0.2°C 37% 8.9 mph NNE14.3 kmh NNE 12.5 mph20.1 kmh 29.95 in1014.2 mb 0.00 in0.0 mm 0.00 in0.0 mm 0.00 in0.0 mm
03:50 PM 58.5°F14.7°C 32.3°F0.2°C 37% 10.5 mph NW16.9 kmh NW 13.6 mph21.9 kmh 29.95 in1014.2 mb 0.00 in0.0 mm 0.00 in0.0 mm 0.00 in0.0 mm
03:51 PM 58.5°F14.7°C 32.3°F0.2°C 37% 8.5 mph NNW13.7 kmh NNW 12.5 mph20.1 kmh 29.95 in1014.2 mb 0.00 in0.0 mm 0.00 in0.0 mm 0.00 in0.0 mm
03:52 PM 58.3°F14.6°C 32.8°F0.4°C 38% 8.1 mph N13.0 kmh N 11.4 mph18.3 kmh 29.95 in1014.2 mb 0.00 in0.0 mm 0.00 in0.0 mm 0.00 in0.0 mm
03:53 PM 58.3°F14.6°C 32.8°F0.4°C 38% 9.2 mph W14.8 kmh W 12.5 mph20.1 kmh 29.95 in1014.2 mb 0.00 in0.0 mm 0.00 in0.0 mm 0.00 in0.0 mm
03:54 PM 58.1°F14.5°C 32.0°F0.0°C 37% 14.8 mph W23.8 kmh W 21.7 mph34.9 kmh 29.96 in1014.6 mb 0.00 in0.0 mm 0.00 in0.0 mm 0.00 in0.0 mm
03:55 PM 58.1°F14.5°C 32.0°F0.0°C 37% 8.7 mph WSW14.0 kmh WSW 11.4 mph18.3 kmh 29.96 in1014.6 mb 0.00 in0.0 mm 0.00 in0.0 mm 0.00 in0.0 mm
03:56 PM 57.9°F14.4°C 31.8°F-0.1°C 37% 8.5 mph N13.7 kmh N 13.6 mph21.9 kmh 29.95 in1014.2 mb 0.00 in0.0 mm 0.00 in0.0 mm 0.00 in0.0 mm
03:57 PM 57.9°F14.4°C 32.5°F0.3°C 38% 4.5 mph 7.2 kmh 5.8 mph9.3 kmh 29.95 in1014.2 mb 0.00 in0.0 mm 0.00 in0.0 mm 0.00 in0.0 mm
03:58 PM 57.9°F14.4°C 31.8°F-0.1°C 37% 7.6 mph N12.2 kmh N 9.2 mph14.8 kmh 29.95 in1014.2 mb 0.00 in0.0 mm 0.00 in0.0 mm 0.00 in0.0 mm
03:59 PM 57.9°F14.4°C 31.8°F-0.1°C 37% 10.3 mph NW16.6 kmh NW 14.8 mph23.8 kmh 29.96 in1014.6 mb 0.00 in0.0 mm 0.00 in0.0 mm 0.00 in0.0 mm
04:00 PM 57.7°F14.3°C 32.3°F0.2°C 38% 10.3 mph W16.6 kmh W 12.5 mph20.1 kmh 29.96 in1014.6 mb 0.00 in0.0 mm 0.00 in0.0 mm 0.00 in0.0 mm
04:01 PM 57.6°F14.2°C 32.2°F0.1°C 38% 5.6 mph NW9.0 kmh NW 8.1 mph13.0 kmh 29.96 in1014.6 mb 0.00 in0.0 mm 0.00 in0.0 mm 0.00 in0.0 mm
04:03 PM 57.4°F14.1°C 32.6°F0.3°C 39% 7.4 mph NW11.9 kmh NW 8.1 mph13.0 kmh 29.96 in1014.6 mb 0.00 in0.0 mm 0.00 in0.0 mm 0.00 in0.0 mm
04:04 PM 57.4°F14.1°C 32.6°F0.3°C 39% 5.1 mph NE8.2 kmh NE 8.1 mph13.0 kmh 29.96 in1014.6 mb 0.00 in0.0 mm 0.00 in0.0 mm 0.00 in0.0 mm
04:05 PM 57.4°F14.1°C 32.6°F0.3°C 39% 11.6 mph WNW18.7 kmh WNW 14.8 mph23.8 kmh 29.96 in1014.6 mb 0.00 in0.0 mm 0.00 in0.0 mm 0.00 in0.0 mm
04:06 PM 57.2°F14.0°C 33.1°F0.6°C 40% 8.9 mph WSW14.3 kmh WSW 11.4 mph18.3 kmh 29.96 in1014.6 mb 0.00 in0.0 mm 0.00 in0.0 mm 0.00 in0.0 mm
04:07 PM 57.0°F13.9°C 32.9°F0.5°C 40% 4.5 mph NE7.2 kmh NE 6.9 mph11.1 kmh 29.95 in1014.2 mb 0.00 in0.0 mm 0.00 in0.0 mm 0.00 in0.0 mm
04:08 PM 56.8°F13.8°C 32.7°F0.4°C 40% 12.3 mph NW19.8 kmh NW 14.8 mph23.8 kmh 29.96 in1014.6 mb 0.00 in0.0 mm 0.00 in0.0 mm 0.00 in0.0 mm
04:09 PM 56.8°F13.8°C 33.4°F0.8°C 41% 11.6 mph NW18.7 kmh NW 13.6 mph21.9 kmh 29.95 in1014.2 mb 0.00 in0.0 mm 0.00 in0.0 mm 0.00 in0.0 mm
04:10 PM 56.7°F13.7°C 33.9°F1.1°C 42% 7.6 mph N12.2 kmh N 11.4 mph18.3 kmh 29.96 in1014.6 mb 0.00 in0.0 mm 0.00 in0.0 mm 0.00 in0.0 mm
04:12 PM 56.5°F13.6°C 34.3°F1.3°C 43% 5.4 mph WNW8.7 kmh WNW 6.9 mph11.1 kmh 29.96 in1014.6 mb 0.00 in0.0 mm 0.00 in0.0 mm 0.00 in0.0 mm
04:13 PM 56.5°F13.6°C 34.3°F1.3°C 43% 2.9 mph NW4.7 kmh NW 3.4 mph5.5 kmh 29.95 in1014.2 mb 0.00 in0.0 mm 0.00 in0.0 mm 0.00 in0.0 mm
04:14 PM 56.3°F13.5°C 34.1°F1.2°C 43% 3.4 mph NNE5.5 kmh NNE 4.5 mph7.2 kmh 29.96 in1014.6 mb 0.00 in0.0 mm 0.00 in0.0 mm 0.00 in0.0 mm
04:16 PM 56.5°F13.6°C 34.3°F1.3°C 43% 5.4 mph NW8.7 kmh NW 6.9 mph11.1 kmh 29.95 in1014.2 mb 0.00 in0.0 mm 0.00 in0.0 mm 0.00 in0.0 mm
04:17 PM 56.7°F13.7°C 34.5°F1.4°C 43% 5.4 mph NW8.7 kmh NW 9.2 mph14.8 kmh 29.96 in1014.6 mb 0.00 in0.0 mm 0.00 in0.0 mm 0.00 in0.0 mm
04:18 PM 56.7°F13.7°C 34.5°F1.4°C 43% 6.9 mph WNW11.1 kmh WNW 8.1 mph13.0 kmh 29.95 in1014.2 mb 0.00 in0.0 mm 0.00 in0.0 mm 0.00 in0.0 mm
04:20 PM 56.7°F13.7°C 35.0°F1.7°C 44% 5.6 mph NNW9.0 kmh NNW 6.9 mph11.1 kmh 29.96 in1014.6 mb 0.00 in0.0 mm 0.00 in0.0 mm 0.00 in0.0 mm
04:21 PM 56.7°F13.7°C 35.0°F1.7°C 44% 7.2 mph NNW11.6 kmh NNW 11.4 mph18.3 kmh 29.95 in1014.2 mb 0.00 in0.0 mm 0.00 in0.0 mm 0.00 in0.0 mm
04:22 PM 56.3°F13.5°C 34.7°F1.5°C 44% 6.9 mph W11.1 kmh W 10.3 mph16.6 kmh 29.95 in1014.2 mb 0.00 in0.0 mm 0.00 in0.0 mm 0.00 in0.0 mm
04:23 PM 56.1°F13.4°C 35.1°F1.7°C 45% 6.3 mph NNW10.1 kmh NNW 8.1 mph13.0 kmh 29.95 in1014.2 mb 0.00 in0.0 mm 0.00 in0.0 mm 0.00 in0.0 mm
04:24 PM 56.1°F13.4°C 35.1°F1.7°C 45% 6.0 mph NW9.7 kmh NW 6.9 mph11.1 kmh 29.95 in1014.2 mb 0.00 in0.0 mm 0.00 in0.0 mm 0.00 in0.0 mm
04:25 PM 56.1°F13.4°C 35.1°F1.7°C 45% 5.8 mph NNW9.3 kmh NNW 9.2 mph14.8 kmh 29.95 in1014.2 mb 0.00 in0.0 mm 0.00 in0.0 mm 0.00 in0.0 mm
04:26 PM 55.9°F13.3°C 34.9°F1.6°C 45% 9.6 mph NNW15.4 kmh NNW 12.5 mph20.1 kmh 29.94 in1013.9 mb 0.00 in0.0 mm 0.00 in0.0 mm 0.00 in0.0 mm
04:27 PM 55.9°F13.3°C 34.9°F1.6°C 45% 8.1 mph WNW13.0 kmh WNW 11.4 mph18.3 kmh 29.95 in1014.2 mb 0.00 in0.0 mm 0.00 in0.0 mm 0.00 in0.0 mm
04:28 PM 55.9°F13.3°C 34.9°F1.6°C 45% 2.9 mph WNW4.7 kmh WNW 3.4 mph5.5 kmh 29.95 in1014.2 mb 0.00 in0.0 mm 0.00 in0.0 mm 0.00 in0.0 mm
04:29 PM 55.9°F13.3°C 34.9°F1.6°C 45% 6.5 mph WSW10.5 kmh WSW 9.2 mph14.8 kmh 29.95 in1014.2 mb 0.00 in0.0 mm 0.00 in0.0 mm 0.00 in0.0 mm
04:30 PM 55.9°F13.3°C 36.0°F2.2°C 47% 4.5 mph N7.2 kmh N 12.5 mph20.1 kmh 29.94 in1013.9 mb 0.00 in0.0 mm 0.00 in0.0 mm 0.00 in0.0 mm
04:31 PM 55.6°F13.1°C 35.2°F1.8°C 46% 2.5 mph SSW4.0 kmh SSW 4.5 mph7.2 kmh 29.95 in1014.2 mb 0.00 in0.0 mm 0.00 in0.0 mm 0.00 in0.0 mm
04:32 PM 55.6°F13.1°C 35.2°F1.8°C 46% 5.1 mph NNW8.2 kmh NNW 8.1 mph13.0 kmh 29.96 in1014.6 mb 0.00 in0.0 mm 0.00 in0.0 mm 0.00 in0.0 mm
04:33 PM 55.6°F13.1°C 35.2°F1.8°C 46% 4.0 mph NW6.4 kmh NW 5.8 mph9.3 kmh 29.95 in1014.2 mb 0.00 in0.0 mm 0.00 in0.0 mm 0.00 in0.0 mm
04:34 PM 55.6°F13.1°C 35.7°F2.1°C 47% 5.8 mph NW9.3 kmh NW 9.2 mph14.8 kmh 29.95 in1014.2 mb 0.00 in0.0 mm 0.00 in0.0 mm 0.00 in0.0 mm
04:35 PM 55.6°F13.1°C 35.7°F2.1°C 47% 5.8 mph WSW9.3 kmh WSW 6.9 mph11.1 kmh 29.95 in1014.2 mb 0.00 in0.0 mm 0.00 in0.0 mm 0.00 in0.0 mm
04:36 PM 55.4°F13.0°C 35.5°F1.9°C 47% 3.8 mph SSW6.1 kmh SSW 4.5 mph7.2 kmh 29.95 in1014.2 mb 0.00 in0.0 mm 0.00 in0.0 mm 0.00 in0.0 mm
04:37 PM 55.2°F12.9°C 35.3°F1.8°C 47% 4.3 mph SW6.9 kmh SW 6.9 mph11.1 kmh 29.95 in1014.2 mb 0.00 in0.0 mm 0.00 in0.0 mm 0.00 in0.0 mm
04:38 PM 55.2°F12.9°C 34.2°F1.2°C 45% 6.9 mph SW11.1 kmh SW 8.1 mph13.0 kmh 29.94 in1013.9 mb 0.00 in0.0 mm 0.00 in0.0 mm 0.00 in0.0 mm
04:39 PM 55.2°F12.9°C 34.8°F1.6°C 46% 2.2 mph WSW3.5 kmh WSW 3.4 mph5.5 kmh 29.94 in1013.9 mb 0.00 in0.0 mm 0.00 in0.0 mm 0.00 in0.0 mm
04:40 PM 55.4°F13.0°C 34.4°F1.3°C 45% 6.9 mph NW11.1 kmh NW 8.1 mph13.0 kmh 29.96 in1014.6 mb 0.00 in0.0 mm 0.00 in0.0 mm 0.00 in0.0 mm
04:42 PM 55.8°F13.2°C 34.2°F1.2°C 44% 2.0 mph N3.2 kmh N 2.2 mph3.5 kmh 29.95 in1014.2 mb 0.00 in0.0 mm 0.00 in0.0 mm 0.00 in0.0 mm
04:43 PM 55.9°F13.3°C 34.3°F1.3°C 44% 3.1 mph NNW5.0 kmh NNW 4.5 mph7.2 kmh 29.94 in1013.9 mb 0.00 in0.0 mm 0.00 in0.0 mm 0.00 in0.0 mm
04:44 PM 55.9°F13.3°C 34.3°F1.3°C 44% 1.8 mph NNE2.9 kmh NNE 3.4 mph5.5 kmh 29.94 in1013.9 mb 0.00 in0.0 mm 0.00 in0.0 mm 0.00 in0.0 mm
04:45 PM 55.9°F13.3°C 34.3°F1.3°C 44% 2.9 mph NW4.7 kmh NW 3.4 mph5.5 kmh 29.95 in1014.2 mb 0.00 in0.0 mm 0.00 in0.0 mm 0.00 in0.0 mm
04:46 PM 55.9°F13.3°C 33.7°F0.9°C 43% 3.8 mph NW6.1 kmh NW 4.5 mph7.2 kmh 29.95 in1014.2 mb 0.00 in0.0 mm 0.00 in0.0 mm 0.00 in0.0 mm
04:47 PM 55.9°F13.3°C 33.7°F0.9°C 43% 5.1 mph N8.2 kmh N 6.9 mph11.1 kmh 29.95 in1014.2 mb 0.00 in0.0 mm 0.00 in0.0 mm 0.00 in0.0 mm
04:48 PM 56.1°F13.4°C 33.3°F0.7°C 42% 8.1 mph NW13.0 kmh NW 10.3 mph16.6 kmh 29.95 in1014.2 mb 0.00 in0.0 mm 0.00 in0.0 mm 0.00 in0.0 mm
04:49 PM 56.3°F13.5°C 34.1°F1.2°C 43% 2.9 mph NW4.7 kmh NW 4.5 mph7.2 kmh 29.95 in1014.2 mb 0.00 in0.0 mm 0.00 in0.0 mm 0.00 in0.0 mm
04:50 PM 56.3°F13.5°C 34.1°F1.2°C 43% 6.7 mph WNW10.8 kmh WNW 10.3 mph16.6 kmh 29.95 in1014.2 mb 0.00 in0.0 mm 0.00 in0.0 mm 0.00 in0.0 mm
04:51 PM 56.1°F13.4°C 33.9°F1.1°C 43% 3.6 mph SW5.8 kmh SW 4.5 mph7.2 kmh 29.95 in1014.2 mb 0.00 in0.0 mm 0.00 in0.0 mm 0.00 in0.0 mm
04:52 PM 55.9°F13.3°C 33.7°F0.9°C 43% 3.4 mph NW5.5 kmh NW 4.5 mph7.2 kmh 29.95 in1014.2 mb 0.00 in0.0 mm 0.00 in0.0 mm 0.00 in0.0 mm
04:54 PM 55.9°F13.3°C 33.7°F0.9°C 43% 2.7 mph NW4.3 kmh NW 3.4 mph5.5 kmh 29.95 in1014.2 mb 0.00 in0.0 mm 0.00 in0.0 mm 0.00 in0.0 mm
04:55 PM 55.9°F13.3°C 33.7°F0.9°C 43% 3.1 mph WNW5.0 kmh WNW 5.8 mph9.3 kmh 29.95 in1014.2 mb 0.00 in0.0 mm 0.00 in0.0 mm 0.00 in0.0 mm
04:56 PM 56.1°F13.4°C 33.9°F1.1°C 43% 3.8 mph NW6.1 kmh NW 4.5 mph7.2 kmh 29.95 in1014.2 mb 0.00 in0.0 mm 0.00 in0.0 mm 0.00 in0.0 mm
04:57 PM 56.3°F13.5°C 33.5°F0.8°C 42% 2.9 mph NW4.7 kmh NW 3.4 mph5.5 kmh 29.94 in1013.9 mb 0.00 in0.0 mm 0.00 in0.0 mm 0.00 in0.0 mm
04:58 PM 56.3°F13.5°C 33.5°F0.8°C 42% 1.1 mph NNW1.8 kmh NNW 2.2 mph3.5 kmh 29.95 in1014.2 mb 0.00 in0.0 mm 0.00 in0.0 mm 0.00 in0.0 mm
04:59 PM 56.5°F13.6°C 33.7°F0.9°C 42% 5.8 mph NW9.3 kmh NW 6.9 mph11.1 kmh 29.95 in1014.2 mb 0.00 in0.0 mm 0.00 in0.0 mm 0.00 in0.0 mm
05:00 PM 56.5°F13.6°C 33.7°F0.9°C 42% 4.7 mph NW7.6 kmh NW 5.8 mph9.3 kmh 29.95 in1014.2 mb 0.00 in0.0 mm 0.00 in0.0 mm 0.00 in0.0 mm
05:01 PM 56.5°F13.6°C 33.7°F0.9°C 42% 7.2 mph NW11.6 kmh NW 9.2 mph14.8 kmh 29.95 in1014.2 mb 0.00 in0.0 mm 0.00 in0.0 mm 0.00 in0.0 mm
05:02 PM 56.5°F13.6°C 34.3°F1.3°C 43% 1.3 mph W2.1 kmh W 2.2 mph3.5 kmh 29.95 in1014.2 mb 0.00 in0.0 mm 0.00 in0.0 mm 0.00 in0.0 mm
05:03 PM 56.3°F13.5°C 34.1°F1.2°C 43% 2.0 mph N3.2 kmh N 2.2 mph3.5 kmh 29.94 in1013.9 mb 0.00 in0.0 mm 0.00 in0.0 mm 0.00 in0.0 mm
05:04 PM 56.3°F13.5°C 34.1°F1.2°C 43% 5.6 mph NW9.0 kmh NW 8.1 mph13.0 kmh 29.95 in1014.2 mb 0.00 in0.0 mm 0.00 in0.0 mm 0.00 in0.0 mm
05:05 PM 56.3°F13.5°C 34.1°F1.2°C 43% 3.8 mph NNW6.1 kmh NNW 4.5 mph7.2 kmh 29.95 in1014.2 mb 0.00 in0.0 mm 0.00 in0.0 mm 0.00 in0.0 mm
05:07 PM 56.3°F13.5°C 34.1°F1.2°C 43% 5.4 mph NW8.7 kmh NW 6.9 mph11.1 kmh 29.95 in1014.2 mb 0.00 in0.0 mm 0.00 in0.0 mm 0.00 in0.0 mm
05:08 PM 56.3°F13.5°C 34.1°F1.2°C 43% 4.0 mph WNW6.4 kmh WNW 5.8 mph9.3 kmh 29.95 in1014.2 mb 0.00 in0.0 mm 0.00 in0.0 mm 0.00 in0.0 mm
05:09 PM 56.3°F13.5°C 34.1°F1.2°C 43% 3.1 mph N5.0 kmh N 4.5 mph7.2 kmh 29.95 in1014.2 mb 0.00 in0.0 mm 0.00 in0.0 mm 0.00 in0.0 mm
05:10 PM 56.3°F13.5°C 34.1°F1.2°C 43% 4.9 mph N7.9 kmh N 6.9 mph11.1 kmh 29.95 in1014.2 mb 0.00 in0.0 mm 0.00 in0.0 mm 0.00 in0.0 mm
05:11 PM 56.5°F13.6°C 34.3°F1.3°C 43% 5.6 mph NW9.0 kmh NW 8.1 mph13.0 kmh 29.95 in1014.2 mb 0.00 in0.0 mm 0.00 in0.0 mm 0.00 in0.0 mm
05:12 PM 56.5°F13.6°C 34.3°F1.3°C 43% 4.0 mph NNW6.4 kmh NNW 5.8 mph9.3 kmh 29.95 in1014.2 mb 0.00 in0.0 mm 0.00 in0.0 mm 0.00 in0.0 mm
05:13 PM 56.5°F13.6°C 34.3°F1.3°C 43% 4.7 mph N7.6 kmh N 5.8 mph9.3 kmh 29.95 in1014.2 mb 0.00 in0.0 mm 0.00 in0.0 mm 0.00 in0.0 mm
05:14 PM 56.5°F13.6°C 34.9°F1.6°C 44% 4.7 mph NW7.6 kmh NW 5.8 mph9.3 kmh 29.94 in1013.9 mb 0.00 in0.0 mm 0.00 in0.0 mm 0.00 in0.0 mm
05:15 PM 56.5°F13.6°C 34.9°F1.6°C 44% 6.5 mph NW10.5 kmh NW 8.1 mph13.0 kmh 29.94 in1013.9 mb 0.00 in0.0 mm 0.00 in0.0 mm 0.00 in0.0 mm
05:16 PM 56.5°F13.6°C 34.9°F1.6°C 44% 7.8 mph WNW12.6 kmh WNW 9.2 mph14.8 kmh 29.94 in1013.9 mb 0.00 in0.0 mm 0.00 in0.0 mm 0.00 in0.0 mm
05:17 PM 56.3°F13.5°C 34.7°F1.5°C 44% 4.9 mph NW7.9 kmh NW 5.8 mph9.3 kmh 29.94 in1013.9 mb 0.00 in0.0 mm 0.00 in0.0 mm 0.00 in0.0 mm
05:18 PM 56.3°F13.5°C 34.7°F1.5°C 44% 8.1 mph WNW13.0 kmh WNW 9.2 mph14.8 kmh 29.95 in1014.2 mb 0.00 in0.0 mm 0.00 in0.0 mm 0.00 in0.0 mm
05:19 PM 56.3°F13.5°C 35.2°F1.8°C 45% 5.1 mph NW8.2 kmh NW 6.9 mph11.1 kmh 29.94 in1013.9 mb 0.00 in0.0 mm 0.00 in0.0 mm 0.00 in0.0 mm
05:20 PM 56.1°F13.4°C 35.1°F1.7°C 45% 6.9 mph NW11.1 kmh NW 8.1 mph13.0 kmh 29.95 in1014.2 mb 0.00 in0.0 mm 0.00 in0.0 mm 0.00 in0.0 mm
05:21 PM 56.1°F13.4°C 36.1°F2.3°C 47% 8.5 mph W13.7 kmh W 10.3 mph16.6 kmh 29.94 in1013.9 mb 0.00 in0.0 mm 0.00 in0.0 mm 0.00 in0.0 mm
05:24 PM 55.9°F13.3°C 37.0°F2.8°C 49% 6.5 mph WNW10.5 kmh WNW 8.1 mph13.0 kmh 29.95 in1014.2 mb 0.00 in0.0 mm 0.00 in0.0 mm 0.00 in0.0 mm
05:25 PM 55.9°F13.3°C 37.5°F3.1°C 50% 7.2 mph NW11.6 kmh NW 8.1 mph13.0 kmh 29.95 in1014.2 mb 0.00 in0.0 mm 0.00 in0.0 mm 0.00 in0.0 mm
05:26 PM 55.8°F13.2°C 38.4°F3.6°C 52% 4.7 mph NW7.6 kmh NW 5.8 mph9.3 kmh 29.95 in1014.2 mb 0.00 in0.0 mm 0.00 in0.0 mm 0.00 in0.0 mm
05:29 PM 55.2°F12.9°C 36.9°F2.7°C 50% 4.5 mph N7.2 kmh N 5.8 mph9.3 kmh 29.95 in1014.2 mb 0.00 in0.0 mm 0.00 in0.0 mm 0.00 in0.0 mm
05:30 PM 55.2°F12.9°C 37.9°F3.3°C 52% 4.3 mph W6.9 kmh W 4.5 mph7.2 kmh 29.94 in1013.9 mb 0.00 in0.0 mm 0.00 in0.0 mm 0.00 in0.0 mm
05:31 PM 55.0°F12.8°C 37.2°F2.9°C 51% 4.0 mph WNW6.4 kmh WNW 5.8 mph9.3 kmh 29.94 in1013.9 mb 0.00 in0.0 mm 0.00 in0.0 mm 0.00 in0.0 mm
05:32 PM 55.0°F12.8°C 36.7°F2.6°C 50% 5.8 mph SW9.3 kmh SW 6.9 mph11.1 kmh 29.94 in1013.9 mb 0.00 in0.0 mm 0.00 in0.0 mm 0.00 in0.0 mm
05:33 PM 55.0°F12.8°C 35.1°F1.7°C 47% 3.1 mph WSW5.0 kmh WSW 4.5 mph7.2 kmh 29.94 in1013.9 mb 0.00 in0.0 mm 0.00 in0.0 mm 0.00 in0.0 mm
05:34 PM 55.0°F12.8°C 36.7°F2.6°C 50% 2.7 mph NW4.3 kmh NW 3.4 mph5.5 kmh 29.95 in1014.2 mb 0.00 in0.0 mm 0.00 in0.0 mm 0.00 in0.0 mm
05:35 PM 55.2°F12.9°C 36.9°F2.7°C 50% 5.4 mph NW8.7 kmh NW 5.8 mph9.3 kmh 29.96 in1014.6 mb 0.00 in0.0 mm 0.00 in0.0 mm 0.00 in0.0 mm
05:36 PM 55.4°F13.0°C 37.6°F3.1°C 51% 4.9 mph NNW7.9 kmh NNW 5.8 mph9.3 kmh 29.95 in1014.2 mb 0.00 in0.0 mm 0.00 in0.0 mm 0.00 in0.0 mm
05:37 PM 55.4°F13.0°C 37.1°F2.8°C 50% 6.5 mph WNW10.5 kmh WNW 9.2 mph14.8 kmh 29.94 in1013.9 mb 0.00 in0.0 mm 0.00 in0.0 mm 0.00 in0.0 mm
05:38 PM 55.4°F13.0°C 37.6°F3.1°C 51% 4.0 mph N6.4 kmh N 4.5 mph7.2 kmh 29.95 in1014.2 mb 0.00 in0.0 mm 0.00 in0.0 mm 0.00 in0.0 mm
05:39 PM 55.4°F13.0°C 37.6°F3.1°C 51% 4.5 mph N7.2 kmh N 5.8 mph9.3 kmh 29.94 in1013.9 mb 0.00 in0.0 mm 0.00 in0.0 mm 0.00 in0.0 mm
05:40 PM 55.2°F12.9°C 37.4°F3.0°C 51% 5.4 mph NW8.7 kmh NW 6.9 mph11.1 kmh 29.94 in1013.9 mb 0.00 in0.0 mm 0.00 in0.0 mm 0.00 in0.0 mm
05:41 PM 55.2°F12.9°C 37.4°F3.0°C 51% 4.5 mph NNW7.2 kmh NNW 4.5 mph7.2 kmh 29.95 in1014.2 mb 0.00 in0.0 mm 0.00 in0.0 mm 0.00 in0.0 mm
05:42 PM 55.0°F12.8°C 37.7°F3.2°C 52% 4.3 mph N6.9 kmh N 4.5 mph7.2 kmh 29.95 in1014.2 mb 0.00 in0.0 mm 0.00 in0.0 mm 0.00 in0.0 mm
05:43 PM 55.0°F12.8°C 37.7°F3.2°C 52% 3.1 mph 5.0 kmh 4.5 mph7.2 kmh 29.94 in1013.9 mb 0.00 in0.0 mm 0.00 in0.0 mm 0.00 in0.0 mm
05:44 PM 55.0°F12.8°C 37.7°F3.2°C 52% 4.5 mph WNW7.2 kmh WNW 5.8 mph9.3 kmh 29.94 in1013.9 mb 0.00 in0.0 mm 0.00 in0.0 mm 0.00 in0.0 mm
05:45 PM 55.0°F12.8°C 37.2°F2.9°C 51% 5.8 mph NW9.3 kmh NW 6.9 mph11.1 kmh 29.94 in1013.9 mb 0.00 in0.0 mm 0.00 in0.0 mm 0.00 in0.0 mm
05:46 PM 55.0°F12.8°C 37.2°F2.9°C 51% 5.8 mph W9.3 kmh W 6.9 mph11.1 kmh 29.95 in1014.2 mb 0.00 in0.0 mm 0.00 in0.0 mm 0.00 in0.0 mm
05:47 PM 55.0°F12.8°C 37.7°F3.2°C 52% 3.1 mph NNW5.0 kmh NNW 4.5 mph7.2 kmh 29.94 in1013.9 mb 0.00 in0.0 mm 0.00 in0.0 mm 0.00 in0.0 mm
05:48 PM 55.0°F12.8°C 37.2°F2.9°C 51% 3.4 mph NNW5.5 kmh NNW 4.5 mph7.2 kmh 29.95 in1014.2 mb 0.00 in0.0 mm 0.00 in0.0 mm 0.00 in0.0 mm
05:50 PM 55.0°F12.8°C 36.2°F2.3°C 49% 4.5 mph NW7.2 kmh NW 5.8 mph9.3 kmh 29.94 in1013.9 mb 0.00 in0.0 mm 0.00 in0.0 mm 0.00 in0.0 mm
05:51 PM 55.0°F12.8°C 36.7°F2.6°C 50% 3.4 mph NW5.5 kmh NW 3.4 mph5.5 kmh 29.94 in1013.9 mb 0.00 in0.0 mm 0.00 in0.0 mm 0.00 in0.0 mm
05:52 PM 55.0°F12.8°C 36.2°F2.3°C 49% 5.8 mph W9.3 kmh W 8.1 mph13.0 kmh 29.95 in1014.2 mb 0.00 in0.0 mm 0.00 in0.0 mm 0.00 in0.0 mm
05:53 PM 55.0°F12.8°C 36.7°F2.6°C 50% 2.9 mph NW4.7 kmh NW 3.4 mph5.5 kmh 29.94 in1013.9 mb 0.00 in0.0 mm 0.00 in0.0 mm 0.00 in0.0 mm
05:54 PM 55.0°F12.8°C 36.7°F2.6°C 50% 2.9 mph NNW4.7 kmh NNW 3.4 mph5.5 kmh 29.94 in1013.9 mb 0.00 in0.0 mm 0.00 in0.0 mm 0.00 in0.0 mm
05:55 PM 55.2°F12.9°C 36.9°F2.7°C 50% 3.1 mph N5.0 kmh N 4.5 mph7.2 kmh 29.94 in1013.9 mb 0.00 in0.0 mm 0.00 in0.0 mm 0.00 in0.0 mm
05:56 PM 55.2°F12.9°C 37.4°F3.0°C 51% 3.4 mph NW5.5 kmh NW 4.5 mph7.2 kmh 29.94 in1013.9 mb 0.00 in0.0 mm 0.00 in0.0 mm 0.00 in0.0 mm
05:57 PM 55.2°F12.9°C 36.9°F2.7°C 50% 4.0 mph NW6.4 kmh NW 5.8 mph9.3 kmh 29.95 in1014.2 mb 0.00 in0.0 mm 0.00 in0.0 mm 0.00 in0.0 mm
05:58 PM 55.0°F12.8°C 36.7°F2.6°C 50% 4.0 mph NW6.4 kmh NW 5.8 mph9.3 kmh 29.94 in1013.9 mb 0.00 in0.0 mm 0.00 in0.0 mm 0.00 in0.0 mm
05:59 PM 55.0°F12.8°C 36.7°F2.6°C 50% 3.8 mph NNE6.1 kmh NNE 4.5 mph7.2 kmh 29.94 in1013.9 mb 0.00 in0.0 mm 0.00 in0.0 mm 0.00 in0.0 mm
06:00 PM 55.0°F12.8°C 36.7°F2.6°C 50% 2.7 mph N4.3 kmh N 3.4 mph5.5 kmh 29.94 in1013.9 mb 0.00 in0.0 mm 0.00 in0.0 mm 0.00 in0.0 mm
06:01 PM 55.0°F12.8°C 36.2°F2.3°C 49% 2.5 mph N4.0 kmh N 3.4 mph5.5 kmh 29.94 in1013.9 mb 0.00 in0.0 mm 0.00 in0.0 mm 0.00 in0.0 mm
06:02 PM 55.0°F12.8°C 36.7°F2.6°C 50% 2.5 mph NW4.0 kmh NW 3.4 mph5.5 kmh 29.94 in1013.9 mb 0.00 in0.0 mm 0.00 in0.0 mm 0.00 in0.0 mm
06:03 PM 55.2°F12.9°C 36.4°F2.4°C 49% 3.4 mph WNW5.5 kmh WNW 4.5 mph7.2 kmh 29.94 in1013.9 mb 0.00 in0.0 mm 0.00 in0.0 mm 0.00 in0.0 mm
06:04 PM 55.0°F12.8°C 36.7°F2.6°C 50% 3.4 mph N5.5 kmh N 4.5 mph7.2 kmh 29.94 in1013.9 mb 0.00 in0.0 mm 0.00 in0.0 mm 0.00 in0.0 mm
06:05 PM 55.0°F12.8°C 36.2°F2.3°C 49% 3.4 mph NW5.5 kmh NW 3.4 mph5.5 kmh 29.94 in1013.9 mb 0.00 in0.0 mm 0.00 in0.0 mm 0.00 in0.0 mm
06:06 PM 55.0°F12.8°C 36.7°F2.6°C 50% 2.7 mph NNW4.3 kmh NNW 3.4 mph5.5 kmh 29.94 in1013.9 mb 0.00 in0.0 mm 0.00 in0.0 mm 0.00 in0.0 mm
06:07 PM 55.0°F12.8°C 36.7°F2.6°C 50% 3.4 mph NNW5.5 kmh NNW 3.4 mph5.5 kmh 29.94 in1013.9 mb 0.00 in0.0 mm 0.00 in0.0 mm 0.00 in0.0 mm
06:09 PM 55.0°F12.8°C 36.2°F2.3°C 49% 2.5 mph N4.0 kmh N 3.4 mph5.5 kmh 29.94 in1013.9 mb 0.00 in0.0 mm 0.00 in0.0 mm 0.00 in0.0 mm
06:11 PM 55.0°F12.8°C 36.2°F2.3°C 49% 2.5 mph N4.0 kmh N 3.4 mph5.5 kmh 29.94 in1013.9 mb 0.00 in0.0 mm 0.00 in0.0 mm 0.00 in0.0 mm
06:12 PM 55.0°F12.8°C 36.2°F2.3°C 49% 2.5 mph NW4.0 kmh NW 3.4 mph5.5 kmh 29.94 in1013.9 mb 0.00 in0.0 mm 0.00 in0.0 mm 0.00 in0.0 mm
06:13 PM 55.0°F12.8°C 36.2°F2.3°C 49% 1.8 mph NNW2.9 kmh NNW 2.2 mph3.5 kmh 29.94 in1013.9 mb 0.00 in0.0 mm 0.00 in0.0 mm 0.00 in0.0 mm
06:14 PM 55.0°F12.8°C 36.2°F2.3°C 49% 1.8 mph NNW2.9 kmh NNW 2.2 mph3.5 kmh 29.93 in1013.5 mb 0.00 in0.0 mm 0.00 in0.0 mm 0.00 in0.0 mm
06:16 PM 55.0°F12.8°C 36.2°F2.3°C 49% 0.7 mph N1.1 kmh N 1.1 mph1.8 kmh 29.94 in1013.9 mb 0.00 in0.0 mm 0.00 in0.0 mm 0.00 in0.0 mm
06:17 PM 55.0°F12.8°C 36.2°F2.3°C 49% 0.7 mph N1.1 kmh N 1.1 mph1.8 kmh 29.94 in1013.9 mb 0.00 in0.0 mm 0.00 in0.0 mm 0.00 in0.0 mm
06:18 PM 55.0°F12.8°C 36.2°F2.3°C 49% 1.3 mph N2.1 kmh N 2.2 mph3.5 kmh 29.95 in1014.2 mb 0.00 in0.0 mm 0.00 in0.0 mm 0.00 in0.0 mm
06:19 PM 55.0°F12.8°C 35.7°F2.1°C 48% 2.2 mph N3.5 kmh N 3.4 mph5.5 kmh 29.94 in1013.9 mb 0.00 in0.0 mm 0.00 in0.0 mm 0.00 in0.0 mm
06:20 PM 55.0°F12.8°C 35.7°F2.1°C 48% 1.8 mph N2.9 kmh N 2.2 mph3.5 kmh 29.94 in1013.9 mb 0.00 in0.0 mm 0.00 in0.0 mm 0.00 in0.0 mm
06:22 PM 54.9°F12.7°C 35.6°F2.0°C 48% 5.4 mph NW8.7 kmh NW 9.2 mph14.8 kmh 29.94 in1013.9 mb 0.00 in0.0 mm 0.00 in0.0 mm 0.00 in0.0 mm
06:23 PM 54.9°F12.7°C 35.1°F1.7°C 47% 4.3 mph NNW6.9 kmh NNW 5.8 mph9.3 kmh 29.94 in1013.9 mb 0.00 in0.0 mm 0.00 in0.0 mm 0.00 in0.0 mm
06:24 PM 54.9°F12.7°C 35.6°F2.0°C 48% 3.6 mph N5.8 kmh N 4.5 mph7.2 kmh 29.94 in1013.9 mb 0.00 in0.0 mm 0.00 in0.0 mm 0.00 in0.0 mm
06:25 PM 54.9°F12.7°C 35.6°F2.0°C 48% 1.8 mph N2.9 kmh N 2.2 mph3.5 kmh 29.93 in1013.5 mb 0.00 in0.0 mm 0.00 in0.0 mm 0.00 in0.0 mm
06:26 PM 54.9°F12.7°C 35.6°F2.0°C 48% 2.2 mph N3.5 kmh N 2.2 mph3.5 kmh 29.93 in1013.5 mb 0.00 in0.0 mm 0.00 in0.0 mm 0.00 in0.0 mm
06:27 PM 54.9°F12.7°C 35.6°F2.0°C 48% 2.2 mph N3.5 kmh N 2.2 mph3.5 kmh 29.93 in1013.5 mb 0.00 in0.0 mm 0.00 in0.0 mm 0.00 in0.0 mm
06:28 PM 54.9°F12.7°C 35.6°F2.0°C 48% 1.8 mph N2.9 kmh N 2.2 mph3.5 kmh 29.93 in1013.5 mb 0.00 in0.0 mm 0.00 in0.0 mm 0.00 in0.0 mm
06:29 PM 54.9°F12.7°C 35.6°F2.0°C 48% 3.4 mph WNW5.5 kmh WNW 3.4 mph5.5 kmh 29.93 in1013.5 mb 0.00 in0.0 mm 0.00 in0.0 mm 0.00 in0.0 mm
06:30 PM 54.7°F12.6°C 35.4°F1.9°C 48% 1.6 mph N2.6 kmh N 2.2 mph3.5 kmh 29.93 in1013.5 mb 0.00 in0.0 mm 0.00 in0.0 mm 0.00 in0.0 mm
06:31 PM 54.7°F12.6°C 35.9°F2.2°C 49% 0.4 mph N0.6 kmh N 1.1 mph1.8 kmh 29.93 in1013.5 mb 0.00 in0.0 mm 0.00 in0.0 mm 0.00 in0.0 mm
06:32 PM 54.7°F12.6°C 35.4°F1.9°C 48% 3.1 mph N5.0 kmh N 4.5 mph7.2 kmh 29.93 in1013.5 mb 0.00 in0.0 mm 0.00 in0.0 mm 0.00 in0.0 mm
06:34 PM 54.5°F12.5°C 35.2°F1.8°C 48% 2.2 mph NNW3.5 kmh NNW 2.2 mph3.5 kmh 29.93 in1013.5 mb 0.00 in0.0 mm 0.00 in0.0 mm 0.00 in0.0 mm
06:36 PM 54.5°F12.5°C 35.2°F1.8°C 48% 1.1 mph WNW1.8 kmh WNW 1.1 mph1.8 kmh 29.93 in1013.5 mb 0.00 in0.0 mm 0.00 in0.0 mm 0.00 in0.0 mm
06:37 PM 54.5°F12.5°C 35.2°F1.8°C 48% 2.5 mph WNW4.0 kmh WNW 3.4 mph5.5 kmh 29.93 in1013.5 mb 0.00 in0.0 mm 0.00 in0.0 mm 0.00 in0.0 mm
06:38 PM 54.5°F12.5°C 35.2°F1.8°C 48% 0.9 mph W1.4 kmh W 1.1 mph1.8 kmh 29.93 in1013.5 mb 0.00 in0.0 mm 0.00 in0.0 mm 0.00 in0.0 mm
06:39 PM 54.3°F12.4°C 35.0°F1.7°C 48% 2.5 mph N4.0 kmh N 3.4 mph5.5 kmh 29.93 in1013.5 mb 0.00 in0.0 mm 0.00 in0.0 mm 0.00 in0.0 mm
06:41 PM 54.3°F12.4°C 35.0°F1.7°C 48% 3.4 mph N5.5 kmh N 3.4 mph5.5 kmh 29.94 in1013.9 mb 0.00 in0.0 mm 0.00 in0.0 mm 0.00 in0.0 mm
06:43 PM 54.5°F12.5°C 35.2°F1.8°C 48% 3.6 mph NW5.8 kmh NW 4.5 mph7.2 kmh 29.94 in1013.9 mb 0.00 in0.0 mm 0.00 in0.0 mm 0.00 in0.0 mm
06:44 PM 54.5°F12.5°C 35.2°F1.8°C 48% 4.0 mph NW6.4 kmh NW 4.5 mph7.2 kmh 29.93 in1013.5 mb 0.00 in0.0 mm 0.00 in0.0 mm 0.00 in0.0 mm
06:46 PM 54.5°F12.5°C 35.7°F2.1°C 49% 0.9 mph NE1.4 kmh NE 2.2 mph3.5 kmh 29.93 in1013.5 mb 0.00 in0.0 mm 0.00 in0.0 mm 0.00 in0.0 mm
06:47 PM 54.3°F12.4°C 35.0°F1.7°C 48% 1.8 mph N2.9 kmh N 2.2 mph3.5 kmh 29.94 in1013.9 mb 0.00 in0.0 mm 0.00 in0.0 mm 0.00 in0.0 mm
06:48 PM 54.3°F12.4°C 35.0°F1.7°C 48% 1.6 mph N2.6 kmh N 2.2 mph3.5 kmh 29.93 in1013.5 mb 0.00 in0.0 mm 0.00 in0.0 mm 0.00 in0.0 mm
06:49 PM 54.3°F12.4°C 35.0°F1.7°C 48% 1.8 mph N2.9 kmh N 2.2 mph3.5 kmh 29.93 in1013.5 mb 0.00 in0.0 mm 0.00 in0.0 mm 0.00 in0.0 mm
06:50 PM 54.3°F12.4°C 35.0°F1.7°C 48% Calm Calm -- 29.94 in1013.9 mb 0.00 in0.0 mm 0.00 in0.0 mm 0.00 in0.0 mm
06:52 PM 54.1°F12.3°C 38.8°F3.8°C 56% 3.8 mph S6.1 kmh S 4.5 mph7.2 kmh 29.94 in1013.9 mb 0.00 in0.0 mm 0.00 in0.0 mm 0.00 in0.0 mm
06:53 PM 53.8°F12.1°C 39.8°F4.3°C 59% 2.2 mph SE3.5 kmh SE 2.2 mph3.5 kmh 29.94 in1013.9 mb 0.00 in0.0 mm 0.00 in0.0 mm 0.00 in0.0 mm
06:54 PM 52.9°F11.6°C 39.8°F4.3°C 61% 1.3 mph SE2.1 kmh SE 2.2 mph3.5 kmh 29.94 in1013.9 mb 0.00 in0.0 mm 0.00 in0.0 mm 0.00 in0.0 mm
06:55 PM 52.3°F11.3°C 40.1°F4.5°C 63% 1.8 mph SE2.9 kmh SE 2.2 mph3.5 kmh 29.93 in1013.5 mb 0.00 in0.0 mm 0.00 in0.0 mm 0.00 in0.0 mm
06:56 PM 52.0°F11.1°C 40.2°F4.6°C 64% 1.1 mph SE1.8 kmh SE 1.1 mph1.8 kmh 29.94 in1013.9 mb 0.00 in0.0 mm 0.00 in0.0 mm 0.00 in0.0 mm
06:58 PM 51.6°F10.9°C 39.8°F4.3°C 64% Calm Calm -- 29.94 in1013.9 mb 0.00 in0.0 mm 0.00 in0.0 mm 0.00 in0.0 mm
06:59 PM 51.3°F10.7°C 39.9°F4.4°C 65% 1.6 mph SE2.6 kmh SE 2.2 mph3.5 kmh 29.93 in1013.5 mb 0.00 in0.0 mm 0.00 in0.0 mm 0.00 in0.0 mm
07:00 PM 51.1°F10.6°C 39.4°F4.1°C 64% 1.8 mph E2.9 kmh E 2.2 mph3.5 kmh 29.94 in1013.9 mb 0.00 in0.0 mm 0.00 in0.0 mm 0.00 in0.0 mm
07:01 PM 51.1°F10.6°C 39.7°F4.3°C 65% 1.6 mph N2.6 kmh N 2.2 mph3.5 kmh 29.94 in1013.9 mb 0.00 in0.0 mm 0.00 in0.0 mm 0.00 in0.0 mm
07:02 PM 51.1°F10.6°C 40.1°F4.5°C 66% 1.1 mph NE1.8 kmh NE 1.1 mph1.8 kmh 29.93 in1013.5 mb 0.00 in0.0 mm 0.00 in0.0 mm 0.00 in0.0 mm
07:03 PM 51.1°F10.6°C 40.1°F4.5°C 66% 0.2 mph NE0.3 kmh NE 1.1 mph1.8 kmh 29.94 in1013.9 mb 0.00 in0.0 mm 0.00 in0.0 mm 0.00 in0.0 mm
07:04 PM 51.1°F10.6°C 40.1°F4.5°C 66% Calm Calm -- 29.94 in1013.9 mb 0.00 in0.0 mm 0.00 in0.0 mm 0.00 in0.0 mm
07:05 PM 50.9°F10.5°C 40.0°F4.4°C 66% Calm Calm -- 29.94 in1013.9 mb 0.00 in0.0 mm 0.00 in0.0 mm 0.00 in0.0 mm
07:06 PM 50.9°F10.5°C 40.3°F4.6°C 67% Calm Calm -- 29.94 in1013.9 mb 0.00 in0.0 mm 0.00 in0.0 mm 0.00 in0.0 mm
07:07 PM 50.9°F10.5°C 40.3°F4.6°C 67% Calm Calm -- 29.94 in1013.9 mb 0.00 in0.0 mm 0.00 in0.0 mm 0.00 in0.0 mm
07:08 PM 50.7°F10.4°C 40.1°F4.5°C 67% Calm Calm -- 29.94 in1013.9 mb 0.00 in0.0 mm 0.00 in0.0 mm 0.00 in0.0 mm
07:10 PM 50.7°F10.4°C 40.1°F4.5°C 67% 1.8 mph ESE2.9 kmh ESE 2.2 mph3.5 kmh 29.94 in1013.9 mb 0.00 in0.0 mm 0.00 in0.0 mm 0.00 in0.0 mm
07:11 PM 50.5°F10.3°C 40.0°F4.4°C 67% 2.5 mph SE4.0 kmh SE 3.4 mph5.5 kmh 29.93 in1013.5 mb 0.00 in0.0 mm 0.00 in0.0 mm 0.00 in0.0 mm
07:12 PM 50.7°F10.4°C 40.1°F4.5°C 67% 1.3 mph SE2.1 kmh SE 2.2 mph3.5 kmh 29.94 in1013.9 mb 0.00 in0.0 mm 0.00 in0.0 mm 0.00 in0.0 mm
07:14 PM 50.7°F10.4°C 40.1°F4.5°C 67% 1.1 mph SE1.8 kmh SE 1.1 mph1.8 kmh 29.94 in1013.9 mb 0.00 in0.0 mm 0.00 in0.0 mm 0.00 in0.0 mm
07:15 PM 50.7°F10.4°C 40.1°F4.5°C 67% 1.1 mph ESE1.8 kmh ESE 1.1 mph1.8 kmh 29.94 in1013.9 mb 0.00 in0.0 mm 0.00 in0.0 mm 0.00 in0.0 mm
07:16 PM 50.5°F10.3°C 40.0°F4.4°C 67% 1.1 mph ESE1.8 kmh ESE 1.1 mph1.8 kmh 29.94 in1013.9 mb 0.00 in0.0 mm 0.00 in0.0 mm 0.00 in0.0 mm
07:17 PM 50.5°F10.3°C 40.3°F4.6°C 68% 0.2 mph ESE0.3 kmh ESE 1.1 mph1.8 kmh 29.94 in1013.9 mb 0.00 in0.0 mm 0.00 in0.0 mm 0.00 in0.0 mm
07:18 PM 50.5°F10.3°C 40.3°F4.6°C 68% 0.7 mph ESE1.1 kmh ESE 1.1 mph1.8 kmh 29.94 in1013.9 mb 0.00 in0.0 mm 0.00 in0.0 mm 0.00 in0.0 mm
07:19 PM 50.5°F10.3°C 40.3°F4.6°C 68% 1.1 mph ESE1.8 kmh ESE 1.1 mph1.8 kmh 29.94 in1013.9 mb 0.00 in0.0 mm 0.00 in0.0 mm 0.00 in0.0 mm
07:21 PM 50.4°F10.2°C 40.2°F4.6°C 68% 1.1 mph E1.8 kmh E 1.1 mph1.8 kmh 29.94 in1013.9 mb 0.00 in0.0 mm 0.00 in0.0 mm 0.00 in0.0 mm
07:22 PM 50.2°F10.1°C 40.4°F4.7°C 69% 1.1 mph E1.8 kmh E 1.1 mph1.8 kmh 29.94 in1013.9 mb 0.00 in0.0 mm 0.00 in0.0 mm 0.00 in0.0 mm
07:25 PM 50.2°F10.1°C 40.8°F4.9°C 70% 1.3 mph E2.1 kmh E 2.2 mph3.5 kmh 29.94 in1013.9 mb 0.00 in0.0 mm 0.00 in0.0 mm 0.00 in0.0 mm
07:26 PM 50.0°F10.0°C 40.6°F4.8°C 70% 1.1 mph E1.8 kmh E 2.2 mph3.5 kmh 29.94 in1013.9 mb 0.00 in0.0 mm 0.00 in0.0 mm 0.00 in0.0 mm
07:27 PM 50.0°F10.0°C 40.6°F4.8°C 70% 0.9 mph E1.4 kmh E 1.1 mph1.8 kmh 29.94 in1013.9 mb 0.00 in0.0 mm 0.00 in0.0 mm 0.00 in0.0 mm
07:28 PM 50.0°F10.0°C 41.0°F5.0°C 71% 0.2 mph E0.3 kmh E 1.1 mph1.8 kmh 29.94 in1013.9 mb 0.00 in0.0 mm 0.00 in0.0 mm 0.00 in0.0 mm
07:29 PM 49.8°F9.9°C 40.4°F4.7°C 70% Calm Calm -- 29.94 in1013.9 mb 0.00 in0.0 mm 0.00 in0.0 mm 0.00 in0.0 mm
07:31 PM 49.8°F9.9°C 40.4°F4.7°C 70% 1.8 mph E2.9 kmh E 2.2 mph3.5 kmh 29.94 in1013.9 mb 0.00 in0.0 mm 0.00 in0.0 mm 0.00 in0.0 mm
07:32 PM 49.6°F9.8°C 40.2°F4.6°C 70% 1.1 mph E1.8 kmh E 1.1 mph1.8 kmh 29.93 in1013.5 mb 0.00 in0.0 mm 0.00 in0.0 mm 0.00 in0.0 mm
07:33 PM 49.6°F9.8°C 40.6°F4.8°C 71% 0.2 mph E0.3 kmh E 1.1 mph1.8 kmh 29.94 in1013.9 mb 0.00 in0.0 mm 0.00 in0.0 mm 0.00 in0.0 mm
07:34 PM 49.6°F9.8°C 40.6°F4.8°C 71% Calm Calm -- 29.93 in1013.5 mb 0.00 in0.0 mm 0.00 in0.0 mm 0.00 in0.0 mm
07:35 PM 49.6°F9.8°C 40.6°F4.8°C 71% Calm Calm -- 29.93 in1013.5 mb 0.00 in0.0 mm 0.00 in0.0 mm 0.00 in0.0 mm
07:37 PM 49.6°F9.8°C 40.6°F4.8°C 71% 0.2 mph E0.3 kmh E 1.1 mph1.8 kmh 29.94 in1013.9 mb 0.00 in0.0 mm 0.00 in0.0 mm 0.00 in0.0 mm
07:38 PM 49.6°F9.8°C 40.6°F4.8°C 71% Calm Calm -- 29.94 in1013.9 mb 0.00 in0.0 mm 0.00 in0.0 mm 0.00 in0.0 mm
07:39 PM 49.6°F9.8°C 40.6°F4.8°C 71% Calm Calm -- 29.94 in1013.9 mb 0.00 in0.0 mm 0.00 in0.0 mm 0.00 in0.0 mm
07:40 PM 49.5°F9.7°C 40.5°F4.7°C 71% Calm Calm -- 29.94 in1013.9 mb 0.00 in0.0 mm 0.00 in0.0 mm 0.00 in0.0 mm
07:41 PM 49.5°F9.7°C 40.5°F4.7°C 71% 0.2 mph E0.3 kmh E 1.1 mph1.8 kmh 29.93 in1013.5 mb 0.00 in0.0 mm 0.00 in0.0 mm 0.00 in0.0 mm
07:42 PM 49.5°F9.7°C 40.9°F4.9°C 72% Calm Calm -- 29.94 in1013.9 mb 0.00 in0.0 mm 0.00 in0.0 mm 0.00 in0.0 mm
07:43 PM 49.5°F9.7°C 40.5°F4.7°C 71% Calm Calm -- 29.94 in1013.9 mb 0.00 in0.0 mm 0.00 in0.0 mm 0.00 in0.0 mm
07:44 PM 49.3°F9.6°C 40.3°F4.6°C 71% 0.9 mph E1.4 kmh E 1.1 mph1.8 kmh 29.93 in1013.5 mb 0.00 in0.0 mm 0.00 in0.0 mm 0.00 in0.0 mm
07:46 PM 49.3°F9.6°C 40.3°F4.6°C 71% 1.3 mph E2.1 kmh E 2.2 mph3.5 kmh 29.93 in1013.5 mb 0.00 in0.0 mm 0.00 in0.0 mm 0.00 in0.0 mm
07:47 PM 49.5°F9.7°C 40.5°F4.7°C 71% 0.2 mph E0.3 kmh E 1.1 mph1.8 kmh 29.94 in1013.9 mb 0.00 in0.0 mm 0.00 in0.0 mm 0.00 in0.0 mm
07:48 PM 49.5°F9.7°C 40.5°F4.7°C 71% 1.1 mph E1.8 kmh E 1.1 mph1.8 kmh 29.94 in1013.9 mb 0.00 in0.0 mm 0.00 in0.0 mm 0.00 in0.0 mm
07:49 PM 49.5°F9.7°C 40.5°F4.7°C 71% 1.1 mph E1.8 kmh E 1.1 mph1.8 kmh 29.94 in1013.9 mb 0.00 in0.0 mm 0.00 in0.0 mm 0.00 in0.0 mm
07:51 PM 49.5°F9.7°C 40.1°F4.5°C 70% 0.9 mph E1.4 kmh E 1.1 mph1.8 kmh 29.93 in1013.5 mb 0.00 in0.0 mm 0.00 in0.0 mm 0.00 in0.0 mm
07:52 PM 49.5°F9.7°C 40.1°F4.5°C 70% 0.9 mph E1.4 kmh E 1.1 mph1.8 kmh 29.93 in1013.5 mb 0.00 in0.0 mm 0.00 in0.0 mm 0.00 in0.0 mm
07:53 PM 49.5°F9.7°C 40.1°F4.5°C 70% 0.7 mph E1.1 kmh E 1.1 mph1.8 kmh 29.93 in1013.5 mb 0.00 in0.0 mm 0.00 in0.0 mm 0.00 in0.0 mm
07:54 PM 49.5°F9.7°C 40.1°F4.5°C 70% 1.3 mph E2.1 kmh E 2.2 mph3.5 kmh 29.94 in1013.9 mb 0.00 in0.0 mm 0.00 in0.0 mm 0.00 in0.0 mm
07:55 PM 49.5°F9.7°C 39.8°F4.3°C 69% 0.4 mph E0.6 kmh E 1.1 mph1.8 kmh 29.93 in1013.5 mb 0.00 in0.0 mm 0.00 in0.0 mm 0.00 in0.0 mm
07:56 PM 49.6°F9.8°C 40.2°F4.6°C 70% Calm Calm -- 29.94 in1013.9 mb 0.00 in0.0 mm 0.00 in0.0 mm 0.00 in0.0 mm
07:57 PM 49.6°F9.8°C 40.2°F4.6°C 70% 1.1 mph E1.8 kmh E 2.2 mph3.5 kmh 29.94 in1013.9 mb 0.00 in0.0 mm 0.00 in0.0 mm 0.00 in0.0 mm
07:58 PM 49.6°F9.8°C 39.9°F4.4°C 69% 0.4 mph E0.6 kmh E 1.1 mph1.8 kmh 29.94 in1013.9 mb 0.00 in0.0 mm 0.00 in0.0 mm 0.00 in0.0 mm
07:59 PM 49.6°F9.8°C 40.2°F4.6°C 70% Calm Calm -- 29.94 in1013.9 mb 0.00 in0.0 mm 0.00 in0.0 mm 0.00 in0.0 mm
08:00 PM 49.6°F9.8°C 40.2°F4.6°C 70% 0.7 mph E1.1 kmh E 1.1 mph1.8 kmh 29.94 in1013.9 mb 0.00 in0.0 mm 0.00 in0.0 mm 0.00 in0.0 mm
08:02 PM 49.6°F9.8°C 40.6°F4.8°C 71% 0.9 mph E1.4 kmh E 1.1 mph1.8 kmh 29.94 in1013.9 mb 0.00 in0.0 mm 0.00 in0.0 mm 0.00 in0.0 mm
08:03 PM 49.6°F9.8°C 40.6°F4.8°C 71% 1.3 mph E2.1 kmh E 2.2 mph3.5 kmh 29.94 in1013.9 mb 0.00 in0.0 mm 0.00 in0.0 mm 0.00 in0.0 mm
08:04 PM 49.6°F9.8°C 40.6°F4.8°C 71% 1.1 mph ESE1.8 kmh ESE 1.1 mph1.8 kmh 29.93 in1013.5 mb 0.00 in0.0 mm 0.00 in0.0 mm 0.00 in0.0 mm
08:05 PM 49.6°F9.8°C 40.6°F4.8°C 71% Calm Calm -- 29.93 in1013.5 mb 0.00 in0.0 mm 0.00 in0.0 mm 0.00 in0.0 mm
08:06 PM 49.6°F9.8°C 40.6°F4.8°C 71% Calm Calm -- 29.94 in1013.9 mb 0.00 in0.0 mm 0.00 in0.0 mm 0.00 in0.0 mm
08:07 PM 49.6°F9.8°C 40.2°F4.6°C 70% 1.3 mph ESE2.1 kmh ESE 2.2 mph3.5 kmh 29.94 in1013.9 mb 0.00 in0.0 mm 0.00 in0.0 mm 0.00 in0.0 mm
08:08 PM 49.6°F9.8°C 40.2°F4.6°C 70% 1.8 mph SE2.9 kmh SE 2.2 mph3.5 kmh 29.94 in1013.9 mb 0.00 in0.0 mm 0.00 in0.0 mm 0.00 in0.0 mm
08:09 PM 49.8°F9.9°C 40.0°F4.4°C 69% 2.2 mph SE3.5 kmh SE 3.4 mph5.5 kmh 29.94 in1013.9 mb 0.00 in0.0 mm 0.00 in0.0 mm 0.00 in0.0 mm
08:10 PM 49.8°F9.9°C 40.0°F4.4°C 69% 1.8 mph SE2.9 kmh SE 2.2 mph3.5 kmh 29.94 in1013.9 mb 0.00 in0.0 mm 0.00 in0.0 mm 0.00 in0.0 mm
08:11 PM 50.0°F10.0°C 40.6°F4.8°C 70% 1.8 mph ESE2.9 kmh ESE 2.2 mph3.5 kmh 29.93 in1013.5 mb 0.00 in0.0 mm 0.00 in0.0 mm 0.00 in0.0 mm
08:12 PM 50.0°F10.0°C 40.2°F4.6°C 69% 1.8 mph ESE2.9 kmh ESE 2.2 mph3.5 kmh 29.94 in1013.9 mb 0.00 in0.0 mm 0.00 in0.0 mm 0.00 in0.0 mm
08:13 PM 50.0°F10.0°C 40.6°F4.8°C 70% 1.3 mph ESE2.1 kmh ESE 2.2 mph3.5 kmh 29.94 in1013.9 mb 0.00 in0.0 mm 0.00 in0.0 mm 0.00 in0.0 mm
08:14 PM 50.0°F10.0°C 40.6°F4.8°C 70% 2.2 mph ESE3.5 kmh ESE 3.4 mph5.5 kmh 29.94 in1013.9 mb 0.00 in0.0 mm 0.00 in0.0 mm 0.00 in0.0 mm
08:16 PM 49.8°F9.9°C 40.4°F4.7°C 70% 0.9 mph E1.4 kmh E 1.1 mph1.8 kmh 29.94 in1013.9 mb 0.00 in0.0 mm 0.00 in0.0 mm 0.00 in0.0 mm
08:18 PM 49.8°F9.9°C 40.4°F4.7°C 70% 1.1 mph E1.8 kmh E 1.1 mph1.8 kmh 29.93 in1013.5 mb 0.00 in0.0 mm 0.00 in0.0 mm 0.00 in0.0 mm
08:19 PM 49.8°F9.9°C 40.8°F4.9°C 71% 1.8 mph SE2.9 kmh SE 3.4 mph5.5 kmh 29.94 in1013.9 mb 0.00 in0.0 mm 0.00 in0.0 mm 0.00 in0.0 mm
08:20 PM 49.6°F9.8°C 40.6°F4.8°C 71% 2.2 mph SE3.5 kmh SE 3.4 mph5.5 kmh 29.94 in1013.9 mb 0.00 in0.0 mm 0.00 in0.0 mm 0.00 in0.0 mm
08:21 PM 49.6°F9.8°C 40.6°F4.8°C 71% 1.8 mph SE2.9 kmh SE 2.2 mph3.5 kmh 29.94 in1013.9 mb 0.00 in0.0 mm 0.00 in0.0 mm 0.00 in0.0 mm
08:22 PM 49.6°F9.8°C 40.6°F4.8°C 71% 1.3 mph SE2.1 kmh SE 2.2 mph3.5 kmh 29.93 in1013.5 mb 0.00 in0.0 mm 0.00 in0.0 mm 0.00 in0.0 mm
08:23 PM 49.6°F9.8°C 40.9°F4.9°C 72% 0.4 mph SE0.6 kmh SE 1.1 mph1.8 kmh 29.93 in1013.5 mb 0.00 in0.0 mm 0.00 in0.0 mm 0.00 in0.0 mm
08:24 PM 49.6°F9.8°C 40.6°F4.8°C 71% 0.7 mph SE1.1 kmh SE 1.1 mph1.8 kmh 29.93 in1013.5 mb 0.00 in0.0 mm 0.00 in0.0 mm 0.00 in0.0 mm
08:25 PM 49.6°F9.8°C 40.9°F4.9°C 72% 0.9 mph SE1.4 kmh SE 1.1 mph1.8 kmh 29.94 in1013.9 mb 0.00 in0.0 mm 0.00 in0.0 mm 0.00 in0.0 mm
08:26 PM 49.5°F9.7°C 40.9°F4.9°C 72% 2.2 mph SE3.5 kmh SE 2.2 mph3.5 kmh 29.93 in1013.5 mb 0.00 in0.0 mm 0.00 in0.0 mm 0.00 in0.0 mm
08:27 PM 49.5°F9.7°C 40.9°F4.9°C 72% 1.1 mph SE1.8 kmh SE 1.1 mph1.8 kmh 29.93 in1013.5 mb 0.00 in0.0 mm 0.00 in0.0 mm 0.00 in0.0 mm
08:28 PM 49.5°F9.7°C 40.9°F4.9°C 72% 1.6 mph SE2.6 kmh SE 2.2 mph3.5 kmh 29.93 in1013.5 mb 0.00 in0.0 mm 0.00 in0.0 mm 0.00 in0.0 mm
08:29 PM 49.5°F9.7°C 40.9°F4.9°C 72% 1.3 mph SE2.1 kmh SE 2.2 mph3.5 kmh 29.94 in1013.9 mb 0.00 in0.0 mm 0.00 in0.0 mm 0.00 in0.0 mm
08:30 PM 49.3°F9.6°C 40.7°F4.8°C 72% 2.0 mph SE3.2 kmh SE 2.2 mph3.5 kmh 29.93 in1013.5 mb 0.00 in0.0 mm 0.00 in0.0 mm 0.00 in0.0 mm
08:31 PM 49.3°F9.6°C 40.7°F4.8°C 72% 1.8 mph SE2.9 kmh SE 2.2 mph3.5 kmh 29.92 in1013.2 mb 0.00 in0.0 mm 0.00 in0.0 mm 0.00 in0.0 mm
08:32 PM 49.3°F9.6°C 41.0°F5.0°C 73% 1.1 mph ESE1.8 kmh ESE 1.1 mph1.8 kmh 29.93 in1013.5 mb 0.00 in0.0 mm 0.00 in0.0 mm 0.00 in0.0 mm
08:33 PM 49.3°F9.6°C 40.7°F4.8°C 72% 1.3 mph SE2.1 kmh SE 2.2 mph3.5 kmh 29.92 in1013.2 mb 0.00 in0.0 mm 0.00 in0.0 mm 0.00 in0.0 mm
08:34 PM 49.3°F9.6°C 41.0°F5.0°C 73% 1.8 mph SE2.9 kmh SE 2.2 mph3.5 kmh 29.93 in1013.5 mb 0.00 in0.0 mm 0.00 in0.0 mm 0.00 in0.0 mm
08:35 PM 49.1°F9.5°C 40.5°F4.7°C 72% 0.2 mph ESE0.3 kmh ESE 1.1 mph1.8 kmh 29.93 in1013.5 mb 0.00 in0.0 mm 0.00 in0.0 mm 0.00 in0.0 mm
08:36 PM 49.1°F9.5°C 40.8°F4.9°C 73% 0.9 mph ESE1.4 kmh ESE 1.1 mph1.8 kmh 29.93 in1013.5 mb 0.00 in0.0 mm 0.00 in0.0 mm 0.00 in0.0 mm
08:37 PM 49.1°F9.5°C 40.8°F4.9°C 73% Calm Calm -- 29.93 in1013.5 mb 0.00 in0.0 mm 0.00 in0.0 mm 0.00 in0.0 mm
08:38 PM 49.1°F9.5°C 40.5°F4.7°C 72% 0.7 mph ESE1.1 kmh ESE 1.1 mph1.8 kmh 29.93 in1013.5 mb 0.00 in0.0 mm 0.00 in0.0 mm 0.00 in0.0 mm
08:39 PM 49.1°F9.5°C 40.5°F4.7°C 72% 0.7 mph SE1.1 kmh SE 1.1 mph1.8 kmh 29.93 in1013.5 mb 0.00 in0.0 mm 0.00 in0.0 mm 0.00 in0.0 mm
08:40 PM 49.1°F9.5°C 40.8°F4.9°C 73% Calm Calm -- 29.93 in1013.5 mb 0.00 in0.0 mm 0.00 in0.0 mm 0.00 in0.0 mm
08:42 PM 49.1°F9.5°C 40.8°F4.9°C 73% 1.1 mph SE1.8 kmh SE 1.1 mph1.8 kmh 29.93 in1013.5 mb 0.00 in0.0 mm 0.00 in0.0 mm 0.00 in0.0 mm
08:43 PM 49.1°F9.5°C 40.8°F4.9°C 73% 1.3 mph SE2.1 kmh SE 2.2 mph3.5 kmh 29.92 in1013.2 mb 0.00 in0.0 mm 0.00 in0.0 mm 0.00 in0.0 mm
08:44 PM 49.1°F9.5°C 40.8°F4.9°C 73% 1.3 mph SE2.1 kmh SE 2.2 mph3.5 kmh 29.92 in1013.2 mb 0.00 in0.0 mm 0.00 in0.0 mm 0.00 in0.0 mm
08:45 PM 48.9°F9.4°C 40.6°F4.8°C 73% 1.1 mph SE1.8 kmh SE 1.1 mph1.8 kmh 29.93 in1013.5 mb 0.00 in0.0 mm 0.00 in0.0 mm 0.00 in0.0 mm
08:46 PM 48.9°F9.4°C 40.6°F4.8°C 73% 1.6 mph SE2.6 kmh SE 2.2 mph3.5 kmh 29.92 in1013.2 mb 0.00 in0.0 mm 0.00 in0.0 mm 0.00 in0.0 mm
08:47 PM 49.1°F9.5°C 40.8°F4.9°C 73% 2.5 mph SE4.0 kmh SE 3.4 mph5.5 kmh 29.93 in1013.5 mb 0.00 in0.0 mm 0.00 in0.0 mm 0.00 in0.0 mm
08:48 PM 49.1°F9.5°C 40.5°F4.7°C 72% 3.6 mph SSE5.8 kmh SSE 4.5 mph7.2 kmh 29.92 in1013.2 mb 0.00 in0.0 mm 0.00 in0.0 mm 0.00 in0.0 mm
08:49 PM 49.1°F9.5°C 40.5°F4.7°C 72% 1.1 mph SE1.8 kmh SE 1.1 mph1.8 kmh 29.93 in1013.5 mb 0.00 in0.0 mm 0.00 in0.0 mm 0.00 in0.0 mm
08:50 PM 49.3°F9.6°C 40.7°F4.8°C 72% 2.2 mph SE3.5 kmh SE 3.4 mph5.5 kmh 29.92 in1013.2 mb 0.00 in0.0 mm 0.00 in0.0 mm 0.00 in0.0 mm
08:51 PM 49.3°F9.6°C 40.7°F4.8°C 72% 1.8 mph SE2.9 kmh SE 3.4 mph5.5 kmh 29.92 in1013.2 mb 0.00 in0.0 mm 0.00 in0.0 mm 0.00 in0.0 mm
08:52 PM 49.1°F9.5°C 40.5°F4.7°C 72% 2.2 mph SE3.5 kmh SE 3.4 mph5.5 kmh 29.93 in1013.5 mb 0.00 in0.0 mm 0.00 in0.0 mm 0.00 in0.0 mm
08:53 PM 49.1°F9.5°C 40.5°F4.7°C 72% 0.7 mph ESE1.1 kmh ESE 1.1 mph1.8 kmh 29.93 in1013.5 mb 0.00 in0.0 mm 0.00 in0.0 mm 0.00 in0.0 mm
08:54 PM 49.3°F9.6°C 40.7°F4.8°C 72% Calm Calm -- 29.92 in1013.2 mb 0.00 in0.0 mm 0.00 in0.0 mm 0.00 in0.0 mm
08:55 PM 49.3°F9.6°C 40.7°F4.8°C 72% Calm Calm -- 29.92 in1013.2 mb 0.00 in0.0 mm 0.00 in0.0 mm 0.00 in0.0 mm
08:56 PM 49.3°F9.6°C 40.7°F4.8°C 72% 0.2 mph ESE0.3 kmh ESE 1.1 mph1.8 kmh 29.92 in1013.2 mb 0.00 in0.0 mm 0.00 in0.0 mm 0.00 in0.0 mm
08:57 PM 49.3°F9.6°C 40.7°F4.8°C 72% Calm Calm -- 29.93 in1013.5 mb 0.00 in0.0 mm 0.00 in0.0 mm 0.00 in0.0 mm
08:58 PM 49.3°F9.6°C 40.7°F4.8°C 72% Calm Calm -- 29.93 in1013.5 mb 0.00 in0.0 mm 0.00 in0.0 mm 0.00 in0.0 mm
08:59 PM 49.3°F9.6°C 40.7°F4.8°C 72% 0.2 mph ESE0.3 kmh ESE 1.1 mph1.8 kmh 29.92 in1013.2 mb 0.00 in0.0 mm 0.00 in0.0 mm 0.00 in0.0 mm
09:00 PM 49.3°F9.6°C 40.7°F4.8°C 72% 1.1 mph ESE1.8 kmh ESE 1.1 mph1.8 kmh 29.93 in1013.5 mb 0.00 in0.0 mm 0.00 in0.0 mm 0.00 in0.0 mm
09:02 PM 49.3°F9.6°C 40.7°F4.8°C 72% Calm Calm -- 29.92 in1013.2 mb 0.00 in0.0 mm 0.00 in0.0 mm 0.00 in0.0 mm
09:03 PM 49.3°F9.6°C 40.7°F4.8°C 72% Calm Calm -- 29.92 in1013.2 mb 0.00 in0.0 mm 0.00 in0.0 mm 0.00 in0.0 mm
09:04 PM 49.3°F9.6°C 40.7°F4.8°C 72% Calm Calm -- 29.92 in1013.2 mb 0.00 in0.0 mm 0.00 in0.0 mm 0.00 in0.0 mm
09:05 PM 49.3°F9.6°C 41.0°F5.0°C 73% Calm Calm -- 29.92 in1013.2 mb 0.00 in0.0 mm 0.00 in0.0 mm 0.00 in0.0 mm
09:06 PM 49.3°F9.6°C 41.0°F5.0°C 73% Calm Calm -- 29.92 in1013.2 mb 0.00 in0.0 mm 0.00 in0.0 mm 0.00 in0.0 mm
09:07 PM 49.1°F9.5°C 40.8°F4.9°C 73% Calm Calm -- 29.92 in1013.2 mb 0.00 in0.0 mm 0.00 in0.0 mm 0.00 in0.0 mm
09:08 PM 49.1°F9.5°C 40.8°F4.9°C 73% Calm Calm -- 29.93 in1013.5 mb 0.00 in0.0 mm 0.00 in0.0 mm 0.00 in0.0 mm
09:09 PM 49.1°F9.5°C 40.8°F4.9°C 73% Calm Calm -- 29.92 in1013.2 mb 0.00 in0.0 mm 0.00 in0.0 mm 0.00 in0.0 mm
09:10 PM 49.1°F9.5°C 40.8°F4.9°C 73% Calm Calm -- 29.92 in1013.2 mb 0.00 in0.0 mm 0.00 in0.0 mm 0.00 in0.0 mm
09:11 PM 49.1°F9.5°C 40.5°F4.7°C 72% Calm Calm -- 29.93 in1013.5 mb 0.00 in0.0 mm 0.00 in0.0 mm 0.00 in0.0 mm
09:12 PM 49.1°F9.5°C 40.5°F4.7°C 72% Calm Calm -- 29.93 in1013.5 mb 0.00 in0.0 mm 0.00 in0.0 mm 0.00 in0.0 mm
09:13 PM 49.1°F9.5°C 40.5°F4.7°C 72% Calm Calm -- 29.93 in1013.5 mb 0.00 in0.0 mm 0.00 in0.0 mm 0.00 in0.0 mm
09:14 PM 49.1°F9.5°C 40.5°F4.7°C 72% 0.9 mph ESE1.4 kmh ESE 1.1 mph1.8 kmh 29.92 in1013.2 mb 0.00 in0.0 mm 0.00 in0.0 mm 0.00 in0.0 mm
09:16 PM 49.1°F9.5°C 40.5°F4.7°C 72% 2.2 mph SE3.5 kmh SE 2.2 mph3.5 kmh 29.93 in1013.5 mb 0.00 in0.0 mm 0.00 in0.0 mm 0.00 in0.0 mm
09:17 PM 49.1°F9.5°C 40.5°F4.7°C 72% 0.4 mph SE0.6 kmh SE 1.1 mph1.8 kmh 29.93 in1013.5 mb 0.00 in0.0 mm 0.00 in0.0 mm 0.00 in0.0 mm
09:18 PM 49.1°F9.5°C 40.5°F4.7°C 72% Calm Calm -- 29.92 in1013.2 mb 0.00 in0.0 mm 0.00 in0.0 mm 0.00 in0.0 mm
09:19 PM 49.1°F9.5°C 40.5°F4.7°C 72% 0.7 mph SE1.1 kmh SE 1.1 mph1.8 kmh 29.93 in1013.5 mb 0.00 in0.0 mm 0.00 in0.0 mm 0.00 in0.0 mm
09:20 PM 49.1°F9.5°C 40.5°F4.7°C 72% Calm Calm -- 29.92 in1013.2 mb 0.00 in0.0 mm 0.00 in0.0 mm 0.00 in0.0 mm
09:21 PM 49.1°F9.5°C 40.5°F4.7°C 72% Calm Calm -- 29.92 in1013.2 mb 0.00 in0.0 mm 0.00 in0.0 mm 0.00 in0.0 mm
09:22 PM 49.1°F9.5°C 40.5°F4.7°C 72% Calm Calm -- 29.92 in1013.2 mb 0.00 in0.0 mm 0.00 in0.0 mm 0.00 in0.0 mm
09:23 PM 49.1°F9.5°C 40.5°F4.7°C 72% Calm Calm -- 29.93 in1013.5 mb 0.00 in0.0 mm 0.00 in0.0 mm 0.00 in0.0 mm
09:24 PM 49.1°F9.5°C 40.5°F4.7°C 72% Calm Calm -- 29.92 in1013.2 mb 0.00 in0.0 mm 0.00 in0.0 mm 0.00 in0.0 mm
09:25 PM 49.1°F9.5°C 40.5°F4.7°C 72% Calm Calm -- 29.93 in1013.5 mb 0.00 in0.0 mm 0.00 in0.0 mm 0.00 in0.0 mm
09:26 PM 49.1°F9.5°C 40.5°F4.7°C 72% Calm Calm -- 29.93 in1013.5 mb 0.00 in0.0 mm 0.00 in0.0 mm 0.00 in0.0 mm
09:27 PM 49.1°F9.5°C 40.5°F4.7°C 72% 0.2 mph SE0.3 kmh SE 1.1 mph1.8 kmh 29.93 in1013.5 mb 0.00 in0.0 mm 0.00 in0.0 mm 0.00 in0.0 mm
09:29 PM 49.3°F9.6°C 40.3°F4.6°C 71% 0.2 mph SE0.3 kmh SE 1.1 mph1.8 kmh 29.93 in1013.5 mb 0.00 in0.0 mm 0.00 in0.0 mm 0.00 in0.0 mm
09:30 PM 49.3°F9.6°C 40.3°F4.6°C 71% Calm Calm -- 29.92 in1013.2 mb 0.00 in0.0 mm 0.00 in0.0 mm 0.00 in0.0 mm
09:31 PM 49.5°F9.7°C 40.5°F4.7°C 71% Calm Calm -- 29.93 in1013.5 mb 0.00 in0.0 mm 0.00 in0.0 mm 0.00 in0.0 mm
09:32 PM 49.5°F9.7°C 40.5°F4.7°C 71% Calm Calm -- 29.93 in1013.5 mb 0.00 in0.0 mm 0.00 in0.0 mm 0.00 in0.0 mm
09:35 PM 49.6°F9.8°C 40.2°F4.6°C 70% Calm Calm -- 29.93 in1013.5 mb 0.00 in0.0 mm 0.00 in0.0 mm 0.00 in0.0 mm
09:36 PM 49.8°F9.9°C 40.4°F4.7°C 70% Calm Calm -- 29.93 in1013.5 mb 0.00 in0.0 mm 0.00 in0.0 mm 0.00 in0.0 mm
09:38 PM 49.8°F9.9°C 40.4°F4.7°C 70% Calm Calm -- 29.93 in1013.5 mb 0.00 in0.0 mm 0.00 in0.0 mm 0.00 in0.0 mm
09:39 PM 49.8°F9.9°C 40.4°F4.7°C 70% Calm Calm -- 29.92 in1013.2 mb 0.00 in0.0 mm 0.00 in0.0 mm 0.00 in0.0 mm
09:41 PM 49.8°F9.9°C 40.0°F4.4°C 69% 0.2 mph SE0.3 kmh SE 1.1 mph1.8 kmh 29.93 in1013.5 mb 0.00 in0.0 mm 0.00 in0.0 mm 0.00 in0.0 mm
09:42 PM 50.0°F10.0°C 40.2°F4.6°C 69% Calm Calm -- 29.92 in1013.2 mb 0.00 in0.0 mm 0.00 in0.0 mm 0.00 in0.0 mm
09:43 PM 50.0°F10.0°C 40.2°F4.6°C 69% Calm Calm -- 29.93 in1013.5 mb 0.00 in0.0 mm 0.00 in0.0 mm 0.00 in0.0 mm
09:44 PM 50.0°F10.0°C 40.2°F4.6°C 69% 1.8 mph SE2.9 kmh SE 2.2 mph3.5 kmh 29.92 in1013.2 mb 0.00 in0.0 mm 0.00 in0.0 mm 0.00 in0.0 mm
09:45 PM 50.0°F10.0°C 39.9°F4.4°C 68% 0.9 mph SSE1.4 kmh SSE 1.1 mph1.8 kmh 29.92 in1013.2 mb 0.00 in0.0 mm 0.00 in0.0 mm 0.00 in0.0 mm
09:46 PM 50.2°F10.1°C 39.7°F4.3°C 67% 0.9 mph SE1.4 kmh SE 1.1 mph1.8 kmh 29.93 in1013.5 mb 0.00 in0.0 mm 0.00 in0.0 mm 0.00 in0.0 mm
09:47 PM 50.4°F10.2°C 39.9°F4.4°C 67% 0.2 mph SE0.3 kmh SE 1.1 mph1.8 kmh 29.93 in1013.5 mb 0.00 in0.0 mm 0.00 in0.0 mm 0.00 in0.0 mm
09:48 PM 50.5°F10.3°C 40.0°F4.4°C 67% Calm Calm -- 29.92 in1013.2 mb 0.00 in0.0 mm 0.00 in0.0 mm 0.00 in0.0 mm
09:49 PM 50.5°F10.3°C 40.3°F4.6°C 68% 1.3 mph E2.1 kmh E 2.2 mph3.5 kmh 29.93 in1013.5 mb 0.00 in0.0 mm 0.00 in0.0 mm 0.00 in0.0 mm
09:51 PM 50.4°F10.2°C 40.6°F4.8°C 69% Calm Calm -- 29.93 in1013.5 mb 0.00 in0.0 mm 0.00 in0.0 mm 0.00 in0.0 mm
09:52 PM 50.4°F10.2°C 40.6°F4.8°C 69% 0.2 mph E0.3 kmh E 1.1 mph1.8 kmh 29.92 in1013.2 mb 0.00 in0.0 mm 0.00 in0.0 mm 0.00 in0.0 mm
09:53 PM 50.2°F10.1°C 40.4°F4.7°C 69% Calm Calm -- 29.92 in1013.2 mb 0.00 in0.0 mm 0.00 in0.0 mm 0.00 in0.0 mm
09:54 PM 50.2°F10.1°C 40.8°F4.9°C 70% 0.9 mph E1.4 kmh E 1.1 mph1.8 kmh 29.92 in1013.2 mb 0.00 in0.0 mm 0.00 in0.0 mm 0.00 in0.0 mm
09:55 PM 50.2°F10.1°C 41.2°F5.1°C 71% 0.7 mph E1.1 kmh E 1.1 mph1.8 kmh 29.92 in1013.2 mb 0.00 in0.0 mm 0.00 in0.0 mm 0.00 in0.0 mm
09:56 PM 50.0°F10.0°C 41.0°F5.0°C 71% Calm Calm -- 29.93 in1013.5 mb 0.00 in0.0 mm 0.00 in0.0 mm 0.00 in0.0 mm
09:57 PM 49.8°F9.9°C 40.8°F4.9°C 71% 0.9 mph E1.4 kmh E 1.1 mph1.8 kmh 29.93 in1013.5 mb 0.00 in0.0 mm 0.00 in0.0 mm 0.00 in0.0 mm
09:59 PM 49.8°F9.9°C 40.8°F4.9°C 71% Calm Calm -- 29.92 in1013.2 mb 0.00 in0.0 mm 0.00 in0.0 mm 0.00 in0.0 mm
10:00 PM 49.6°F9.8°C 40.6°F4.8°C 71% 0.4 mph E0.6 kmh E 1.1 mph1.8 kmh 29.92 in1013.2 mb 0.00 in0.0 mm 0.00 in0.0 mm 0.00 in0.0 mm
10:01 PM 49.6°F9.8°C 40.2°F4.6°C 70% 1.1 mph E1.8 kmh E 1.1 mph1.8 kmh 29.93 in1013.5 mb 0.00 in0.0 mm 0.00 in0.0 mm 0.00 in0.0 mm
10:02 PM 49.8°F9.9°C 40.4°F4.7°C 70% 1.1 mph E1.8 kmh E 1.1 mph1.8 kmh 29.94 in1013.9 mb 0.00 in0.0 mm 0.00 in0.0 mm 0.00 in0.0 mm
10:03 PM 49.8°F9.9°C 40.4°F4.7°C 70% 1.3 mph ENE2.1 kmh ENE 2.2 mph3.5 kmh 29.93 in1013.5 mb 0.00 in0.0 mm 0.00 in0.0 mm 0.00 in0.0 mm
10:04 PM 49.8°F9.9°C 40.4°F4.7°C 70% 1.3 mph ENE2.1 kmh ENE 2.2 mph3.5 kmh 29.93 in1013.5 mb 0.00 in0.0 mm 0.00 in0.0 mm 0.00 in0.0 mm
10:06 PM 50.0°F10.0°C 40.6°F4.8°C 70% Calm Calm -- 29.92 in1013.2 mb 0.00 in0.0 mm 0.00 in0.0 mm 0.00 in0.0 mm
10:07 PM 49.8°F9.9°C 40.4°F4.7°C 70% 0.2 mph ENE0.3 kmh ENE 1.1 mph1.8 kmh 29.93 in1013.5 mb 0.00 in0.0 mm 0.00 in0.0 mm 0.00 in0.0 mm
10:08 PM 49.8°F9.9°C 40.4°F4.7°C 70% 0.9 mph ENE1.4 kmh ENE 1.1 mph1.8 kmh 29.93 in1013.5 mb 0.00 in0.0 mm 0.00 in0.0 mm 0.00 in0.0 mm
10:09 PM 49.8°F9.9°C 40.4°F4.7°C 70% 1.1 mph ENE1.8 kmh ENE 1.1 mph1.8 kmh 29.93 in1013.5 mb 0.00 in0.0 mm 0.00 in0.0 mm 0.00 in0.0 mm
10:10 PM 49.6°F9.8°C 40.2°F4.6°C 70% 0.9 mph ENE1.4 kmh ENE 1.1 mph1.8 kmh 29.93 in1013.5 mb 0.00 in0.0 mm 0.00 in0.0 mm 0.00 in0.0 mm
10:11 PM 49.6°F9.8°C 40.2°F4.6°C 70% Calm Calm -- 29.92 in1013.2 mb 0.00 in0.0 mm 0.00 in0.0 mm 0.00 in0.0 mm
10:12 PM 49.6°F9.8°C 40.2°F4.6°C 70% 0.2 mph ENE0.3 kmh ENE 1.1 mph1.8 kmh 29.93 in1013.5 mb 0.00 in0.0 mm 0.00 in0.0 mm 0.00 in0.0 mm
10:13 PM 49.6°F9.8°C 40.2°F4.6°C 70% 1.3 mph ENE2.1 kmh ENE 2.2 mph3.5 kmh 29.93 in1013.5 mb 0.00 in0.0 mm 0.00 in0.0 mm 0.00 in0.0 mm
10:15 PM 49.6°F9.8°C 40.2°F4.6°C 70% 1.1 mph ENE1.8 kmh ENE 1.1 mph1.8 kmh 29.93 in1013.5 mb 0.00 in0.0 mm 0.00 in0.0 mm 0.00 in0.0 mm
10:16 PM 49.6°F9.8°C 40.2°F4.6°C 70% 0.7 mph ENE1.1 kmh ENE 1.1 mph1.8 kmh 29.93 in1013.5 mb 0.00 in0.0 mm 0.00 in0.0 mm 0.00 in0.0 mm
10:17 PM 49.6°F9.8°C 40.6°F4.8°C 71% 0.9 mph ENE1.4 kmh ENE 1.1 mph1.8 kmh 29.92 in1013.2 mb 0.00 in0.0 mm 0.00 in0.0 mm 0.00 in0.0 mm
10:18 PM 49.6°F9.8°C 40.6°F4.8°C 71% Calm Calm -- 29.92 in1013.2 mb 0.00 in0.0 mm 0.00 in0.0 mm 0.00 in0.0 mm
10:19 PM 49.6°F9.8°C 40.6°F4.8°C 71% Calm Calm -- 29.92 in1013.2 mb 0.00 in0.0 mm 0.00 in0.0 mm 0.00 in0.0 mm
10:20 PM 49.6°F9.8°C 40.6°F4.8°C 71% Calm Calm -- 29.92 in1013.2 mb 0.00 in0.0 mm 0.00 in0.0 mm 0.00 in0.0 mm
10:21 PM 49.5°F9.7°C 40.5°F4.7°C 71% Calm Calm -- 29.92 in1013.2 mb 0.00 in0.0 mm 0.00 in0.0 mm 0.00 in0.0 mm
10:22 PM 49.5°F9.7°C 40.5°F4.7°C 71% 0.7 mph ENE1.1 kmh ENE 1.1 mph1.8 kmh 29.93 in1013.5 mb 0.00 in0.0 mm 0.00 in0.0 mm 0.00 in0.0 mm
10:23 PM 49.5°F9.7°C 40.5°F4.7°C 71% 0.2 mph ENE0.3 kmh ENE 1.1 mph1.8 kmh 29.92 in1013.2 mb 0.00 in0.0 mm 0.00 in0.0 mm 0.00 in0.0 mm
10:24 PM 49.5°F9.7°C 40.5°F4.7°C 71% Calm Calm -- 29.93 in1013.5 mb 0.00 in0.0 mm 0.00 in0.0 mm 0.00 in0.0 mm
10:25 PM 49.3°F9.6°C 40.7°F4.8°C 72% Calm Calm -- 29.93 in1013.5 mb 0.00 in0.0 mm 0.00 in0.0 mm 0.00 in0.0 mm
10:26 PM 49.1°F9.5°C 40.5°F4.7°C 72% Calm Calm -- 29.93 in1013.5 mb 0.00 in0.0 mm 0.00 in0.0 mm 0.00 in0.0 mm
10:27 PM 49.1°F9.5°C 40.5°F4.7°C 72% Calm Calm -- 29.92 in1013.2 mb 0.00 in0.0 mm 0.00 in0.0 mm 0.00 in0.0 mm
10:28 PM 49.1°F9.5°C 40.5°F4.7°C 72% Calm Calm -- 29.93 in1013.5 mb 0.00 in0.0 mm 0.00 in0.0 mm 0.00 in0.0 mm
10:29 PM 48.9°F9.4°C 40.3°F4.6°C 72% 0.7 mph ENE1.1 kmh ENE 1.1 mph1.8 kmh 29.93 in1013.5 mb 0.00 in0.0 mm 0.00 in0.0 mm 0.00 in0.0 mm
10:30 PM 48.9°F9.4°C 40.6°F4.8°C 73% 1.1 mph ENE1.8 kmh ENE 1.1 mph1.8 kmh 29.93 in1013.5 mb 0.00 in0.0 mm 0.00 in0.0 mm 0.00 in0.0 mm
10:31 PM 48.9°F9.4°C 40.6°F4.8°C 73% 0.9 mph ENE1.4 kmh ENE 1.1 mph1.8 kmh 29.92 in1013.2 mb 0.00 in0.0 mm 0.00 in0.0 mm 0.00 in0.0 mm
10:33 PM 48.7°F9.3°C 40.4°F4.7°C 73% 1.3 mph ENE2.1 kmh ENE 2.2 mph3.5 kmh 29.92 in1013.2 mb 0.00 in0.0 mm 0.00 in0.0 mm 0.00 in0.0 mm
10:34 PM 48.7°F9.3°C 40.1°F4.5°C 72% 1.3 mph ENE2.1 kmh ENE 2.2 mph3.5 kmh 29.92 in1013.2 mb 0.00 in0.0 mm 0.00 in0.0 mm 0.00 in0.0 mm
10:35 PM 48.7°F9.3°C 40.4°F4.7°C 73% 1.3 mph NE2.1 kmh NE 2.2 mph3.5 kmh 29.92 in1013.2 mb 0.00 in0.0 mm 0.00 in0.0 mm 0.00 in0.0 mm
10:36 PM 48.7°F9.3°C 40.4°F4.7°C 73% 1.1 mph NE1.8 kmh NE 1.1 mph1.8 kmh 29.91 in1012.9 mb 0.00 in0.0 mm 0.00 in0.0 mm 0.00 in0.0 mm
10:37 PM 48.7°F9.3°C 40.4°F4.7°C 73% 1.1 mph NE1.8 kmh NE 1.1 mph1.8 kmh 29.91 in1012.9 mb 0.00 in0.0 mm 0.00 in0.0 mm 0.00 in0.0 mm
10:38 PM 48.7°F9.3°C 40.4°F4.7°C 73% 0.7 mph NE1.1 kmh NE 1.1 mph1.8 kmh 29.91 in1012.9 mb 0.00 in0.0 mm 0.00 in0.0 mm 0.00 in0.0 mm
10:40 PM 48.6°F9.2°C 40.3°F4.6°C 73% 0.2 mph NE0.3 kmh NE 1.1 mph1.8 kmh 29.91 in1012.9 mb 0.00 in0.0 mm 0.00 in0.0 mm 0.00 in0.0 mm
10:41 PM 48.6°F9.2°C 40.3°F4.6°C 73% 0.7 mph NE1.1 kmh NE 1.1 mph1.8 kmh 29.92 in1013.2 mb 0.00 in0.0 mm 0.00 in0.0 mm 0.00 in0.0 mm
10:43 PM 48.6°F9.2°C 40.3°F4.6°C 73% 1.1 mph NE1.8 kmh NE 1.1 mph1.8 kmh 29.91 in1012.9 mb 0.00 in0.0 mm 0.00 in0.0 mm 0.00 in0.0 mm
10:44 PM 48.7°F9.3°C 40.1°F4.5°C 72% 0.2 mph NE0.3 kmh NE 1.1 mph1.8 kmh 29.92 in1013.2 mb 0.00 in0.0 mm 0.00 in0.0 mm 0.00 in0.0 mm
10:45 PM 48.7°F9.3°C 40.1°F4.5°C 72% Calm Calm -- 29.92 in1013.2 mb 0.00 in0.0 mm 0.00 in0.0 mm 0.00 in0.0 mm
10:47 PM 48.7°F9.3°C 40.1°F4.5°C 72% 1.1 mph NE1.8 kmh NE 1.1 mph1.8 kmh 29.91 in1012.9 mb 0.00 in0.0 mm 0.00 in0.0 mm 0.00 in0.0 mm
10:48 PM 48.7°F9.3°C 40.1°F4.5°C 72% 0.9 mph NE1.4 kmh NE 1.1 mph1.8 kmh 29.91 in1012.9 mb 0.00 in0.0 mm 0.00 in0.0 mm 0.00 in0.0 mm
10:49 PM 48.9°F9.4°C 40.3°F4.6°C 72% 0.9 mph NE1.4 kmh NE 1.1 mph1.8 kmh 29.91 in1012.9 mb 0.00 in0.0 mm 0.00 in0.0 mm 0.00 in0.0 mm
10:50 PM 48.9°F9.4°C 40.3°F4.6°C 72% 0.9 mph NE1.4 kmh NE 1.1 mph1.8 kmh 29.91 in1012.9 mb 0.00 in0.0 mm 0.00 in0.0 mm 0.00 in0.0 mm
10:51 PM 48.9°F9.4°C 40.3°F4.6°C 72% Calm Calm -- 29.91 in1012.9 mb 0.00 in0.0 mm 0.00 in0.0 mm 0.00 in0.0 mm
10:52 PM 48.9°F9.4°C 40.3°F4.6°C 72% Calm Calm -- 29.91 in1012.9 mb 0.00 in0.0 mm 0.00 in0.0 mm 0.00 in0.0 mm
10:53 PM 48.7°F9.3°C 40.4°F4.7°C 73% 0.9 mph NE1.4 kmh NE 1.1 mph1.8 kmh 29.91 in1012.9 mb 0.00 in0.0 mm 0.00 in0.0 mm 0.00 in0.0 mm
10:54 PM 48.7°F9.3°C 40.8°F4.9°C 74% 1.1 mph NE1.8 kmh NE 1.1 mph1.8 kmh 29.92 in1013.2 mb 0.00 in0.0 mm 0.00 in0.0 mm 0.00 in0.0 mm
10:55 PM 48.4°F9.1°C 40.5°F4.7°C 74% Calm Calm -- 29.91 in1012.9 mb 0.00 in0.0 mm 0.00 in0.0 mm 0.00 in0.0 mm
10:57 PM 48.2°F9.0°C 40.7°F4.8°C 75% 0.7 mph NE1.1 kmh NE 1.1 mph1.8 kmh 29.91 in1012.9 mb 0.00 in0.0 mm 0.00 in0.0 mm 0.00 in0.0 mm
10:58 PM 48.2°F9.0°C 40.7°F4.8°C 75% Calm Calm -- 29.91 in1012.9 mb 0.00 in0.0 mm 0.00 in0.0 mm 0.00 in0.0 mm
10:59 PM 48.0°F8.9°C 40.5°F4.7°C 75% Calm Calm -- 29.92 in1013.2 mb 0.00 in0.0 mm 0.00 in0.0 mm 0.00 in0.0 mm
11:00 PM 48.0°F8.9°C 40.5°F4.7°C 75% Calm Calm -- 29.91 in1012.9 mb 0.00 in0.0 mm 0.00 in0.0 mm 0.00 in0.0 mm
11:01 PM 48.0°F8.9°C 40.5°F4.7°C 75% Calm Calm -- 29.91 in1012.9 mb 0.00 in0.0 mm 0.00 in0.0 mm 0.00 in0.0 mm
11:02 PM 48.0°F8.9°C 40.5°F4.7°C 75% Calm Calm -- 29.91 in1012.9 mb 0.00 in0.0 mm 0.00 in0.0 mm 0.00 in0.0 mm
11:03 PM 47.8°F8.8°C 40.3°F4.6°C 75% Calm Calm -- 29.91 in1012.9 mb 0.00 in0.0 mm 0.00 in0.0 mm 0.00 in0.0 mm
11:05 PM 47.7°F8.7°C 40.8°F4.9°C 77% Calm Calm -- 29.91 in1012.9 mb 0.00 in0.0 mm 0.00 in0.0 mm 0.00 in0.0 mm
11:06 PM 47.7°F8.7°C 41.2°F5.1°C 78% Calm Calm -- 29.91 in1012.9 mb 0.00 in0.0 mm 0.00 in0.0 mm 0.00 in0.0 mm
11:07 PM 47.3°F8.5°C 40.8°F4.9°C 78% Calm Calm -- 29.91 in1012.9 mb 0.00 in0.0 mm 0.00 in0.0 mm 0.00 in0.0 mm
11:08 PM 47.3°F8.5°C 40.8°F4.9°C 78% Calm Calm -- 29.91 in1012.9 mb 0.00 in0.0 mm 0.00 in0.0 mm 0.00 in0.0 mm
11:09 PM 47.1°F8.4°C 40.6°F4.8°C 78% Calm Calm -- 29.91 in1012.9 mb 0.00 in0.0 mm 0.00 in0.0 mm 0.00 in0.0 mm
11:10 PM 47.1°F8.4°C 40.6°F4.8°C 78% Calm Calm -- 29.91 in</